<?xml version="1.0" encoding="UTF-8" standalone="no" ?>
<gpx xmlns="http://www.topografix.com/GPX/1/1" xmlns:xsi="http://www.w3.org/2001/XMLSchema-instance" xsi:schemaLocation="http://www.topografix.com/GPX/1/1 http://www.topografix.com/GPX/1/1/gpx.xsd" version="1.1" creator="VisuGPX - https://www.visugpx.com">
  <metadata>
    <name>Montagne de la Lance au départ de Teyssières</name>
    <desc><![CDATA[Boucle au départ de Teyssières (vieux village) par le col de la Pause, le col de Lachaud, la Lance et Rocher Garaud. Descente par de vieux sentiers peu empruntés, un peu envahis de végétation et de branches mortes par endroits.]]></desc>
  </metadata>
  <trk>
    <name><![CDATA[2025-06-15 15:20:01]]></name>
    <trkseg>
      <trkpt lat="44.45013" lon="5.13178">
        <ele>672.1</ele>
        <time>2025-06-15T07:08:36Z</time>
      </trkpt>
      <trkpt lat="44.45027" lon="5.13171">
        <ele>671.14</ele>
        <time>2025-06-15T07:08:51Z</time>
      </trkpt>
      <trkpt lat="44.45043" lon="5.13166">
        <ele>670.18</ele>
        <time>2025-06-15T07:09:06Z</time>
      </trkpt>
      <trkpt lat="44.45055" lon="5.13168">
        <ele>669.7</ele>
        <time>2025-06-15T07:09:16Z</time>
      </trkpt>
      <trkpt lat="44.4507" lon="5.13186">
        <ele>668.25</ele>
        <time>2025-06-15T07:09:33Z</time>
      </trkpt>
      <trkpt lat="44.45073" lon="5.13195">
        <ele>667.77</ele>
        <time>2025-06-15T07:09:44Z</time>
      </trkpt>
      <trkpt lat="44.45074" lon="5.13206">
        <ele>666.81</ele>
        <time>2025-06-15T07:09:52Z</time>
      </trkpt>
      <trkpt lat="44.4508" lon="5.13226">
        <ele>666.81</ele>
        <time>2025-06-15T07:10:06Z</time>
      </trkpt>
      <trkpt lat="44.45092" lon="5.13251">
        <ele>666.33</ele>
        <time>2025-06-15T07:10:22Z</time>
      </trkpt>
      <trkpt lat="44.45095" lon="5.13256">
        <ele>666.33</ele>
        <time>2025-06-15T07:10:26Z</time>
      </trkpt>
      <trkpt lat="44.45103" lon="5.13278">
        <ele>666.33</ele>
        <time>2025-06-15T07:10:42Z</time>
      </trkpt>
      <trkpt lat="44.45103" lon="5.1328">
        <ele>666.33</ele>
        <time>2025-06-15T07:10:43Z</time>
      </trkpt>
      <trkpt lat="44.45108" lon="5.13299">
        <ele>666.33</ele>
        <time>2025-06-15T07:10:55Z</time>
      </trkpt>
      <trkpt lat="44.45109" lon="5.13312">
        <ele>667.29</ele>
        <time>2025-06-15T07:11:02Z</time>
      </trkpt>
      <trkpt lat="44.45101" lon="5.13338">
        <ele>667.77</ele>
        <time>2025-06-15T07:11:17Z</time>
      </trkpt>
      <trkpt lat="44.45099" lon="5.13356">
        <ele>668.25</ele>
        <time>2025-06-15T07:11:31Z</time>
      </trkpt>
      <trkpt lat="44.45101" lon="5.13369">
        <ele>668.25</ele>
        <time>2025-06-15T07:11:39Z</time>
      </trkpt>
      <trkpt lat="44.45101" lon="5.13375">
        <ele>668.25</ele>
        <time>2025-06-15T07:11:42Z</time>
      </trkpt>
      <trkpt lat="44.45103" lon="5.13405">
        <ele>668.73</ele>
        <time>2025-06-15T07:11:59Z</time>
      </trkpt>
      <trkpt lat="44.45107" lon="5.13428">
        <ele>668.73</ele>
        <time>2025-06-15T07:12:13Z</time>
      </trkpt>
      <trkpt lat="44.45108" lon="5.13457">
        <ele>666.33</ele>
        <time>2025-06-15T07:12:30Z</time>
      </trkpt>
      <trkpt lat="44.45109" lon="5.13486">
        <ele>664.89</ele>
        <time>2025-06-15T07:12:47Z</time>
      </trkpt>
      <trkpt lat="44.4511" lon="5.13511">
        <ele>663.93</ele>
        <time>2025-06-15T07:13:01Z</time>
      </trkpt>
      <trkpt lat="44.4511" lon="5.13538">
        <ele>662.97</ele>
        <time>2025-06-15T07:13:17Z</time>
      </trkpt>
      <trkpt lat="44.45108" lon="5.13552">
        <ele>662.97</ele>
        <time>2025-06-15T07:13:24Z</time>
      </trkpt>
      <trkpt lat="44.45105" lon="5.1357">
        <ele>662.01</ele>
        <time>2025-06-15T07:13:35Z</time>
      </trkpt>
      <trkpt lat="44.45107" lon="5.13588">
        <ele>660.56</ele>
        <time>2025-06-15T07:13:44Z</time>
      </trkpt>
      <trkpt lat="44.45117" lon="5.13604">
        <ele>660.56</ele>
        <time>2025-06-15T07:13:58Z</time>
      </trkpt>
      <trkpt lat="44.45118" lon="5.13611">
        <ele>662.01</ele>
        <time>2025-06-15T07:14:02Z</time>
      </trkpt>
      <trkpt lat="44.45119" lon="5.13612">
        <ele>662.01</ele>
        <time>2025-06-15T07:14:03Z</time>
      </trkpt>
      <trkpt lat="44.45118" lon="5.1363">
        <ele>663.45</ele>
        <time>2025-06-15T07:14:15Z</time>
      </trkpt>
      <trkpt lat="44.45114" lon="5.1364">
        <ele>664.41</ele>
        <time>2025-06-15T07:14:23Z</time>
      </trkpt>
      <trkpt lat="44.45104" lon="5.13659">
        <ele>665.85</ele>
        <time>2025-06-15T07:14:39Z</time>
      </trkpt>
      <trkpt lat="44.45105" lon="5.13665">
        <ele>666.81</ele>
        <time>2025-06-15T07:14:44Z</time>
      </trkpt>
      <trkpt lat="44.45106" lon="5.13686">
        <ele>667.77</ele>
        <time>2025-06-15T07:14:59Z</time>
      </trkpt>
      <trkpt lat="44.45105" lon="5.13693">
        <ele>668.73</ele>
        <time>2025-06-15T07:15:04Z</time>
      </trkpt>
      <trkpt lat="44.45108" lon="5.13712">
        <ele>669.7</ele>
        <time>2025-06-15T07:15:17Z</time>
      </trkpt>
      <trkpt lat="44.45109" lon="5.13715">
        <ele>669.7</ele>
        <time>2025-06-15T07:15:20Z</time>
      </trkpt>
      <trkpt lat="44.45111" lon="5.13722">
        <ele>670.18</ele>
        <time>2025-06-15T07:15:26Z</time>
      </trkpt>
      <trkpt lat="44.45112" lon="5.13725">
        <ele>670.66</ele>
        <time>2025-06-15T07:15:28Z</time>
      </trkpt>
      <trkpt lat="44.45106" lon="5.13731">
        <ele>672.1</ele>
        <time>2025-06-15T07:15:37Z</time>
      </trkpt>
      <trkpt lat="44.45097" lon="5.13723">
        <ele>673.54</ele>
        <time>2025-06-15T07:15:49Z</time>
      </trkpt>
      <trkpt lat="44.45088" lon="5.13709">
        <ele>674.98</ele>
        <time>2025-06-15T07:16:02Z</time>
      </trkpt>
      <trkpt lat="44.45077" lon="5.13691">
        <ele>676.91</ele>
        <time>2025-06-15T07:16:18Z</time>
      </trkpt>
      <trkpt lat="44.45072" lon="5.13684">
        <ele>677.87</ele>
        <time>2025-06-15T07:16:27Z</time>
      </trkpt>
      <trkpt lat="44.45059" lon="5.13673">
        <ele>679.79</ele>
        <time>2025-06-15T07:16:42Z</time>
      </trkpt>
      <trkpt lat="44.45049" lon="5.13662">
        <ele>681.71</ele>
        <time>2025-06-15T07:16:56Z</time>
      </trkpt>
      <trkpt lat="44.4505" lon="5.13677">
        <ele>683.15</ele>
        <time>2025-06-15T07:17:09Z</time>
      </trkpt>
      <trkpt lat="44.4505" lon="5.1368">
        <ele>683.15</ele>
        <time>2025-06-15T07:17:11Z</time>
      </trkpt>
      <trkpt lat="44.45051" lon="5.13683">
        <ele>683.63</ele>
        <time>2025-06-15T07:17:14Z</time>
      </trkpt>
      <trkpt lat="44.45057" lon="5.13691">
        <ele>684.12</ele>
        <time>2025-06-15T07:17:21Z</time>
      </trkpt>
      <trkpt lat="44.45062" lon="5.13704">
        <ele>685.08</ele>
        <time>2025-06-15T07:17:34Z</time>
      </trkpt>
      <trkpt lat="44.45066" lon="5.13719">
        <ele>686.52</ele>
        <time>2025-06-15T07:17:47Z</time>
      </trkpt>
      <trkpt lat="44.45073" lon="5.13737">
        <ele>687.96</ele>
        <time>2025-06-15T07:18:01Z</time>
      </trkpt>
      <trkpt lat="44.45074" lon="5.13743">
        <ele>688.92</ele>
        <time>2025-06-15T07:18:06Z</time>
      </trkpt>
      <trkpt lat="44.45077" lon="5.13759">
        <ele>689.88</ele>
        <time>2025-06-15T07:18:20Z</time>
      </trkpt>
      <trkpt lat="44.45068" lon="5.13762">
        <ele>691.81</ele>
        <time>2025-06-15T07:18:33Z</time>
      </trkpt>
      <trkpt lat="44.45066" lon="5.13756">
        <ele>692.29</ele>
        <time>2025-06-15T07:18:38Z</time>
      </trkpt>
      <trkpt lat="44.45062" lon="5.13742">
        <ele>693.73</ele>
        <time>2025-06-15T07:18:51Z</time>
      </trkpt>
      <trkpt lat="44.45052" lon="5.13729">
        <ele>695.17</ele>
        <time>2025-06-15T07:19:06Z</time>
      </trkpt>
      <trkpt lat="44.45048" lon="5.13727">
        <ele>696.13</ele>
        <time>2025-06-15T07:19:10Z</time>
      </trkpt>
      <trkpt lat="44.45033" lon="5.13723">
        <ele>698.05</ele>
        <time>2025-06-15T07:19:27Z</time>
      </trkpt>
      <trkpt lat="44.45018" lon="5.13719">
        <ele>699.5</ele>
        <time>2025-06-15T07:19:42Z</time>
      </trkpt>
      <trkpt lat="44.45003" lon="5.1371">
        <ele>700.94</ele>
        <time>2025-06-15T07:19:57Z</time>
      </trkpt>
      <trkpt lat="44.44987" lon="5.13691">
        <ele>701.9</ele>
        <time>2025-06-15T07:20:14Z</time>
      </trkpt>
      <trkpt lat="44.44979" lon="5.13684">
        <ele>702.86</ele>
        <time>2025-06-15T07:20:23Z</time>
      </trkpt>
      <trkpt lat="44.44969" lon="5.13662">
        <ele>703.82</ele>
        <time>2025-06-15T07:20:38Z</time>
      </trkpt>
      <trkpt lat="44.44961" lon="5.13641">
        <ele>706.23</ele>
        <time>2025-06-15T07:20:54Z</time>
      </trkpt>
      <trkpt lat="44.44955" lon="5.13617">
        <ele>707.67</ele>
        <time>2025-06-15T07:21:09Z</time>
      </trkpt>
      <trkpt lat="44.44947" lon="5.13596">
        <ele>709.11</ele>
        <time>2025-06-15T07:21:24Z</time>
      </trkpt>
      <trkpt lat="44.44936" lon="5.13589">
        <ele>710.55</ele>
        <time>2025-06-15T07:21:40Z</time>
      </trkpt>
      <trkpt lat="44.44939" lon="5.13598">
        <ele>711.99</ele>
        <time>2025-06-15T07:21:54Z</time>
      </trkpt>
      <trkpt lat="44.44943" lon="5.13612">
        <ele>713.92</ele>
        <time>2025-06-15T07:22:07Z</time>
      </trkpt>
      <trkpt lat="44.44944" lon="5.13628">
        <ele>714.88</ele>
        <time>2025-06-15T07:22:24Z</time>
      </trkpt>
      <trkpt lat="44.44937" lon="5.13622">
        <ele>715.84</ele>
        <time>2025-06-15T07:26:13Z</time>
      </trkpt>
      <trkpt lat="44.44936" lon="5.13621">
        <ele>715.84</ele>
        <time>2025-06-15T07:26:14Z</time>
      </trkpt>
      <trkpt lat="44.44933" lon="5.13614">
        <ele>716.8</ele>
        <time>2025-06-15T07:26:20Z</time>
      </trkpt>
      <trkpt lat="44.4493" lon="5.1361">
        <ele>716.8</ele>
        <time>2025-06-15T07:26:24Z</time>
      </trkpt>
      <trkpt lat="44.44915" lon="5.13602">
        <ele>716.8</ele>
        <time>2025-06-15T07:26:41Z</time>
      </trkpt>
      <trkpt lat="44.44907" lon="5.13604">
        <ele>720.16</ele>
        <time>2025-06-15T07:26:57Z</time>
      </trkpt>
      <trkpt lat="44.44899" lon="5.13608">
        <ele>722.09</ele>
        <time>2025-06-15T07:27:12Z</time>
      </trkpt>
      <trkpt lat="44.44894" lon="5.13614">
        <ele>724.97</ele>
        <time>2025-06-15T07:27:28Z</time>
      </trkpt>
      <trkpt lat="44.44888" lon="5.13621">
        <ele>727.37</ele>
        <time>2025-06-15T07:27:44Z</time>
      </trkpt>
      <trkpt lat="44.44881" lon="5.1362">
        <ele>729.78</ele>
        <time>2025-06-15T07:28:02Z</time>
      </trkpt>
      <trkpt lat="44.44871" lon="5.13615">
        <ele>732.66</ele>
        <time>2025-06-15T07:28:17Z</time>
      </trkpt>
      <trkpt lat="44.44864" lon="5.13624">
        <ele>736.03</ele>
        <time>2025-06-15T07:28:34Z</time>
      </trkpt>
      <trkpt lat="44.4486" lon="5.13636">
        <ele>738.43</ele>
        <time>2025-06-15T07:28:50Z</time>
      </trkpt>
      <trkpt lat="44.44854" lon="5.13642">
        <ele>740.83</ele>
        <time>2025-06-15T07:29:06Z</time>
      </trkpt>
      <trkpt lat="44.44851" lon="5.13651">
        <ele>744.2</ele>
        <time>2025-06-15T07:29:24Z</time>
      </trkpt>
      <trkpt lat="44.44843" lon="5.13648">
        <ele>744.68</ele>
        <time>2025-06-15T07:29:38Z</time>
      </trkpt>
      <trkpt lat="44.44834" lon="5.13643">
        <ele>744.68</ele>
        <time>2025-06-15T07:29:51Z</time>
      </trkpt>
      <trkpt lat="44.44823" lon="5.13633">
        <ele>745.64</ele>
        <time>2025-06-15T07:30:05Z</time>
      </trkpt>
      <trkpt lat="44.44818" lon="5.13624">
        <ele>746.12</ele>
        <time>2025-06-15T07:30:18Z</time>
      </trkpt>
      <trkpt lat="44.44813" lon="5.13612">
        <ele>747.08</ele>
        <time>2025-06-15T07:30:29Z</time>
      </trkpt>
      <trkpt lat="44.44811" lon="5.13597">
        <ele>749</ele>
        <time>2025-06-15T07:30:45Z</time>
      </trkpt>
      <trkpt lat="44.44806" lon="5.13583">
        <ele>749.49</ele>
        <time>2025-06-15T07:31:01Z</time>
      </trkpt>
      <trkpt lat="44.44805" lon="5.1358">
        <ele>749.49</ele>
        <time>2025-06-15T07:31:17Z</time>
      </trkpt>
      <trkpt lat="44.44802" lon="5.13573">
        <ele>749.49</ele>
        <time>2025-06-15T07:32:28Z</time>
      </trkpt>
      <trkpt lat="44.448" lon="5.13566">
        <ele>748.04</ele>
        <time>2025-06-15T07:32:36Z</time>
      </trkpt>
      <trkpt lat="44.44797" lon="5.13555">
        <ele>744.68</ele>
        <time>2025-06-15T07:32:47Z</time>
      </trkpt>
      <trkpt lat="44.4479" lon="5.13544">
        <ele>741.31</ele>
        <time>2025-06-15T07:33:01Z</time>
      </trkpt>
      <trkpt lat="44.44782" lon="5.13534">
        <ele>738.91</ele>
        <time>2025-06-15T07:33:17Z</time>
      </trkpt>
      <trkpt lat="44.44777" lon="5.13533">
        <ele>738.91</ele>
        <time>2025-06-15T07:33:23Z</time>
      </trkpt>
      <trkpt lat="44.44776" lon="5.13531">
        <ele>738.91</ele>
        <time>2025-06-15T07:33:25Z</time>
      </trkpt>
      <trkpt lat="44.44768" lon="5.13528">
        <ele>737.95</ele>
        <time>2025-06-15T07:33:33Z</time>
      </trkpt>
      <trkpt lat="44.44766" lon="5.13527">
        <ele>737.47</ele>
        <time>2025-06-15T07:33:35Z</time>
      </trkpt>
      <trkpt lat="44.4475" lon="5.13521">
        <ele>734.1</ele>
        <time>2025-06-15T07:33:50Z</time>
      </trkpt>
      <trkpt lat="44.44736" lon="5.1352">
        <ele>735.55</ele>
        <time>2025-06-15T07:34:04Z</time>
      </trkpt>
      <trkpt lat="44.44727" lon="5.13517">
        <ele>737.95</ele>
        <time>2025-06-15T07:34:17Z</time>
      </trkpt>
      <trkpt lat="44.44715" lon="5.13512">
        <ele>740.35</ele>
        <time>2025-06-15T07:34:30Z</time>
      </trkpt>
      <trkpt lat="44.44707" lon="5.13506">
        <ele>741.79</ele>
        <time>2025-06-15T07:34:42Z</time>
      </trkpt>
      <trkpt lat="44.44701" lon="5.13496">
        <ele>744.68</ele>
        <time>2025-06-15T07:34:56Z</time>
      </trkpt>
      <trkpt lat="44.44695" lon="5.13484">
        <ele>746.12</ele>
        <time>2025-06-15T07:35:11Z</time>
      </trkpt>
      <trkpt lat="44.44691" lon="5.1348">
        <ele>748.52</ele>
        <time>2025-06-15T07:35:26Z</time>
      </trkpt>
      <trkpt lat="44.44682" lon="5.13484">
        <ele>750.93</ele>
        <time>2025-06-15T07:35:42Z</time>
      </trkpt>
      <trkpt lat="44.44675" lon="5.13491">
        <ele>752.37</ele>
        <time>2025-06-15T07:35:56Z</time>
      </trkpt>
      <trkpt lat="44.44661" lon="5.13498">
        <ele>754.77</ele>
        <time>2025-06-15T07:36:12Z</time>
      </trkpt>
      <trkpt lat="44.44651" lon="5.13504">
        <ele>757.18</ele>
        <time>2025-06-15T07:36:27Z</time>
      </trkpt>
      <trkpt lat="44.44645" lon="5.13507">
        <ele>758.14</ele>
        <time>2025-06-15T07:36:40Z</time>
      </trkpt>
      <trkpt lat="44.44644" lon="5.13509">
        <ele>758.62</ele>
        <time>2025-06-15T07:36:42Z</time>
      </trkpt>
      <trkpt lat="44.44637" lon="5.1352">
        <ele>760.06</ele>
        <time>2025-06-15T07:36:56Z</time>
      </trkpt>
      <trkpt lat="44.44629" lon="5.1353">
        <ele>762.46</ele>
        <time>2025-06-15T07:37:11Z</time>
      </trkpt>
      <trkpt lat="44.44619" lon="5.13541">
        <ele>764.39</ele>
        <time>2025-06-15T07:37:26Z</time>
      </trkpt>
      <trkpt lat="44.44615" lon="5.13546">
        <ele>764.87</ele>
        <time>2025-06-15T07:37:31Z</time>
      </trkpt>
      <trkpt lat="44.44606" lon="5.13554">
        <ele>765.83</ele>
        <time>2025-06-15T07:37:44Z</time>
      </trkpt>
      <trkpt lat="44.44595" lon="5.13562">
        <ele>766.31</ele>
        <time>2025-06-15T07:37:56Z</time>
      </trkpt>
      <trkpt lat="44.44588" lon="5.1357">
        <ele>767.75</ele>
        <time>2025-06-15T07:38:07Z</time>
      </trkpt>
      <trkpt lat="44.44581" lon="5.13578">
        <ele>770.15</ele>
        <time>2025-06-15T07:38:23Z</time>
      </trkpt>
      <trkpt lat="44.44576" lon="5.13589">
        <ele>772.08</ele>
        <time>2025-06-15T07:38:37Z</time>
      </trkpt>
      <trkpt lat="44.4457" lon="5.13601">
        <ele>774</ele>
        <time>2025-06-15T07:38:51Z</time>
      </trkpt>
      <trkpt lat="44.44562" lon="5.13614">
        <ele>776.4</ele>
        <time>2025-06-15T07:39:06Z</time>
      </trkpt>
      <trkpt lat="44.44556" lon="5.13629">
        <ele>777.84</ele>
        <time>2025-06-15T07:39:19Z</time>
      </trkpt>
      <trkpt lat="44.44548" lon="5.13646">
        <ele>779.77</ele>
        <time>2025-06-15T07:39:35Z</time>
      </trkpt>
      <trkpt lat="44.4454" lon="5.13653">
        <ele>782.17</ele>
        <time>2025-06-15T07:39:49Z</time>
      </trkpt>
      <trkpt lat="44.44531" lon="5.13658">
        <ele>784.57</ele>
        <time>2025-06-15T07:40:04Z</time>
      </trkpt>
      <trkpt lat="44.44527" lon="5.1366">
        <ele>785.53</ele>
        <time>2025-06-15T07:40:10Z</time>
      </trkpt>
      <trkpt lat="44.44514" lon="5.13666">
        <ele>787.46</ele>
        <time>2025-06-15T07:40:23Z</time>
      </trkpt>
      <trkpt lat="44.44502" lon="5.13665">
        <ele>788.9</ele>
        <time>2025-06-15T07:40:36Z</time>
      </trkpt>
      <trkpt lat="44.44487" lon="5.13666">
        <ele>791.3</ele>
        <time>2025-06-15T07:40:51Z</time>
      </trkpt>
      <trkpt lat="44.44475" lon="5.13664">
        <ele>793.71</ele>
        <time>2025-06-15T07:41:07Z</time>
      </trkpt>
      <trkpt lat="44.44461" lon="5.1366">
        <ele>796.59</ele>
        <time>2025-06-15T07:41:24Z</time>
      </trkpt>
      <trkpt lat="44.4445" lon="5.13651">
        <ele>799.47</ele>
        <time>2025-06-15T07:41:39Z</time>
      </trkpt>
      <trkpt lat="44.44444" lon="5.13638">
        <ele>801.4</ele>
        <time>2025-06-15T07:41:55Z</time>
      </trkpt>
      <trkpt lat="44.4444" lon="5.13632">
        <ele>802.84</ele>
        <time>2025-06-15T07:42:08Z</time>
      </trkpt>
      <trkpt lat="44.44428" lon="5.13638">
        <ele>804.76</ele>
        <time>2025-06-15T07:42:22Z</time>
      </trkpt>
      <trkpt lat="44.44419" lon="5.13647">
        <ele>806.2</ele>
        <time>2025-06-15T07:42:36Z</time>
      </trkpt>
      <trkpt lat="44.44406" lon="5.13656">
        <ele>808.61</ele>
        <time>2025-06-15T07:42:52Z</time>
      </trkpt>
      <trkpt lat="44.44398" lon="5.13658">
        <ele>810.53</ele>
        <time>2025-06-15T07:43:06Z</time>
      </trkpt>
      <trkpt lat="44.44386" lon="5.13664">
        <ele>812.93</ele>
        <time>2025-06-15T07:43:20Z</time>
      </trkpt>
      <trkpt lat="44.44374" lon="5.13665">
        <ele>814.85</ele>
        <time>2025-06-15T07:43:33Z</time>
      </trkpt>
      <trkpt lat="44.44366" lon="5.13663">
        <ele>817.74</ele>
        <time>2025-06-15T07:43:49Z</time>
      </trkpt>
      <trkpt lat="44.44357" lon="5.13654">
        <ele>820.14</ele>
        <time>2025-06-15T07:44:05Z</time>
      </trkpt>
      <trkpt lat="44.44351" lon="5.13643">
        <ele>822.55</ele>
        <time>2025-06-15T07:44:18Z</time>
      </trkpt>
      <trkpt lat="44.44342" lon="5.13634">
        <ele>824.95</ele>
        <time>2025-06-15T07:44:31Z</time>
      </trkpt>
      <trkpt lat="44.44336" lon="5.13623">
        <ele>827.35</ele>
        <time>2025-06-15T07:44:46Z</time>
      </trkpt>
      <trkpt lat="44.44332" lon="5.13611">
        <ele>828.79</ele>
        <time>2025-06-15T07:45:00Z</time>
      </trkpt>
      <trkpt lat="44.44324" lon="5.13603">
        <ele>830.72</ele>
        <time>2025-06-15T07:45:16Z</time>
      </trkpt>
      <trkpt lat="44.44317" lon="5.13592">
        <ele>832.64</ele>
        <time>2025-06-15T07:45:32Z</time>
      </trkpt>
      <trkpt lat="44.44307" lon="5.13584">
        <ele>834.56</ele>
        <time>2025-06-15T07:45:47Z</time>
      </trkpt>
      <trkpt lat="44.44298" lon="5.13579">
        <ele>836.48</ele>
        <time>2025-06-15T07:46:00Z</time>
      </trkpt>
      <trkpt lat="44.4429" lon="5.13567">
        <ele>838.89</ele>
        <time>2025-06-15T07:46:15Z</time>
      </trkpt>
      <trkpt lat="44.44282" lon="5.13552">
        <ele>841.29</ele>
        <time>2025-06-15T07:46:31Z</time>
      </trkpt>
      <trkpt lat="44.44275" lon="5.13546">
        <ele>843.21</ele>
        <time>2025-06-15T07:46:47Z</time>
      </trkpt>
      <trkpt lat="44.44267" lon="5.13543">
        <ele>845.62</ele>
        <time>2025-06-15T07:47:03Z</time>
      </trkpt>
      <trkpt lat="44.44257" lon="5.13542">
        <ele>847.54</ele>
        <time>2025-06-15T07:47:19Z</time>
      </trkpt>
      <trkpt lat="44.44247" lon="5.13546">
        <ele>849.46</ele>
        <time>2025-06-15T07:47:34Z</time>
      </trkpt>
      <trkpt lat="44.44239" lon="5.13552">
        <ele>852.35</ele>
        <time>2025-06-15T07:47:51Z</time>
      </trkpt>
      <trkpt lat="44.44229" lon="5.13559">
        <ele>855.23</ele>
        <time>2025-06-15T07:48:09Z</time>
      </trkpt>
      <trkpt lat="44.44221" lon="5.13564">
        <ele>857.63</ele>
        <time>2025-06-15T07:48:23Z</time>
      </trkpt>
      <trkpt lat="44.4421" lon="5.13571">
        <ele>860.04</ele>
        <time>2025-06-15T07:48:38Z</time>
      </trkpt>
      <trkpt lat="44.442" lon="5.13575">
        <ele>861.96</ele>
        <time>2025-06-15T07:48:55Z</time>
      </trkpt>
      <trkpt lat="44.44188" lon="5.13575">
        <ele>863.88</ele>
        <time>2025-06-15T07:49:12Z</time>
      </trkpt>
      <trkpt lat="44.44176" lon="5.13574">
        <ele>864.84</ele>
        <time>2025-06-15T07:49:27Z</time>
      </trkpt>
      <trkpt lat="44.44163" lon="5.13577">
        <ele>867.73</ele>
        <time>2025-06-15T07:49:42Z</time>
      </trkpt>
      <trkpt lat="44.44151" lon="5.13584">
        <ele>870.13</ele>
        <time>2025-06-15T07:49:59Z</time>
      </trkpt>
      <trkpt lat="44.44138" lon="5.13585">
        <ele>873.01</ele>
        <time>2025-06-15T07:50:16Z</time>
      </trkpt>
      <trkpt lat="44.44129" lon="5.13585">
        <ele>874.46</ele>
        <time>2025-06-15T07:50:31Z</time>
      </trkpt>
      <trkpt lat="44.4412" lon="5.13581">
        <ele>875.42</ele>
        <time>2025-06-15T07:50:43Z</time>
      </trkpt>
      <trkpt lat="44.44105" lon="5.1358">
        <ele>878.3</ele>
        <time>2025-06-15T07:51:01Z</time>
      </trkpt>
      <trkpt lat="44.44094" lon="5.13581">
        <ele>880.22</ele>
        <time>2025-06-15T07:51:16Z</time>
      </trkpt>
      <trkpt lat="44.44088" lon="5.13582">
        <ele>881.19</ele>
        <time>2025-06-15T07:51:23Z</time>
      </trkpt>
      <trkpt lat="44.44072" lon="5.13579">
        <ele>883.11</ele>
        <time>2025-06-15T07:51:40Z</time>
      </trkpt>
      <trkpt lat="44.44057" lon="5.13577">
        <ele>884.07</ele>
        <time>2025-06-15T07:51:55Z</time>
      </trkpt>
      <trkpt lat="44.44043" lon="5.13578">
        <ele>885.99</ele>
        <time>2025-06-15T07:52:09Z</time>
      </trkpt>
      <trkpt lat="44.44032" lon="5.13579">
        <ele>886.95</ele>
        <time>2025-06-15T07:52:21Z</time>
      </trkpt>
      <trkpt lat="44.4402" lon="5.13576">
        <ele>889.36</ele>
        <time>2025-06-15T07:52:35Z</time>
      </trkpt>
      <trkpt lat="44.44008" lon="5.13574">
        <ele>890.8</ele>
        <time>2025-06-15T07:52:50Z</time>
      </trkpt>
      <trkpt lat="44.43996" lon="5.13572">
        <ele>892.72</ele>
        <time>2025-06-15T07:53:03Z</time>
      </trkpt>
      <trkpt lat="44.43984" lon="5.13569">
        <ele>893.68</ele>
        <time>2025-06-15T07:53:17Z</time>
      </trkpt>
      <trkpt lat="44.43977" lon="5.13567">
        <ele>894.16</ele>
        <time>2025-06-15T07:53:31Z</time>
      </trkpt>
      <trkpt lat="44.4397" lon="5.13562">
        <ele>894.16</ele>
        <time>2025-06-15T07:53:45Z</time>
      </trkpt>
      <trkpt lat="44.43955" lon="5.13559">
        <ele>894.16</ele>
        <time>2025-06-15T07:54:02Z</time>
      </trkpt>
      <trkpt lat="44.43942" lon="5.13553">
        <ele>895.12</ele>
        <time>2025-06-15T07:54:15Z</time>
      </trkpt>
      <trkpt lat="44.43927" lon="5.13549">
        <ele>895.61</ele>
        <time>2025-06-15T07:54:31Z</time>
      </trkpt>
      <trkpt lat="44.4392" lon="5.13547">
        <ele>895.61</ele>
        <time>2025-06-15T07:54:49Z</time>
      </trkpt>
      <trkpt lat="44.43918" lon="5.13547">
        <ele>897.53</ele>
        <time>2025-06-15T07:58:19Z</time>
      </trkpt>
      <trkpt lat="44.43903" lon="5.13549">
        <ele>898.49</ele>
        <time>2025-06-15T07:58:35Z</time>
      </trkpt>
      <trkpt lat="44.4389" lon="5.13554">
        <ele>900.89</ele>
        <time>2025-06-15T07:58:50Z</time>
      </trkpt>
      <trkpt lat="44.43879" lon="5.13556">
        <ele>902.82</ele>
        <time>2025-06-15T07:59:04Z</time>
      </trkpt>
      <trkpt lat="44.43867" lon="5.13558">
        <ele>905.22</ele>
        <time>2025-06-15T07:59:18Z</time>
      </trkpt>
      <trkpt lat="44.43856" lon="5.13561">
        <ele>907.62</ele>
        <time>2025-06-15T07:59:33Z</time>
      </trkpt>
      <trkpt lat="44.43844" lon="5.13559">
        <ele>910.03</ele>
        <time>2025-06-15T07:59:48Z</time>
      </trkpt>
      <trkpt lat="44.43839" lon="5.1356">
        <ele>910.51</ele>
        <time>2025-06-15T07:59:55Z</time>
      </trkpt>
      <trkpt lat="44.43827" lon="5.13567">
        <ele>912.91</ele>
        <time>2025-06-15T08:00:11Z</time>
      </trkpt>
      <trkpt lat="44.43824" lon="5.13569">
        <ele>913.87</ele>
        <time>2025-06-15T08:00:16Z</time>
      </trkpt>
      <trkpt lat="44.43818" lon="5.13572">
        <ele>914.35</ele>
        <time>2025-06-15T08:00:23Z</time>
      </trkpt>
      <trkpt lat="44.43804" lon="5.13576">
        <ele>916.27</ele>
        <time>2025-06-15T08:00:38Z</time>
      </trkpt>
      <trkpt lat="44.43792" lon="5.13579">
        <ele>917.72</ele>
        <time>2025-06-15T08:00:52Z</time>
      </trkpt>
      <trkpt lat="44.43789" lon="5.13582">
        <ele>918.68</ele>
        <time>2025-06-15T08:00:58Z</time>
      </trkpt>
      <trkpt lat="44.4378" lon="5.13589">
        <ele>922.04</ele>
        <time>2025-06-15T08:01:14Z</time>
      </trkpt>
      <trkpt lat="44.4377" lon="5.13595">
        <ele>923.96</ele>
        <time>2025-06-15T08:01:29Z</time>
      </trkpt>
      <trkpt lat="44.43761" lon="5.13589">
        <ele>924.93</ele>
        <time>2025-06-15T08:01:40Z</time>
      </trkpt>
      <trkpt lat="44.43754" lon="5.13577">
        <ele>925.89</ele>
        <time>2025-06-15T08:01:53Z</time>
      </trkpt>
      <trkpt lat="44.43748" lon="5.13565">
        <ele>928.29</ele>
        <time>2025-06-15T08:02:07Z</time>
      </trkpt>
      <trkpt lat="44.43739" lon="5.13552">
        <ele>928.77</ele>
        <time>2025-06-15T08:02:21Z</time>
      </trkpt>
      <trkpt lat="44.43725" lon="5.13546">
        <ele>929.25</ele>
        <time>2025-06-15T08:02:35Z</time>
      </trkpt>
      <trkpt lat="44.43706" lon="5.13538">
        <ele>929.25</ele>
        <time>2025-06-15T08:02:51Z</time>
      </trkpt>
      <trkpt lat="44.43689" lon="5.13531">
        <ele>929.25</ele>
        <time>2025-06-15T08:03:07Z</time>
      </trkpt>
      <trkpt lat="44.43669" lon="5.13525">
        <ele>929.25</ele>
        <time>2025-06-15T08:03:24Z</time>
      </trkpt>
      <trkpt lat="44.43646" lon="5.13522">
        <ele>930.21</ele>
        <time>2025-06-15T08:03:43Z</time>
      </trkpt>
      <trkpt lat="44.43629" lon="5.13517">
        <ele>930.21</ele>
        <time>2025-06-15T08:03:59Z</time>
      </trkpt>
      <trkpt lat="44.43608" lon="5.13518">
        <ele>931.17</ele>
        <time>2025-06-15T08:04:16Z</time>
      </trkpt>
      <trkpt lat="44.43595" lon="5.13513">
        <ele>932.62</ele>
        <time>2025-06-15T08:04:30Z</time>
      </trkpt>
      <trkpt lat="44.43581" lon="5.13512">
        <ele>933.58</ele>
        <time>2025-06-15T08:04:43Z</time>
      </trkpt>
      <trkpt lat="44.43568" lon="5.1351">
        <ele>934.06</ele>
        <time>2025-06-15T08:04:55Z</time>
      </trkpt>
      <trkpt lat="44.4355" lon="5.13502">
        <ele>935.5</ele>
        <time>2025-06-15T08:05:12Z</time>
      </trkpt>
      <trkpt lat="44.43535" lon="5.13495">
        <ele>937.42</ele>
        <time>2025-06-15T08:05:28Z</time>
      </trkpt>
      <trkpt lat="44.43522" lon="5.13488">
        <ele>939.35</ele>
        <time>2025-06-15T08:05:44Z</time>
      </trkpt>
      <trkpt lat="44.43511" lon="5.13482">
        <ele>941.75</ele>
        <time>2025-06-15T08:05:57Z</time>
      </trkpt>
      <trkpt lat="44.435" lon="5.13479">
        <ele>943.19</ele>
        <time>2025-06-15T08:06:10Z</time>
      </trkpt>
      <trkpt lat="44.43491" lon="5.13474">
        <ele>944.63</ele>
        <time>2025-06-15T08:06:22Z</time>
      </trkpt>
      <trkpt lat="44.4348" lon="5.13462">
        <ele>946.56</ele>
        <time>2025-06-15T08:06:38Z</time>
      </trkpt>
      <trkpt lat="44.43467" lon="5.13448">
        <ele>948.48</ele>
        <time>2025-06-15T08:06:53Z</time>
      </trkpt>
      <trkpt lat="44.43454" lon="5.13435">
        <ele>950.88</ele>
        <time>2025-06-15T08:07:08Z</time>
      </trkpt>
      <trkpt lat="44.43441" lon="5.1342">
        <ele>952.32</ele>
        <time>2025-06-15T08:07:23Z</time>
      </trkpt>
      <trkpt lat="44.43426" lon="5.13399">
        <ele>952.8</ele>
        <time>2025-06-15T08:07:41Z</time>
      </trkpt>
      <trkpt lat="44.43414" lon="5.13381">
        <ele>953.28</ele>
        <time>2025-06-15T08:07:56Z</time>
      </trkpt>
      <trkpt lat="44.43402" lon="5.1336">
        <ele>953.28</ele>
        <time>2025-06-15T08:08:12Z</time>
      </trkpt>
      <trkpt lat="44.43395" lon="5.1335">
        <ele>953.77</ele>
        <time>2025-06-15T08:08:20Z</time>
      </trkpt>
      <trkpt lat="44.43383" lon="5.13335">
        <ele>955.69</ele>
        <time>2025-06-15T08:08:35Z</time>
      </trkpt>
      <trkpt lat="44.43381" lon="5.1333">
        <ele>955.69</ele>
        <time>2025-06-15T08:08:39Z</time>
      </trkpt>
      <trkpt lat="44.43369" lon="5.13308">
        <ele>956.17</ele>
        <time>2025-06-15T08:08:54Z</time>
      </trkpt>
      <trkpt lat="44.43361" lon="5.13291">
        <ele>957.61</ele>
        <time>2025-06-15T08:09:07Z</time>
      </trkpt>
      <trkpt lat="44.43354" lon="5.13276">
        <ele>958.57</ele>
        <time>2025-06-15T08:09:18Z</time>
      </trkpt>
      <trkpt lat="44.4335" lon="5.1327">
        <ele>958.57</ele>
        <time>2025-06-15T08:09:23Z</time>
      </trkpt>
      <trkpt lat="44.43348" lon="5.13267">
        <ele>958.57</ele>
        <time>2025-06-15T08:09:25Z</time>
      </trkpt>
      <trkpt lat="44.43333" lon="5.13245">
        <ele>959.05</ele>
        <time>2025-06-15T08:09:41Z</time>
      </trkpt>
      <trkpt lat="44.4333" lon="5.13239">
        <ele>959.05</ele>
        <time>2025-06-15T08:09:45Z</time>
      </trkpt>
      <trkpt lat="44.43326" lon="5.13224">
        <ele>959.53</ele>
        <time>2025-06-15T08:09:55Z</time>
      </trkpt>
      <trkpt lat="44.43319" lon="5.13206">
        <ele>960.49</ele>
        <time>2025-06-15T08:10:08Z</time>
      </trkpt>
      <trkpt lat="44.43315" lon="5.13197">
        <ele>960.98</ele>
        <time>2025-06-15T08:10:15Z</time>
      </trkpt>
      <trkpt lat="44.43311" lon="5.1319">
        <ele>961.46</ele>
        <time>2025-06-15T08:10:20Z</time>
      </trkpt>
      <trkpt lat="44.43308" lon="5.13183">
        <ele>961.94</ele>
        <time>2025-06-15T08:10:25Z</time>
      </trkpt>
      <trkpt lat="44.43305" lon="5.13177">
        <ele>962.42</ele>
        <time>2025-06-15T08:10:29Z</time>
      </trkpt>
      <trkpt lat="44.43297" lon="5.13155">
        <ele>963.86</ele>
        <time>2025-06-15T08:10:44Z</time>
      </trkpt>
      <trkpt lat="44.43289" lon="5.13141">
        <ele>963.86</ele>
        <time>2025-06-15T08:10:54Z</time>
      </trkpt>
      <trkpt lat="44.4329" lon="5.13127">
        <ele>965.3</ele>
        <time>2025-06-15T08:11:06Z</time>
      </trkpt>
      <trkpt lat="44.43287" lon="5.13107">
        <ele>967.22</ele>
        <time>2025-06-15T08:11:21Z</time>
      </trkpt>
      <trkpt lat="44.43285" lon="5.13089">
        <ele>969.15</ele>
        <time>2025-06-15T08:11:35Z</time>
      </trkpt>
      <trkpt lat="44.43282" lon="5.13074">
        <ele>972.51</ele>
        <time>2025-06-15T08:11:56Z</time>
      </trkpt>
      <trkpt lat="44.43281" lon="5.13045">
        <ele>978.28</ele>
        <time>2025-06-15T08:14:07Z</time>
      </trkpt>
      <trkpt lat="44.43278" lon="5.13035">
        <ele>980.68</ele>
        <time>2025-06-15T08:14:21Z</time>
      </trkpt>
      <trkpt lat="44.43274" lon="5.13026">
        <ele>982.6</ele>
        <time>2025-06-15T08:14:35Z</time>
      </trkpt>
      <trkpt lat="44.43272" lon="5.13014">
        <ele>985.49</ele>
        <time>2025-06-15T08:14:49Z</time>
      </trkpt>
      <trkpt lat="44.43271" lon="5.13">
        <ele>987.89</ele>
        <time>2025-06-15T08:15:03Z</time>
      </trkpt>
      <trkpt lat="44.43271" lon="5.12999">
        <ele>987.89</ele>
        <time>2025-06-15T08:15:04Z</time>
      </trkpt>
      <trkpt lat="44.43267" lon="5.12985">
        <ele>990.3</ele>
        <time>2025-06-15T08:15:18Z</time>
      </trkpt>
      <trkpt lat="44.4326" lon="5.12975">
        <ele>991.74</ele>
        <time>2025-06-15T08:15:36Z</time>
      </trkpt>
      <trkpt lat="44.43253" lon="5.12975">
        <ele>990.3</ele>
        <time>2025-06-15T08:15:51Z</time>
      </trkpt>
      <trkpt lat="44.43246" lon="5.12975">
        <ele>988.85</ele>
        <time>2025-06-15T08:16:03Z</time>
      </trkpt>
      <trkpt lat="44.4323" lon="5.12973">
        <ele>985.97</ele>
        <time>2025-06-15T08:16:20Z</time>
      </trkpt>
      <trkpt lat="44.43208" lon="5.1297">
        <ele>984.05</ele>
        <time>2025-06-15T08:16:40Z</time>
      </trkpt>
      <trkpt lat="44.43193" lon="5.12962">
        <ele>982.12</ele>
        <time>2025-06-15T08:16:58Z</time>
      </trkpt>
      <trkpt lat="44.43187" lon="5.1295">
        <ele>981.16</ele>
        <time>2025-06-15T08:17:14Z</time>
      </trkpt>
      <trkpt lat="44.43182" lon="5.12944">
        <ele>981.16</ele>
        <time>2025-06-15T08:17:31Z</time>
      </trkpt>
      <trkpt lat="44.43178" lon="5.12939">
        <ele>980.68</ele>
        <time>2025-06-15T08:17:46Z</time>
      </trkpt>
      <trkpt lat="44.43176" lon="5.12933">
        <ele>980.2</ele>
        <time>2025-06-15T08:17:51Z</time>
      </trkpt>
      <trkpt lat="44.4317" lon="5.12922">
        <ele>978.28</ele>
        <time>2025-06-15T08:18:09Z</time>
      </trkpt>
      <trkpt lat="44.43168" lon="5.12915">
        <ele>976.84</ele>
        <time>2025-06-15T08:22:13Z</time>
      </trkpt>
      <trkpt lat="44.43174" lon="5.12908">
        <ele>976.36</ele>
        <time>2025-06-15T08:22:24Z</time>
      </trkpt>
      <trkpt lat="44.43197" lon="5.12904">
        <ele>973.95</ele>
        <time>2025-06-15T08:22:43Z</time>
      </trkpt>
      <trkpt lat="44.43221" lon="5.12903">
        <ele>972.51</ele>
        <time>2025-06-15T08:23:01Z</time>
      </trkpt>
      <trkpt lat="44.4324" lon="5.12894">
        <ele>971.07</ele>
        <time>2025-06-15T08:23:18Z</time>
      </trkpt>
      <trkpt lat="44.43239" lon="5.1289">
        <ele>970.59</ele>
        <time>2025-06-15T08:23:20Z</time>
      </trkpt>
      <trkpt lat="44.43241" lon="5.12883">
        <ele>970.11</ele>
        <time>2025-06-15T08:23:25Z</time>
      </trkpt>
      <trkpt lat="44.4324" lon="5.12862">
        <ele>967.22</ele>
        <time>2025-06-15T08:23:38Z</time>
      </trkpt>
      <trkpt lat="44.43231" lon="5.12852">
        <ele>963.86</ele>
        <time>2025-06-15T08:23:49Z</time>
      </trkpt>
      <trkpt lat="44.43225" lon="5.12842">
        <ele>960.98</ele>
        <time>2025-06-15T08:23:58Z</time>
      </trkpt>
      <trkpt lat="44.4322" lon="5.12832">
        <ele>959.53</ele>
        <time>2025-06-15T08:24:05Z</time>
      </trkpt>
      <trkpt lat="44.43209" lon="5.12814">
        <ele>955.69</ele>
        <time>2025-06-15T08:24:19Z</time>
      </trkpt>
      <trkpt lat="44.43204" lon="5.12792">
        <ele>951.84</ele>
        <time>2025-06-15T08:24:33Z</time>
      </trkpt>
      <trkpt lat="44.43204" lon="5.12779">
        <ele>949.92</ele>
        <time>2025-06-15T08:24:41Z</time>
      </trkpt>
      <trkpt lat="44.43201" lon="5.12774">
        <ele>948.96</ele>
        <time>2025-06-15T08:24:45Z</time>
      </trkpt>
      <trkpt lat="44.43198" lon="5.12762">
        <ele>946.07</ele>
        <time>2025-06-15T08:24:55Z</time>
      </trkpt>
      <trkpt lat="44.43195" lon="5.12757">
        <ele>944.63</ele>
        <time>2025-06-15T08:24:59Z</time>
      </trkpt>
      <trkpt lat="44.4319" lon="5.12732">
        <ele>940.79</ele>
        <time>2025-06-15T08:25:14Z</time>
      </trkpt>
      <trkpt lat="44.43179" lon="5.12711">
        <ele>937.42</ele>
        <time>2025-06-15T08:25:28Z</time>
      </trkpt>
      <trkpt lat="44.43169" lon="5.12698">
        <ele>934.06</ele>
        <time>2025-06-15T08:25:39Z</time>
      </trkpt>
      <trkpt lat="44.43165" lon="5.12694">
        <ele>933.1</ele>
        <time>2025-06-15T08:25:43Z</time>
      </trkpt>
      <trkpt lat="44.43152" lon="5.12688">
        <ele>928.77</ele>
        <time>2025-06-15T08:25:55Z</time>
      </trkpt>
      <trkpt lat="44.4315" lon="5.12682">
        <ele>927.33</ele>
        <time>2025-06-15T08:25:59Z</time>
      </trkpt>
      <trkpt lat="44.43137" lon="5.12674">
        <ele>923.96</ele>
        <time>2025-06-15T08:26:12Z</time>
      </trkpt>
      <trkpt lat="44.43126" lon="5.12662">
        <ele>920.6</ele>
        <time>2025-06-15T08:26:24Z</time>
      </trkpt>
      <trkpt lat="44.43122" lon="5.12658">
        <ele>919.64</ele>
        <time>2025-06-15T08:26:28Z</time>
      </trkpt>
      <trkpt lat="44.43112" lon="5.12655">
        <ele>919.16</ele>
        <time>2025-06-15T08:26:36Z</time>
      </trkpt>
      <trkpt lat="44.43108" lon="5.12653">
        <ele>918.68</ele>
        <time>2025-06-15T08:26:41Z</time>
      </trkpt>
      <trkpt lat="44.43103" lon="5.12645">
        <ele>917.24</ele>
        <time>2025-06-15T08:26:47Z</time>
      </trkpt>
      <trkpt lat="44.43092" lon="5.12617">
        <ele>914.83</ele>
        <time>2025-06-15T08:27:05Z</time>
      </trkpt>
      <trkpt lat="44.43088" lon="5.1259">
        <ele>911.95</ele>
        <time>2025-06-15T08:27:20Z</time>
      </trkpt>
      <trkpt lat="44.43085" lon="5.12562">
        <ele>908.58</ele>
        <time>2025-06-15T08:27:37Z</time>
      </trkpt>
      <trkpt lat="44.43079" lon="5.12533">
        <ele>905.22</ele>
        <time>2025-06-15T08:27:54Z</time>
      </trkpt>
      <trkpt lat="44.43073" lon="5.12503">
        <ele>902.33</ele>
        <time>2025-06-15T08:28:11Z</time>
      </trkpt>
      <trkpt lat="44.43072" lon="5.1248">
        <ele>900.89</ele>
        <time>2025-06-15T08:28:24Z</time>
      </trkpt>
      <trkpt lat="44.43065" lon="5.12448">
        <ele>897.05</ele>
        <time>2025-06-15T08:28:42Z</time>
      </trkpt>
      <trkpt lat="44.43057" lon="5.12421">
        <ele>893.68</ele>
        <time>2025-06-15T08:28:58Z</time>
      </trkpt>
      <trkpt lat="44.43047" lon="5.1239">
        <ele>890.32</ele>
        <time>2025-06-15T08:29:16Z</time>
      </trkpt>
      <trkpt lat="44.4304" lon="5.1236">
        <ele>887.43</ele>
        <time>2025-06-15T08:29:34Z</time>
      </trkpt>
      <trkpt lat="44.4303" lon="5.12322">
        <ele>884.55</ele>
        <time>2025-06-15T08:29:54Z</time>
      </trkpt>
      <trkpt lat="44.4303" lon="5.12318">
        <ele>884.07</ele>
        <time>2025-06-15T08:29:57Z</time>
      </trkpt>
      <trkpt lat="44.43027" lon="5.12302">
        <ele>882.63</ele>
        <time>2025-06-15T08:30:06Z</time>
      </trkpt>
      <trkpt lat="44.43017" lon="5.12269">
        <ele>879.26</ele>
        <time>2025-06-15T08:30:25Z</time>
      </trkpt>
      <trkpt lat="44.43015" lon="5.12259">
        <ele>878.78</ele>
        <time>2025-06-15T08:30:30Z</time>
      </trkpt>
      <trkpt lat="44.43012" lon="5.12248">
        <ele>877.82</ele>
        <time>2025-06-15T08:30:36Z</time>
      </trkpt>
      <trkpt lat="44.43008" lon="5.12208">
        <ele>874.46</ele>
        <time>2025-06-15T08:30:57Z</time>
      </trkpt>
      <trkpt lat="44.43011" lon="5.1218">
        <ele>871.57</ele>
        <time>2025-06-15T08:31:12Z</time>
      </trkpt>
      <trkpt lat="44.43017" lon="5.1215">
        <ele>869.17</ele>
        <time>2025-06-15T08:31:30Z</time>
      </trkpt>
      <trkpt lat="44.43022" lon="5.1212">
        <ele>866.29</ele>
        <time>2025-06-15T08:31:47Z</time>
      </trkpt>
      <trkpt lat="44.43027" lon="5.12094">
        <ele>863.88</ele>
        <time>2025-06-15T08:32:03Z</time>
      </trkpt>
      <trkpt lat="44.43036" lon="5.12066">
        <ele>861.48</ele>
        <time>2025-06-15T08:32:21Z</time>
      </trkpt>
      <trkpt lat="44.43036" lon="5.12064">
        <ele>861.48</ele>
        <time>2025-06-15T08:32:22Z</time>
      </trkpt>
      <trkpt lat="44.43041" lon="5.12038">
        <ele>858.59</ele>
        <time>2025-06-15T08:32:38Z</time>
      </trkpt>
      <trkpt lat="44.43044" lon="5.12007">
        <ele>855.71</ele>
        <time>2025-06-15T08:32:54Z</time>
      </trkpt>
      <trkpt lat="44.43048" lon="5.11979">
        <ele>852.83</ele>
        <time>2025-06-15T08:33:09Z</time>
      </trkpt>
      <trkpt lat="44.43048" lon="5.11977">
        <ele>852.83</ele>
        <time>2025-06-15T08:33:10Z</time>
      </trkpt>
      <trkpt lat="44.43053" lon="5.1197">
        <ele>852.35</ele>
        <time>2025-06-15T08:33:26Z</time>
      </trkpt>
      <trkpt lat="44.43054" lon="5.11966">
        <ele>851.87</ele>
        <time>2025-06-15T08:33:48Z</time>
      </trkpt>
      <trkpt lat="44.43061" lon="5.11962">
        <ele>852.35</ele>
        <time>2025-06-15T08:36:09Z</time>
      </trkpt>
      <trkpt lat="44.43071" lon="5.1196">
        <ele>854.75</ele>
        <time>2025-06-15T08:36:21Z</time>
      </trkpt>
      <trkpt lat="44.43075" lon="5.11959">
        <ele>855.71</ele>
        <time>2025-06-15T08:36:26Z</time>
      </trkpt>
      <trkpt lat="44.43081" lon="5.11958">
        <ele>857.15</ele>
        <time>2025-06-15T08:36:32Z</time>
      </trkpt>
      <trkpt lat="44.43095" lon="5.11963">
        <ele>860.04</ele>
        <time>2025-06-15T08:36:48Z</time>
      </trkpt>
      <trkpt lat="44.43106" lon="5.11967">
        <ele>862.44</ele>
        <time>2025-06-15T08:37:03Z</time>
      </trkpt>
      <trkpt lat="44.43118" lon="5.11972">
        <ele>865.8</ele>
        <time>2025-06-15T08:37:18Z</time>
      </trkpt>
      <trkpt lat="44.43129" lon="5.11976">
        <ele>868.69</ele>
        <time>2025-06-15T08:37:34Z</time>
      </trkpt>
      <trkpt lat="44.43141" lon="5.11981">
        <ele>872.05</ele>
        <time>2025-06-15T08:37:51Z</time>
      </trkpt>
      <trkpt lat="44.43153" lon="5.11983">
        <ele>874.94</ele>
        <time>2025-06-15T08:38:06Z</time>
      </trkpt>
      <trkpt lat="44.43165" lon="5.11986">
        <ele>876.86</ele>
        <time>2025-06-15T08:38:19Z</time>
      </trkpt>
      <trkpt lat="44.43178" lon="5.1199">
        <ele>878.78</ele>
        <time>2025-06-15T08:38:35Z</time>
      </trkpt>
      <trkpt lat="44.43191" lon="5.11988">
        <ele>880.71</ele>
        <time>2025-06-15T08:38:50Z</time>
      </trkpt>
      <trkpt lat="44.432" lon="5.11986">
        <ele>882.15</ele>
        <time>2025-06-15T08:38:58Z</time>
      </trkpt>
      <trkpt lat="44.43204" lon="5.11987">
        <ele>882.15</ele>
        <time>2025-06-15T08:39:02Z</time>
      </trkpt>
      <trkpt lat="44.43211" lon="5.11989">
        <ele>882.63</ele>
        <time>2025-06-15T08:39:08Z</time>
      </trkpt>
      <trkpt lat="44.43223" lon="5.12">
        <ele>884.07</ele>
        <time>2025-06-15T08:39:22Z</time>
      </trkpt>
      <trkpt lat="44.43225" lon="5.12004">
        <ele>884.55</ele>
        <time>2025-06-15T08:39:26Z</time>
      </trkpt>
      <trkpt lat="44.43233" lon="5.12017">
        <ele>885.03</ele>
        <time>2025-06-15T08:39:36Z</time>
      </trkpt>
      <trkpt lat="44.43244" lon="5.12033">
        <ele>885.51</ele>
        <time>2025-06-15T08:39:51Z</time>
      </trkpt>
      <trkpt lat="44.43261" lon="5.12045">
        <ele>887.91</ele>
        <time>2025-06-15T08:40:06Z</time>
      </trkpt>
      <trkpt lat="44.43274" lon="5.12052">
        <ele>888.88</ele>
        <time>2025-06-15T08:40:20Z</time>
      </trkpt>
      <trkpt lat="44.43286" lon="5.12064">
        <ele>890.8</ele>
        <time>2025-06-15T08:40:35Z</time>
      </trkpt>
      <trkpt lat="44.43294" lon="5.12077">
        <ele>892.72</ele>
        <time>2025-06-15T08:40:47Z</time>
      </trkpt>
      <trkpt lat="44.43303" lon="5.12089">
        <ele>894.64</ele>
        <time>2025-06-15T08:40:59Z</time>
      </trkpt>
      <trkpt lat="44.43315" lon="5.12103">
        <ele>896.57</ele>
        <time>2025-06-15T08:41:15Z</time>
      </trkpt>
      <trkpt lat="44.43329" lon="5.12105">
        <ele>899.45</ele>
        <time>2025-06-15T08:41:31Z</time>
      </trkpt>
      <trkpt lat="44.43341" lon="5.12109">
        <ele>902.82</ele>
        <time>2025-06-15T08:41:48Z</time>
      </trkpt>
      <trkpt lat="44.43353" lon="5.12116">
        <ele>904.74</ele>
        <time>2025-06-15T08:42:02Z</time>
      </trkpt>
      <trkpt lat="44.43364" lon="5.12123">
        <ele>905.22</ele>
        <time>2025-06-15T08:42:14Z</time>
      </trkpt>
      <trkpt lat="44.43371" lon="5.12129">
        <ele>905.7</ele>
        <time>2025-06-15T08:42:22Z</time>
      </trkpt>
      <trkpt lat="44.43389" lon="5.12134">
        <ele>906.18</ele>
        <time>2025-06-15T08:42:37Z</time>
      </trkpt>
      <trkpt lat="44.43402" lon="5.12121">
        <ele>909.06</ele>
        <time>2025-06-15T08:42:53Z</time>
      </trkpt>
      <trkpt lat="44.43406" lon="5.12114">
        <ele>910.51</ele>
        <time>2025-06-15T08:43:01Z</time>
      </trkpt>
      <trkpt lat="44.43415" lon="5.121">
        <ele>912.91</ele>
        <time>2025-06-15T08:43:15Z</time>
      </trkpt>
      <trkpt lat="44.43424" lon="5.12086">
        <ele>915.31</ele>
        <time>2025-06-15T08:43:30Z</time>
      </trkpt>
      <trkpt lat="44.43436" lon="5.12076">
        <ele>917.24</ele>
        <time>2025-06-15T08:43:45Z</time>
      </trkpt>
      <trkpt lat="44.4344" lon="5.12073">
        <ele>917.72</ele>
        <time>2025-06-15T08:43:49Z</time>
      </trkpt>
      <trkpt lat="44.43454" lon="5.12059">
        <ele>919.16</ele>
        <time>2025-06-15T08:44:04Z</time>
      </trkpt>
      <trkpt lat="44.43471" lon="5.12052">
        <ele>919.64</ele>
        <time>2025-06-15T08:44:19Z</time>
      </trkpt>
      <trkpt lat="44.43476" lon="5.12047">
        <ele>920.6</ele>
        <time>2025-06-15T08:44:24Z</time>
      </trkpt>
      <trkpt lat="44.43478" lon="5.12045">
        <ele>920.6</ele>
        <time>2025-06-15T08:44:26Z</time>
      </trkpt>
      <trkpt lat="44.43489" lon="5.12034">
        <ele>921.56</ele>
        <time>2025-06-15T08:44:37Z</time>
      </trkpt>
      <trkpt lat="44.43509" lon="5.12031">
        <ele>921.56</ele>
        <time>2025-06-15T08:44:53Z</time>
      </trkpt>
      <trkpt lat="44.43517" lon="5.12027">
        <ele>921.56</ele>
        <time>2025-06-15T08:45:07Z</time>
      </trkpt>
      <trkpt lat="44.43518" lon="5.12028">
        <ele>921.56</ele>
        <time>2025-06-15T08:45:28Z</time>
      </trkpt>
      <trkpt lat="44.43522" lon="5.12027">
        <ele>921.56</ele>
        <time>2025-06-15T08:45:47Z</time>
      </trkpt>
      <trkpt lat="44.43535" lon="5.12023">
        <ele>923</ele>
        <time>2025-06-15T08:46:04Z</time>
      </trkpt>
      <trkpt lat="44.4354" lon="5.12015">
        <ele>923</ele>
        <time>2025-06-15T08:46:15Z</time>
      </trkpt>
      <trkpt lat="44.43541" lon="5.12013">
        <ele>923</ele>
        <time>2025-06-15T08:46:18Z</time>
      </trkpt>
      <trkpt lat="44.43541" lon="5.12011">
        <ele>923</ele>
        <time>2025-06-15T08:46:20Z</time>
      </trkpt>
      <trkpt lat="44.43547" lon="5.12">
        <ele>923</ele>
        <time>2025-06-15T08:46:29Z</time>
      </trkpt>
      <trkpt lat="44.43566" lon="5.11987">
        <ele>923.48</ele>
        <time>2025-06-15T08:46:48Z</time>
      </trkpt>
      <trkpt lat="44.43579" lon="5.11987">
        <ele>923.96</ele>
        <time>2025-06-15T08:46:59Z</time>
      </trkpt>
      <trkpt lat="44.436" lon="5.11985">
        <ele>924.93</ele>
        <time>2025-06-15T08:47:16Z</time>
      </trkpt>
      <trkpt lat="44.43618" lon="5.11976">
        <ele>925.89</ele>
        <time>2025-06-15T08:47:32Z</time>
      </trkpt>
      <trkpt lat="44.43633" lon="5.11968">
        <ele>928.29</ele>
        <time>2025-06-15T08:47:47Z</time>
      </trkpt>
      <trkpt lat="44.43645" lon="5.11964">
        <ele>930.21</ele>
        <time>2025-06-15T08:47:57Z</time>
      </trkpt>
      <trkpt lat="44.43658" lon="5.11954">
        <ele>931.17</ele>
        <time>2025-06-15T08:48:12Z</time>
      </trkpt>
      <trkpt lat="44.43664" lon="5.11948">
        <ele>931.65</ele>
        <time>2025-06-15T08:48:20Z</time>
      </trkpt>
      <trkpt lat="44.43673" lon="5.11937">
        <ele>932.14</ele>
        <time>2025-06-15T08:48:30Z</time>
      </trkpt>
      <trkpt lat="44.43678" lon="5.1193">
        <ele>932.62</ele>
        <time>2025-06-15T08:48:37Z</time>
      </trkpt>
      <trkpt lat="44.4369" lon="5.11911">
        <ele>933.1</ele>
        <time>2025-06-15T08:48:52Z</time>
      </trkpt>
      <trkpt lat="44.43696" lon="5.11896">
        <ele>933.1</ele>
        <time>2025-06-15T08:49:03Z</time>
      </trkpt>
      <trkpt lat="44.437" lon="5.1189">
        <ele>933.1</ele>
        <time>2025-06-15T08:49:08Z</time>
      </trkpt>
      <trkpt lat="44.43712" lon="5.11869">
        <ele>934.06</ele>
        <time>2025-06-15T08:49:25Z</time>
      </trkpt>
      <trkpt lat="44.43715" lon="5.11863">
        <ele>934.54</ele>
        <time>2025-06-15T08:49:29Z</time>
      </trkpt>
      <trkpt lat="44.43728" lon="5.11849">
        <ele>935.02</ele>
        <time>2025-06-15T08:49:44Z</time>
      </trkpt>
      <trkpt lat="44.43743" lon="5.11833">
        <ele>933.58</ele>
        <time>2025-06-15T08:50:00Z</time>
      </trkpt>
      <trkpt lat="44.43752" lon="5.11814">
        <ele>932.14</ele>
        <time>2025-06-15T08:50:14Z</time>
      </trkpt>
      <trkpt lat="44.43761" lon="5.11794">
        <ele>928.77</ele>
        <time>2025-06-15T08:50:29Z</time>
      </trkpt>
      <trkpt lat="44.43774" lon="5.11772">
        <ele>926.37</ele>
        <time>2025-06-15T08:50:46Z</time>
      </trkpt>
      <trkpt lat="44.43788" lon="5.1175">
        <ele>925.41</ele>
        <time>2025-06-15T08:51:03Z</time>
      </trkpt>
      <trkpt lat="44.43796" lon="5.11729">
        <ele>924.93</ele>
        <time>2025-06-15T08:51:19Z</time>
      </trkpt>
      <trkpt lat="44.43797" lon="5.11717">
        <ele>924.93</ele>
        <time>2025-06-15T08:57:12Z</time>
      </trkpt>
      <trkpt lat="44.43797" lon="5.11714">
        <ele>924.93</ele>
        <time>2025-06-15T08:57:15Z</time>
      </trkpt>
      <trkpt lat="44.43794" lon="5.11691">
        <ele>924.45</ele>
        <time>2025-06-15T08:57:50Z</time>
      </trkpt>
      <trkpt lat="44.43793" lon="5.11687">
        <ele>924.45</ele>
        <time>2025-06-15T08:57:53Z</time>
      </trkpt>
      <trkpt lat="44.43787" lon="5.11671">
        <ele>927.33</ele>
        <time>2025-06-15T08:58:07Z</time>
      </trkpt>
      <trkpt lat="44.43785" lon="5.11667">
        <ele>927.81</ele>
        <time>2025-06-15T08:58:11Z</time>
      </trkpt>
      <trkpt lat="44.43784" lon="5.11663">
        <ele>927.33</ele>
        <time>2025-06-15T08:58:14Z</time>
      </trkpt>
      <trkpt lat="44.43777" lon="5.11646">
        <ele>929.73</ele>
        <time>2025-06-15T08:58:28Z</time>
      </trkpt>
      <trkpt lat="44.43777" lon="5.11631">
        <ele>932.14</ele>
        <time>2025-06-15T08:58:42Z</time>
      </trkpt>
      <trkpt lat="44.43778" lon="5.11613">
        <ele>932.62</ele>
        <time>2025-06-15T08:58:56Z</time>
      </trkpt>
      <trkpt lat="44.43778" lon="5.11606">
        <ele>931.65</ele>
        <time>2025-06-15T08:59:01Z</time>
      </trkpt>
      <trkpt lat="44.4378" lon="5.11581">
        <ele>929.73</ele>
        <time>2025-06-15T08:59:16Z</time>
      </trkpt>
      <trkpt lat="44.43784" lon="5.11558">
        <ele>927.81</ele>
        <time>2025-06-15T08:59:31Z</time>
      </trkpt>
      <trkpt lat="44.43785" lon="5.11557">
        <ele>927.81</ele>
        <time>2025-06-15T08:59:32Z</time>
      </trkpt>
      <trkpt lat="44.43786" lon="5.11537">
        <ele>924.45</ele>
        <time>2025-06-15T08:59:47Z</time>
      </trkpt>
      <trkpt lat="44.43786" lon="5.11532">
        <ele>923.48</ele>
        <time>2025-06-15T08:59:50Z</time>
      </trkpt>
      <trkpt lat="44.43795" lon="5.11522">
        <ele>921.56</ele>
        <time>2025-06-15T09:00:04Z</time>
      </trkpt>
      <trkpt lat="44.43795" lon="5.11514">
        <ele>920.6</ele>
        <time>2025-06-15T09:00:12Z</time>
      </trkpt>
      <trkpt lat="44.43791" lon="5.11507">
        <ele>920.12</ele>
        <time>2025-06-15T09:00:18Z</time>
      </trkpt>
      <trkpt lat="44.4379" lon="5.11502">
        <ele>920.6</ele>
        <time>2025-06-15T09:00:21Z</time>
      </trkpt>
      <trkpt lat="44.43792" lon="5.11484">
        <ele>920.6</ele>
        <time>2025-06-15T09:00:34Z</time>
      </trkpt>
      <trkpt lat="44.43793" lon="5.11479">
        <ele>921.56</ele>
        <time>2025-06-15T09:00:38Z</time>
      </trkpt>
      <trkpt lat="44.43788" lon="5.11461">
        <ele>922.04</ele>
        <time>2025-06-15T09:00:53Z</time>
      </trkpt>
      <trkpt lat="44.43778" lon="5.11456">
        <ele>922.04</ele>
        <time>2025-06-15T09:01:04Z</time>
      </trkpt>
      <trkpt lat="44.43773" lon="5.11454">
        <ele>922.04</ele>
        <time>2025-06-15T09:01:08Z</time>
      </trkpt>
      <trkpt lat="44.43768" lon="5.1145">
        <ele>920.6</ele>
        <time>2025-06-15T09:01:13Z</time>
      </trkpt>
      <trkpt lat="44.4376" lon="5.11439">
        <ele>922.04</ele>
        <time>2025-06-15T09:01:26Z</time>
      </trkpt>
      <trkpt lat="44.43753" lon="5.11426">
        <ele>923.96</ele>
        <time>2025-06-15T09:01:38Z</time>
      </trkpt>
      <trkpt lat="44.43749" lon="5.11413">
        <ele>925.89</ele>
        <time>2025-06-15T09:01:51Z</time>
      </trkpt>
      <trkpt lat="44.43745" lon="5.11399">
        <ele>928.29</ele>
        <time>2025-06-15T09:02:06Z</time>
      </trkpt>
      <trkpt lat="44.43744" lon="5.11385">
        <ele>930.69</ele>
        <time>2025-06-15T09:02:20Z</time>
      </trkpt>
      <trkpt lat="44.43744" lon="5.11383">
        <ele>931.17</ele>
        <time>2025-06-15T09:02:22Z</time>
      </trkpt>
      <trkpt lat="44.43743" lon="5.11368">
        <ele>934.06</ele>
        <time>2025-06-15T09:02:37Z</time>
      </trkpt>
      <trkpt lat="44.43744" lon="5.11356">
        <ele>936.46</ele>
        <time>2025-06-15T09:02:53Z</time>
      </trkpt>
      <trkpt lat="44.43744" lon="5.11341">
        <ele>939.35</ele>
        <time>2025-06-15T09:03:09Z</time>
      </trkpt>
      <trkpt lat="44.43749" lon="5.11325">
        <ele>940.79</ele>
        <time>2025-06-15T09:03:24Z</time>
      </trkpt>
      <trkpt lat="44.43757" lon="5.11314">
        <ele>943.67</ele>
        <time>2025-06-15T09:03:40Z</time>
      </trkpt>
      <trkpt lat="44.43765" lon="5.11306">
        <ele>946.56</ele>
        <time>2025-06-15T09:03:57Z</time>
      </trkpt>
      <trkpt lat="44.43773" lon="5.11301">
        <ele>949.92</ele>
        <time>2025-06-15T09:04:13Z</time>
      </trkpt>
      <trkpt lat="44.4378" lon="5.11294">
        <ele>951.84</ele>
        <time>2025-06-15T09:04:27Z</time>
      </trkpt>
      <trkpt lat="44.43782" lon="5.11292">
        <ele>952.32</ele>
        <time>2025-06-15T09:04:30Z</time>
      </trkpt>
      <trkpt lat="44.43789" lon="5.11282">
        <ele>954.25</ele>
        <time>2025-06-15T09:04:43Z</time>
      </trkpt>
      <trkpt lat="44.43798" lon="5.11268">
        <ele>955.69</ele>
        <time>2025-06-15T09:04:57Z</time>
      </trkpt>
      <trkpt lat="44.43801" lon="5.11249">
        <ele>957.13</ele>
        <time>2025-06-15T09:05:12Z</time>
      </trkpt>
      <trkpt lat="44.43802" lon="5.11236">
        <ele>959.53</ele>
        <time>2025-06-15T09:05:25Z</time>
      </trkpt>
      <trkpt lat="44.43806" lon="5.11221">
        <ele>961.46</ele>
        <time>2025-06-15T09:05:39Z</time>
      </trkpt>
      <trkpt lat="44.4381" lon="5.11205">
        <ele>962.42</ele>
        <time>2025-06-15T09:05:51Z</time>
      </trkpt>
      <trkpt lat="44.43816" lon="5.11176">
        <ele>960.98</ele>
        <time>2025-06-15T09:06:09Z</time>
      </trkpt>
      <trkpt lat="44.43824" lon="5.11157">
        <ele>960.98</ele>
        <time>2025-06-15T09:06:23Z</time>
      </trkpt>
      <trkpt lat="44.43829" lon="5.1115">
        <ele>961.94</ele>
        <time>2025-06-15T09:06:29Z</time>
      </trkpt>
      <trkpt lat="44.43836" lon="5.11132">
        <ele>965.3</ele>
        <time>2025-06-15T09:06:44Z</time>
      </trkpt>
      <trkpt lat="44.43843" lon="5.11117">
        <ele>967.7</ele>
        <time>2025-06-15T09:06:59Z</time>
      </trkpt>
      <trkpt lat="44.43846" lon="5.11115">
        <ele>968.67</ele>
        <time>2025-06-15T09:07:14Z</time>
      </trkpt>
      <trkpt lat="44.43849" lon="5.1111">
        <ele>969.63</ele>
        <time>2025-06-15T09:07:31Z</time>
      </trkpt>
      <trkpt lat="44.4385" lon="5.11109">
        <ele>970.59</ele>
        <time>2025-06-15T09:07:47Z</time>
      </trkpt>
      <trkpt lat="44.43852" lon="5.11107">
        <ele>971.07</ele>
        <time>2025-06-15T09:08:06Z</time>
      </trkpt>
      <trkpt lat="44.43861" lon="5.111">
        <ele>973.47</ele>
        <time>2025-06-15T09:08:20Z</time>
      </trkpt>
      <trkpt lat="44.43871" lon="5.1109">
        <ele>975.88</ele>
        <time>2025-06-15T09:08:36Z</time>
      </trkpt>
      <trkpt lat="44.43878" lon="5.11075">
        <ele>977.8</ele>
        <time>2025-06-15T09:08:49Z</time>
      </trkpt>
      <trkpt lat="44.43885" lon="5.11062">
        <ele>979.24</ele>
        <time>2025-06-15T09:09:01Z</time>
      </trkpt>
      <trkpt lat="44.43892" lon="5.11052">
        <ele>982.6</ele>
        <time>2025-06-15T09:09:14Z</time>
      </trkpt>
      <trkpt lat="44.43892" lon="5.11051">
        <ele>982.6</ele>
        <time>2025-06-15T09:09:15Z</time>
      </trkpt>
      <trkpt lat="44.43899" lon="5.1104">
        <ele>983.57</ele>
        <time>2025-06-15T09:09:28Z</time>
      </trkpt>
      <trkpt lat="44.43906" lon="5.11028">
        <ele>985.49</ele>
        <time>2025-06-15T09:09:42Z</time>
      </trkpt>
      <trkpt lat="44.43916" lon="5.11017">
        <ele>987.89</ele>
        <time>2025-06-15T09:09:57Z</time>
      </trkpt>
      <trkpt lat="44.4392" lon="5.11007">
        <ele>990.78</ele>
        <time>2025-06-15T09:10:12Z</time>
      </trkpt>
      <trkpt lat="44.43923" lon="5.10996">
        <ele>993.66</ele>
        <time>2025-06-15T09:10:28Z</time>
      </trkpt>
      <trkpt lat="44.43928" lon="5.10989">
        <ele>996.54</ele>
        <time>2025-06-15T09:10:42Z</time>
      </trkpt>
      <trkpt lat="44.43936" lon="5.10978">
        <ele>999.43</ele>
        <time>2025-06-15T09:10:58Z</time>
      </trkpt>
      <trkpt lat="44.43941" lon="5.10969">
        <ele>1001.83</ele>
        <time>2025-06-15T09:11:12Z</time>
      </trkpt>
      <trkpt lat="44.43945" lon="5.10959">
        <ele>1005.2</ele>
        <time>2025-06-15T09:11:30Z</time>
      </trkpt>
      <trkpt lat="44.43945" lon="5.10949">
        <ele>1008.56</ele>
        <time>2025-06-15T09:11:47Z</time>
      </trkpt>
      <trkpt lat="44.4395" lon="5.10938">
        <ele>1010.48</ele>
        <time>2025-06-15T09:12:03Z</time>
      </trkpt>
      <trkpt lat="44.43954" lon="5.10927">
        <ele>1013.37</ele>
        <time>2025-06-15T09:12:22Z</time>
      </trkpt>
      <trkpt lat="44.43959" lon="5.1092">
        <ele>1016.25</ele>
        <time>2025-06-15T09:12:38Z</time>
      </trkpt>
      <trkpt lat="44.43963" lon="5.10911">
        <ele>1019.62</ele>
        <time>2025-06-15T09:12:58Z</time>
      </trkpt>
      <trkpt lat="44.43966" lon="5.10904">
        <ele>1022.5</ele>
        <time>2025-06-15T09:13:12Z</time>
      </trkpt>
      <trkpt lat="44.43966" lon="5.10897">
        <ele>1025.38</ele>
        <time>2025-06-15T09:13:28Z</time>
      </trkpt>
      <trkpt lat="44.43964" lon="5.10892">
        <ele>1026.83</ele>
        <time>2025-06-15T09:13:45Z</time>
      </trkpt>
      <trkpt lat="44.43967" lon="5.10885">
        <ele>1030.19</ele>
        <time>2025-06-15T09:14:00Z</time>
      </trkpt>
      <trkpt lat="44.43971" lon="5.10878">
        <ele>1033.07</ele>
        <time>2025-06-15T09:14:17Z</time>
      </trkpt>
      <trkpt lat="44.43968" lon="5.10871">
        <ele>1036.92</ele>
        <time>2025-06-15T09:14:33Z</time>
      </trkpt>
      <trkpt lat="44.43971" lon="5.10865">
        <ele>1038.84</ele>
        <time>2025-06-15T09:14:44Z</time>
      </trkpt>
      <trkpt lat="44.43973" lon="5.10859">
        <ele>1042.21</ele>
        <time>2025-06-15T09:14:56Z</time>
      </trkpt>
      <trkpt lat="44.43977" lon="5.10851">
        <ele>1044.61</ele>
        <time>2025-06-15T09:15:12Z</time>
      </trkpt>
      <trkpt lat="44.43984" lon="5.10844">
        <ele>1047.97</ele>
        <time>2025-06-15T09:15:27Z</time>
      </trkpt>
      <trkpt lat="44.43989" lon="5.10838">
        <ele>1051.34</ele>
        <time>2025-06-15T09:15:44Z</time>
      </trkpt>
      <trkpt lat="44.4399" lon="5.10831">
        <ele>1053.74</ele>
        <time>2025-06-15T09:15:59Z</time>
      </trkpt>
      <trkpt lat="44.43989" lon="5.10821">
        <ele>1056.63</ele>
        <time>2025-06-15T09:16:14Z</time>
      </trkpt>
      <trkpt lat="44.43989" lon="5.10812">
        <ele>1059.51</ele>
        <time>2025-06-15T09:16:29Z</time>
      </trkpt>
      <trkpt lat="44.4399" lon="5.10803">
        <ele>1062.87</ele>
        <time>2025-06-15T09:16:46Z</time>
      </trkpt>
      <trkpt lat="44.43989" lon="5.10791">
        <ele>1066.24</ele>
        <time>2025-06-15T09:17:04Z</time>
      </trkpt>
      <trkpt lat="44.43992" lon="5.10779">
        <ele>1069.12</ele>
        <time>2025-06-15T09:17:21Z</time>
      </trkpt>
      <trkpt lat="44.43994" lon="5.10772">
        <ele>1072.01</ele>
        <time>2025-06-15T09:17:37Z</time>
      </trkpt>
      <trkpt lat="44.43993" lon="5.10763">
        <ele>1074.41</ele>
        <time>2025-06-15T09:17:54Z</time>
      </trkpt>
      <trkpt lat="44.43991" lon="5.10758">
        <ele>1077.29</ele>
        <time>2025-06-15T09:18:08Z</time>
      </trkpt>
      <trkpt lat="44.43987" lon="5.10748">
        <ele>1080.66</ele>
        <time>2025-06-15T09:18:26Z</time>
      </trkpt>
      <trkpt lat="44.43986" lon="5.1074">
        <ele>1083.06</ele>
        <time>2025-06-15T09:18:42Z</time>
      </trkpt>
      <trkpt lat="44.43982" lon="5.1073">
        <ele>1086.43</ele>
        <time>2025-06-15T09:19:00Z</time>
      </trkpt>
      <trkpt lat="44.43974" lon="5.10721">
        <ele>1088.83</ele>
        <time>2025-06-15T09:19:17Z</time>
      </trkpt>
      <trkpt lat="44.43969" lon="5.10713">
        <ele>1092.2</ele>
        <time>2025-06-15T09:19:36Z</time>
      </trkpt>
      <trkpt lat="44.43962" lon="5.10707">
        <ele>1094.12</ele>
        <time>2025-06-15T09:19:52Z</time>
      </trkpt>
      <trkpt lat="44.43954" lon="5.10701">
        <ele>1095.56</ele>
        <time>2025-06-15T09:20:05Z</time>
      </trkpt>
      <trkpt lat="44.43956" lon="5.10693">
        <ele>1098.44</ele>
        <time>2025-06-15T09:20:21Z</time>
      </trkpt>
      <trkpt lat="44.43959" lon="5.10687">
        <ele>1101.81</ele>
        <time>2025-06-15T09:20:37Z</time>
      </trkpt>
      <trkpt lat="44.4396" lon="5.10682">
        <ele>1104.69</ele>
        <time>2025-06-15T09:20:53Z</time>
      </trkpt>
      <trkpt lat="44.43962" lon="5.10676">
        <ele>1107.1</ele>
        <time>2025-06-15T09:21:06Z</time>
      </trkpt>
      <trkpt lat="44.43966" lon="5.10673">
        <ele>1110.46</ele>
        <time>2025-06-15T09:21:24Z</time>
      </trkpt>
      <trkpt lat="44.43967" lon="5.10669">
        <ele>1112.86</ele>
        <time>2025-06-15T09:21:40Z</time>
      </trkpt>
      <trkpt lat="44.43961" lon="5.10663">
        <ele>1115.75</ele>
        <time>2025-06-15T09:21:58Z</time>
      </trkpt>
      <trkpt lat="44.43965" lon="5.10657">
        <ele>1116.23</ele>
        <time>2025-06-15T09:22:11Z</time>
      </trkpt>
      <trkpt lat="44.43967" lon="5.10654">
        <ele>1117.19</ele>
        <time>2025-06-15T09:28:30Z</time>
      </trkpt>
      <trkpt lat="44.43969" lon="5.10653">
        <ele>1117.19</ele>
        <time>2025-06-15T09:28:36Z</time>
      </trkpt>
      <trkpt lat="44.43973" lon="5.10653">
        <ele>1117.19</ele>
        <time>2025-06-15T09:28:40Z</time>
      </trkpt>
      <trkpt lat="44.43987" lon="5.10658">
        <ele>1117.67</ele>
        <time>2025-06-15T09:28:58Z</time>
      </trkpt>
      <trkpt lat="44.43989" lon="5.10659">
        <ele>1117.67</ele>
        <time>2025-06-15T09:29:05Z</time>
      </trkpt>
      <trkpt lat="44.43998" lon="5.10658">
        <ele>1117.67</ele>
        <time>2025-06-15T09:29:14Z</time>
      </trkpt>
      <trkpt lat="44.44005" lon="5.10658">
        <ele>1118.63</ele>
        <time>2025-06-15T09:29:20Z</time>
      </trkpt>
      <trkpt lat="44.4401" lon="5.10651">
        <ele>1117.19</ele>
        <time>2025-06-15T09:29:28Z</time>
      </trkpt>
      <trkpt lat="44.44013" lon="5.10649">
        <ele>1117.19</ele>
        <time>2025-06-15T09:29:31Z</time>
      </trkpt>
      <trkpt lat="44.44024" lon="5.10651">
        <ele>1118.63</ele>
        <time>2025-06-15T09:29:45Z</time>
      </trkpt>
      <trkpt lat="44.44035" lon="5.10651">
        <ele>1120.55</ele>
        <time>2025-06-15T09:29:59Z</time>
      </trkpt>
      <trkpt lat="44.44047" lon="5.10651">
        <ele>1122.96</ele>
        <time>2025-06-15T09:30:14Z</time>
      </trkpt>
      <trkpt lat="44.44053" lon="5.10656">
        <ele>1125.36</ele>
        <time>2025-06-15T09:30:29Z</time>
      </trkpt>
      <trkpt lat="44.44057" lon="5.10661">
        <ele>1128.24</ele>
        <time>2025-06-15T09:30:43Z</time>
      </trkpt>
      <trkpt lat="44.44063" lon="5.10667">
        <ele>1131.13</ele>
        <time>2025-06-15T09:31:01Z</time>
      </trkpt>
      <trkpt lat="44.44074" lon="5.10666">
        <ele>1134.01</ele>
        <time>2025-06-15T09:31:21Z</time>
      </trkpt>
      <trkpt lat="44.44081" lon="5.10668">
        <ele>1136.9</ele>
        <time>2025-06-15T09:31:38Z</time>
      </trkpt>
      <trkpt lat="44.44086" lon="5.10672">
        <ele>1139.3</ele>
        <time>2025-06-15T09:31:53Z</time>
      </trkpt>
      <trkpt lat="44.44092" lon="5.10679">
        <ele>1142.18</ele>
        <time>2025-06-15T09:32:09Z</time>
      </trkpt>
      <trkpt lat="44.441" lon="5.1068">
        <ele>1144.11</ele>
        <time>2025-06-15T09:32:21Z</time>
      </trkpt>
      <trkpt lat="44.44107" lon="5.10677">
        <ele>1146.51</ele>
        <time>2025-06-15T09:32:37Z</time>
      </trkpt>
      <trkpt lat="44.44114" lon="5.10676">
        <ele>1149.39</ele>
        <time>2025-06-15T09:32:52Z</time>
      </trkpt>
      <trkpt lat="44.44121" lon="5.10679">
        <ele>1151.8</ele>
        <time>2025-06-15T09:33:07Z</time>
      </trkpt>
      <trkpt lat="44.44131" lon="5.10676">
        <ele>1154.2</ele>
        <time>2025-06-15T09:33:22Z</time>
      </trkpt>
      <trkpt lat="44.44137" lon="5.10674">
        <ele>1156.6</ele>
        <time>2025-06-15T09:33:35Z</time>
      </trkpt>
      <trkpt lat="44.44144" lon="5.10668">
        <ele>1158.53</ele>
        <time>2025-06-15T09:33:49Z</time>
      </trkpt>
      <trkpt lat="44.44152" lon="5.10666">
        <ele>1160.93</ele>
        <time>2025-06-15T09:34:05Z</time>
      </trkpt>
      <trkpt lat="44.44161" lon="5.10662">
        <ele>1162.85</ele>
        <time>2025-06-15T09:34:20Z</time>
      </trkpt>
      <trkpt lat="44.44171" lon="5.1066">
        <ele>1165.26</ele>
        <time>2025-06-15T09:34:35Z</time>
      </trkpt>
      <trkpt lat="44.4418" lon="5.10656">
        <ele>1165.26</ele>
        <time>2025-06-15T09:34:48Z</time>
      </trkpt>
      <trkpt lat="44.44195" lon="5.10652">
        <ele>1164.29</ele>
        <time>2025-06-15T09:35:03Z</time>
      </trkpt>
      <trkpt lat="44.44208" lon="5.10648">
        <ele>1163.33</ele>
        <time>2025-06-15T09:35:18Z</time>
      </trkpt>
      <trkpt lat="44.44216" lon="5.10647">
        <ele>1162.85</ele>
        <time>2025-06-15T09:35:25Z</time>
      </trkpt>
      <trkpt lat="44.44218" lon="5.10646">
        <ele>1162.85</ele>
        <time>2025-06-15T09:35:27Z</time>
      </trkpt>
      <trkpt lat="44.44233" lon="5.10642">
        <ele>1162.37</ele>
        <time>2025-06-15T09:35:43Z</time>
      </trkpt>
      <trkpt lat="44.44239" lon="5.10641">
        <ele>1162.37</ele>
        <time>2025-06-15T09:35:48Z</time>
      </trkpt>
      <trkpt lat="44.44247" lon="5.10636">
        <ele>1161.89</ele>
        <time>2025-06-15T09:35:57Z</time>
      </trkpt>
      <trkpt lat="44.44253" lon="5.10635">
        <ele>1161.89</ele>
        <time>2025-06-15T09:36:04Z</time>
      </trkpt>
      <trkpt lat="44.44261" lon="5.10632">
        <ele>1162.37</ele>
        <time>2025-06-15T09:36:12Z</time>
      </trkpt>
      <trkpt lat="44.4427" lon="5.10628">
        <ele>1161.89</ele>
        <time>2025-06-15T09:36:20Z</time>
      </trkpt>
      <trkpt lat="44.44275" lon="5.10628">
        <ele>1161.89</ele>
        <time>2025-06-15T09:36:24Z</time>
      </trkpt>
      <trkpt lat="44.44279" lon="5.10627">
        <ele>1161.89</ele>
        <time>2025-06-15T09:36:27Z</time>
      </trkpt>
      <trkpt lat="44.44283" lon="5.10628">
        <ele>1161.89</ele>
        <time>2025-06-15T09:36:30Z</time>
      </trkpt>
      <trkpt lat="44.44295" lon="5.10625">
        <ele>1161.41</ele>
        <time>2025-06-15T09:36:41Z</time>
      </trkpt>
      <trkpt lat="44.44302" lon="5.10624">
        <ele>1160.93</ele>
        <time>2025-06-15T09:36:48Z</time>
      </trkpt>
      <trkpt lat="44.44306" lon="5.10625">
        <ele>1160.93</ele>
        <time>2025-06-15T09:36:52Z</time>
      </trkpt>
      <trkpt lat="44.44321" lon="5.10626">
        <ele>1160.93</ele>
        <time>2025-06-15T09:37:08Z</time>
      </trkpt>
      <trkpt lat="44.44333" lon="5.10626">
        <ele>1162.37</ele>
        <time>2025-06-15T09:37:21Z</time>
      </trkpt>
      <trkpt lat="44.44344" lon="5.10623">
        <ele>1162.37</ele>
        <time>2025-06-15T09:37:35Z</time>
      </trkpt>
      <trkpt lat="44.44355" lon="5.10619">
        <ele>1160.93</ele>
        <time>2025-06-15T09:37:49Z</time>
      </trkpt>
      <trkpt lat="44.44368" lon="5.10615">
        <ele>1160.45</ele>
        <time>2025-06-15T09:38:03Z</time>
      </trkpt>
      <trkpt lat="44.44375" lon="5.10608">
        <ele>1160.45</ele>
        <time>2025-06-15T09:38:15Z</time>
      </trkpt>
      <trkpt lat="44.4438" lon="5.10604">
        <ele>1160.45</ele>
        <time>2025-06-15T09:38:20Z</time>
      </trkpt>
      <trkpt lat="44.44383" lon="5.10601">
        <ele>1159.97</ele>
        <time>2025-06-15T09:38:23Z</time>
      </trkpt>
      <trkpt lat="44.44388" lon="5.10593">
        <ele>1158.53</ele>
        <time>2025-06-15T09:38:30Z</time>
      </trkpt>
      <trkpt lat="44.44401" lon="5.10585">
        <ele>1158.05</ele>
        <time>2025-06-15T09:38:46Z</time>
      </trkpt>
      <trkpt lat="44.44406" lon="5.10583">
        <ele>1158.05</ele>
        <time>2025-06-15T09:38:51Z</time>
      </trkpt>
      <trkpt lat="44.4441" lon="5.10584">
        <ele>1159.97</ele>
        <time>2025-06-15T09:38:56Z</time>
      </trkpt>
      <trkpt lat="44.44421" lon="5.10585">
        <ele>1160.93</ele>
        <time>2025-06-15T09:39:09Z</time>
      </trkpt>
      <trkpt lat="44.4443" lon="5.10578">
        <ele>1161.89</ele>
        <time>2025-06-15T09:39:22Z</time>
      </trkpt>
      <trkpt lat="44.44434" lon="5.10574">
        <ele>1161.89</ele>
        <time>2025-06-15T09:39:27Z</time>
      </trkpt>
      <trkpt lat="44.44441" lon="5.10571">
        <ele>1161.89</ele>
        <time>2025-06-15T09:39:36Z</time>
      </trkpt>
      <trkpt lat="44.44445" lon="5.10569">
        <ele>1162.37</ele>
        <time>2025-06-15T09:39:41Z</time>
      </trkpt>
      <trkpt lat="44.44458" lon="5.1056">
        <ele>1162.37</ele>
        <time>2025-06-15T09:39:55Z</time>
      </trkpt>
      <trkpt lat="44.44464" lon="5.10556">
        <ele>1162.37</ele>
        <time>2025-06-15T09:40:01Z</time>
      </trkpt>
      <trkpt lat="44.44477" lon="5.10556">
        <ele>1163.81</ele>
        <time>2025-06-15T09:40:15Z</time>
      </trkpt>
      <trkpt lat="44.44486" lon="5.10551">
        <ele>1164.29</ele>
        <time>2025-06-15T09:40:28Z</time>
      </trkpt>
      <trkpt lat="44.44494" lon="5.10541">
        <ele>1162.85</ele>
        <time>2025-06-15T09:40:43Z</time>
      </trkpt>
      <trkpt lat="44.44495" lon="5.10541">
        <ele>1162.37</ele>
        <time>2025-06-15T09:40:44Z</time>
      </trkpt>
      <trkpt lat="44.44506" lon="5.10535">
        <ele>1162.37</ele>
        <time>2025-06-15T09:40:59Z</time>
      </trkpt>
      <trkpt lat="44.44507" lon="5.10534">
        <ele>1162.37</ele>
        <time>2025-06-15T09:41:00Z</time>
      </trkpt>
      <trkpt lat="44.4452" lon="5.10525">
        <ele>1162.37</ele>
        <time>2025-06-15T09:41:17Z</time>
      </trkpt>
      <trkpt lat="44.44521" lon="5.10525">
        <ele>1162.37</ele>
        <time>2025-06-15T09:41:18Z</time>
      </trkpt>
      <trkpt lat="44.44525" lon="5.10523">
        <ele>1162.37</ele>
        <time>2025-06-15T09:41:22Z</time>
      </trkpt>
      <trkpt lat="44.44537" lon="5.10506">
        <ele>1159.97</ele>
        <time>2025-06-15T09:41:38Z</time>
      </trkpt>
      <trkpt lat="44.44545" lon="5.10495">
        <ele>1157.08</ele>
        <time>2025-06-15T09:41:52Z</time>
      </trkpt>
      <trkpt lat="44.44564" lon="5.1048">
        <ele>1153.72</ele>
        <time>2025-06-15T09:42:12Z</time>
      </trkpt>
      <trkpt lat="44.44569" lon="5.1048">
        <ele>1153.72</ele>
        <time>2025-06-15T09:42:17Z</time>
      </trkpt>
      <trkpt lat="44.44574" lon="5.10477">
        <ele>1152.76</ele>
        <time>2025-06-15T09:42:23Z</time>
      </trkpt>
      <trkpt lat="44.44579" lon="5.10472">
        <ele>1151.8</ele>
        <time>2025-06-15T09:42:30Z</time>
      </trkpt>
      <trkpt lat="44.44594" lon="5.10462">
        <ele>1148.43</ele>
        <time>2025-06-15T09:42:47Z</time>
      </trkpt>
      <trkpt lat="44.44596" lon="5.1046">
        <ele>1147.95</ele>
        <time>2025-06-15T09:42:50Z</time>
      </trkpt>
      <trkpt lat="44.44599" lon="5.10459">
        <ele>1146.99</ele>
        <time>2025-06-15T09:42:53Z</time>
      </trkpt>
      <trkpt lat="44.44607" lon="5.10454">
        <ele>1145.55</ele>
        <time>2025-06-15T09:43:02Z</time>
      </trkpt>
      <trkpt lat="44.44612" lon="5.10451">
        <ele>1144.59</ele>
        <time>2025-06-15T09:43:07Z</time>
      </trkpt>
      <trkpt lat="44.44615" lon="5.10449">
        <ele>1144.11</ele>
        <time>2025-06-15T09:43:09Z</time>
      </trkpt>
      <trkpt lat="44.4463" lon="5.10439">
        <ele>1142.18</ele>
        <time>2025-06-15T09:43:26Z</time>
      </trkpt>
      <trkpt lat="44.44642" lon="5.10427">
        <ele>1142.18</ele>
        <time>2025-06-15T09:43:40Z</time>
      </trkpt>
      <trkpt lat="44.44657" lon="5.1041">
        <ele>1141.22</ele>
        <time>2025-06-15T09:43:57Z</time>
      </trkpt>
      <trkpt lat="44.44666" lon="5.10406">
        <ele>1141.22</ele>
        <time>2025-06-15T09:44:09Z</time>
      </trkpt>
      <trkpt lat="44.44682" lon="5.10388">
        <ele>1144.59</ele>
        <time>2025-06-15T09:46:46Z</time>
      </trkpt>
      <trkpt lat="44.44689" lon="5.10377">
        <ele>1146.51</ele>
        <time>2025-06-15T09:47:01Z</time>
      </trkpt>
      <trkpt lat="44.44697" lon="5.10364">
        <ele>1147.95</ele>
        <time>2025-06-15T09:47:17Z</time>
      </trkpt>
      <trkpt lat="44.44704" lon="5.10356">
        <ele>1150.35</ele>
        <time>2025-06-15T09:47:32Z</time>
      </trkpt>
      <trkpt lat="44.44713" lon="5.10351">
        <ele>1152.76</ele>
        <time>2025-06-15T09:47:48Z</time>
      </trkpt>
      <trkpt lat="44.4472" lon="5.10349">
        <ele>1156.12</ele>
        <time>2025-06-15T09:48:02Z</time>
      </trkpt>
      <trkpt lat="44.44729" lon="5.10344">
        <ele>1158.53</ele>
        <time>2025-06-15T09:48:18Z</time>
      </trkpt>
      <trkpt lat="44.44738" lon="5.1034">
        <ele>1161.41</ele>
        <time>2025-06-15T09:48:33Z</time>
      </trkpt>
      <trkpt lat="44.44746" lon="5.10336">
        <ele>1163.81</ele>
        <time>2025-06-15T09:48:49Z</time>
      </trkpt>
      <trkpt lat="44.44754" lon="5.1033">
        <ele>1166.7</ele>
        <time>2025-06-15T09:49:06Z</time>
      </trkpt>
      <trkpt lat="44.44763" lon="5.10325">
        <ele>1169.1</ele>
        <time>2025-06-15T09:49:22Z</time>
      </trkpt>
      <trkpt lat="44.44774" lon="5.10322">
        <ele>1171.98</ele>
        <time>2025-06-15T09:49:39Z</time>
      </trkpt>
      <trkpt lat="44.44785" lon="5.10319">
        <ele>1174.87</ele>
        <time>2025-06-15T09:49:57Z</time>
      </trkpt>
      <trkpt lat="44.44792" lon="5.10315">
        <ele>1177.75</ele>
        <time>2025-06-15T09:50:11Z</time>
      </trkpt>
      <trkpt lat="44.448" lon="5.10311">
        <ele>1180.64</ele>
        <time>2025-06-15T09:50:26Z</time>
      </trkpt>
      <trkpt lat="44.44808" lon="5.10312">
        <ele>1183.04</ele>
        <time>2025-06-15T09:50:40Z</time>
      </trkpt>
      <trkpt lat="44.44817" lon="5.10311">
        <ele>1185.92</ele>
        <time>2025-06-15T09:50:57Z</time>
      </trkpt>
      <trkpt lat="44.44828" lon="5.10309">
        <ele>1188.81</ele>
        <time>2025-06-15T09:51:15Z</time>
      </trkpt>
      <trkpt lat="44.44836" lon="5.10307">
        <ele>1191.69</ele>
        <time>2025-06-15T09:51:29Z</time>
      </trkpt>
      <trkpt lat="44.44846" lon="5.10306">
        <ele>1194.58</ele>
        <time>2025-06-15T09:51:45Z</time>
      </trkpt>
      <trkpt lat="44.44847" lon="5.10306">
        <ele>1195.06</ele>
        <time>2025-06-15T09:51:47Z</time>
      </trkpt>
      <trkpt lat="44.44859" lon="5.10301">
        <ele>1197.46</ele>
        <time>2025-06-15T09:52:02Z</time>
      </trkpt>
      <trkpt lat="44.44863" lon="5.10299">
        <ele>1198.42</ele>
        <time>2025-06-15T09:52:08Z</time>
      </trkpt>
      <trkpt lat="44.44877" lon="5.10296">
        <ele>1201.3</ele>
        <time>2025-06-15T09:52:26Z</time>
      </trkpt>
      <trkpt lat="44.44886" lon="5.10295">
        <ele>1204.19</ele>
        <time>2025-06-15T09:52:41Z</time>
      </trkpt>
      <trkpt lat="44.44895" lon="5.10297">
        <ele>1206.59</ele>
        <time>2025-06-15T09:52:56Z</time>
      </trkpt>
      <trkpt lat="44.44902" lon="5.10297">
        <ele>1209</ele>
        <time>2025-06-15T09:53:09Z</time>
      </trkpt>
      <trkpt lat="44.4491" lon="5.10296">
        <ele>1211.88</ele>
        <time>2025-06-15T09:53:25Z</time>
      </trkpt>
      <trkpt lat="44.44918" lon="5.10296">
        <ele>1214.76</ele>
        <time>2025-06-15T09:53:41Z</time>
      </trkpt>
      <trkpt lat="44.44926" lon="5.10292">
        <ele>1217.17</ele>
        <time>2025-06-15T09:53:56Z</time>
      </trkpt>
      <trkpt lat="44.44935" lon="5.10291">
        <ele>1219.57</ele>
        <time>2025-06-15T09:54:11Z</time>
      </trkpt>
      <trkpt lat="44.44944" lon="5.10288">
        <ele>1221.49</ele>
        <time>2025-06-15T09:54:24Z</time>
      </trkpt>
      <trkpt lat="44.44952" lon="5.10282">
        <ele>1223.42</ele>
        <time>2025-06-15T09:54:40Z</time>
      </trkpt>
      <trkpt lat="44.44962" lon="5.10281">
        <ele>1226.3</ele>
        <time>2025-06-15T09:54:55Z</time>
      </trkpt>
      <trkpt lat="44.4497" lon="5.10282">
        <ele>1228.22</ele>
        <time>2025-06-15T09:55:08Z</time>
      </trkpt>
      <trkpt lat="44.44979" lon="5.10281">
        <ele>1231.11</ele>
        <time>2025-06-15T09:55:23Z</time>
      </trkpt>
      <trkpt lat="44.44982" lon="5.10279">
        <ele>1231.59</ele>
        <time>2025-06-15T09:55:27Z</time>
      </trkpt>
      <trkpt lat="44.4499" lon="5.10281">
        <ele>1234.47</ele>
        <time>2025-06-15T09:55:43Z</time>
      </trkpt>
      <trkpt lat="44.44999" lon="5.10279">
        <ele>1237.35</ele>
        <time>2025-06-15T09:55:59Z</time>
      </trkpt>
      <trkpt lat="44.45007" lon="5.10271">
        <ele>1238.32</ele>
        <time>2025-06-15T09:56:14Z</time>
      </trkpt>
      <trkpt lat="44.45017" lon="5.10266">
        <ele>1240.72</ele>
        <time>2025-06-15T09:56:30Z</time>
      </trkpt>
      <trkpt lat="44.45026" lon="5.10262">
        <ele>1242.64</ele>
        <time>2025-06-15T09:56:43Z</time>
      </trkpt>
      <trkpt lat="44.45036" lon="5.10255">
        <ele>1244.56</ele>
        <time>2025-06-15T09:56:58Z</time>
      </trkpt>
      <trkpt lat="44.45043" lon="5.10254">
        <ele>1246.49</ele>
        <time>2025-06-15T09:57:09Z</time>
      </trkpt>
      <trkpt lat="44.45045" lon="5.1025">
        <ele>1246.97</ele>
        <time>2025-06-15T09:57:13Z</time>
      </trkpt>
      <trkpt lat="44.45048" lon="5.10248">
        <ele>1246.97</ele>
        <time>2025-06-15T09:57:16Z</time>
      </trkpt>
      <trkpt lat="44.45061" lon="5.10241">
        <ele>1247.45</ele>
        <time>2025-06-15T09:57:30Z</time>
      </trkpt>
      <trkpt lat="44.45065" lon="5.10237">
        <ele>1247.93</ele>
        <time>2025-06-15T09:57:35Z</time>
      </trkpt>
      <trkpt lat="44.45077" lon="5.10234">
        <ele>1249.85</ele>
        <time>2025-06-15T09:57:51Z</time>
      </trkpt>
      <trkpt lat="44.4509" lon="5.10232">
        <ele>1251.77</ele>
        <time>2025-06-15T09:58:06Z</time>
      </trkpt>
      <trkpt lat="44.451" lon="5.10234">
        <ele>1253.22</ele>
        <time>2025-06-15T09:58:21Z</time>
      </trkpt>
      <trkpt lat="44.45106" lon="5.10236">
        <ele>1255.62</ele>
        <time>2025-06-15T09:58:34Z</time>
      </trkpt>
      <trkpt lat="44.45108" lon="5.10236">
        <ele>1256.58</ele>
        <time>2025-06-15T09:58:37Z</time>
      </trkpt>
      <trkpt lat="44.45117" lon="5.10235">
        <ele>1258.02</ele>
        <time>2025-06-15T09:58:49Z</time>
      </trkpt>
      <trkpt lat="44.45125" lon="5.10235">
        <ele>1260.91</ele>
        <time>2025-06-15T09:59:02Z</time>
      </trkpt>
      <trkpt lat="44.45136" lon="5.10229">
        <ele>1262.35</ele>
        <time>2025-06-15T09:59:19Z</time>
      </trkpt>
      <trkpt lat="44.45147" lon="5.10224">
        <ele>1263.79</ele>
        <time>2025-06-15T09:59:33Z</time>
      </trkpt>
      <trkpt lat="44.45158" lon="5.10219">
        <ele>1266.19</ele>
        <time>2025-06-15T09:59:47Z</time>
      </trkpt>
      <trkpt lat="44.45172" lon="5.10215">
        <ele>1268.12</ele>
        <time>2025-06-15T10:00:03Z</time>
      </trkpt>
      <trkpt lat="44.45186" lon="5.10212">
        <ele>1271</ele>
        <time>2025-06-15T10:00:20Z</time>
      </trkpt>
      <trkpt lat="44.45196" lon="5.10211">
        <ele>1273.4</ele>
        <time>2025-06-15T10:00:33Z</time>
      </trkpt>
      <trkpt lat="44.45207" lon="5.10211">
        <ele>1276.29</ele>
        <time>2025-06-15T10:00:49Z</time>
      </trkpt>
      <trkpt lat="44.4522" lon="5.10208">
        <ele>1279.17</ele>
        <time>2025-06-15T10:01:07Z</time>
      </trkpt>
      <trkpt lat="44.4523" lon="5.10206">
        <ele>1282.06</ele>
        <time>2025-06-15T10:01:24Z</time>
      </trkpt>
      <trkpt lat="44.45239" lon="5.10204">
        <ele>1283.98</ele>
        <time>2025-06-15T10:01:37Z</time>
      </trkpt>
      <trkpt lat="44.45249" lon="5.10202">
        <ele>1286.86</ele>
        <time>2025-06-15T10:01:52Z</time>
      </trkpt>
      <trkpt lat="44.45259" lon="5.102">
        <ele>1289.27</ele>
        <time>2025-06-15T10:02:07Z</time>
      </trkpt>
      <trkpt lat="44.45269" lon="5.10196">
        <ele>1291.67</ele>
        <time>2025-06-15T10:02:23Z</time>
      </trkpt>
      <trkpt lat="44.45278" lon="5.10194">
        <ele>1294.07</ele>
        <time>2025-06-15T10:02:36Z</time>
      </trkpt>
      <trkpt lat="44.45286" lon="5.10191">
        <ele>1295.03</ele>
        <time>2025-06-15T10:02:45Z</time>
      </trkpt>
      <trkpt lat="44.45292" lon="5.1019">
        <ele>1296.96</ele>
        <time>2025-06-15T10:02:55Z</time>
      </trkpt>
      <trkpt lat="44.45301" lon="5.10186">
        <ele>1298.88</ele>
        <time>2025-06-15T10:03:07Z</time>
      </trkpt>
      <trkpt lat="44.45315" lon="5.10183">
        <ele>1301.28</ele>
        <time>2025-06-15T10:03:23Z</time>
      </trkpt>
      <trkpt lat="44.45326" lon="5.1018">
        <ele>1302.72</ele>
        <time>2025-06-15T10:03:37Z</time>
      </trkpt>
      <trkpt lat="44.45339" lon="5.10176">
        <ele>1304.65</ele>
        <time>2025-06-15T10:03:53Z</time>
      </trkpt>
      <trkpt lat="44.45352" lon="5.10173">
        <ele>1306.09</ele>
        <time>2025-06-15T10:04:09Z</time>
      </trkpt>
      <trkpt lat="44.45368" lon="5.10173">
        <ele>1307.53</ele>
        <time>2025-06-15T10:04:24Z</time>
      </trkpt>
      <trkpt lat="44.45388" lon="5.10175">
        <ele>1308.97</ele>
        <time>2025-06-15T10:04:41Z</time>
      </trkpt>
      <trkpt lat="44.45408" lon="5.10175">
        <ele>1308.97</ele>
        <time>2025-06-15T10:04:58Z</time>
      </trkpt>
      <trkpt lat="44.45423" lon="5.10177">
        <ele>1309.45</ele>
        <time>2025-06-15T10:05:10Z</time>
      </trkpt>
      <trkpt lat="44.45434" lon="5.10179">
        <ele>1310.41</ele>
        <time>2025-06-15T10:05:28Z</time>
      </trkpt>
      <trkpt lat="44.45452" lon="5.10176">
        <ele>1312.34</ele>
        <time>2025-06-15T10:05:44Z</time>
      </trkpt>
      <trkpt lat="44.45468" lon="5.10175">
        <ele>1313.78</ele>
        <time>2025-06-15T10:05:58Z</time>
      </trkpt>
      <trkpt lat="44.45481" lon="5.10174">
        <ele>1315.7</ele>
        <time>2025-06-15T10:06:10Z</time>
      </trkpt>
      <trkpt lat="44.45498" lon="5.10174">
        <ele>1318.59</ele>
        <time>2025-06-15T10:06:27Z</time>
      </trkpt>
      <trkpt lat="44.45512" lon="5.10176">
        <ele>1320.99</ele>
        <time>2025-06-15T10:06:42Z</time>
      </trkpt>
      <trkpt lat="44.45523" lon="5.10182">
        <ele>1323.39</ele>
        <time>2025-06-15T10:06:58Z</time>
      </trkpt>
      <trkpt lat="44.45524" lon="5.10178">
        <ele>1333.49</ele>
        <time>2025-06-15T11:05:51Z</time>
      </trkpt>
      <trkpt lat="44.45527" lon="5.10172">
        <ele>1332.52</ele>
        <time>2025-06-15T11:06:02Z</time>
      </trkpt>
      <trkpt lat="44.4553" lon="5.10164">
        <ele>1331.56</ele>
        <time>2025-06-15T11:06:11Z</time>
      </trkpt>
      <trkpt lat="44.45543" lon="5.10152">
        <ele>1330.12</ele>
        <time>2025-06-15T11:06:27Z</time>
      </trkpt>
      <trkpt lat="44.45558" lon="5.10139">
        <ele>1330.12</ele>
        <time>2025-06-15T11:06:44Z</time>
      </trkpt>
      <trkpt lat="44.45566" lon="5.10129">
        <ele>1329.64</ele>
        <time>2025-06-15T11:06:59Z</time>
      </trkpt>
      <trkpt lat="44.45569" lon="5.10125">
        <ele>1328.68</ele>
        <time>2025-06-15T11:07:14Z</time>
      </trkpt>
      <trkpt lat="44.45583" lon="5.10114">
        <ele>1326.76</ele>
        <time>2025-06-15T11:07:30Z</time>
      </trkpt>
      <trkpt lat="44.45594" lon="5.1011">
        <ele>1325.8</ele>
        <time>2025-06-15T11:07:40Z</time>
      </trkpt>
      <trkpt lat="44.45608" lon="5.10102">
        <ele>1327.24</ele>
        <time>2025-06-15T11:07:54Z</time>
      </trkpt>
      <trkpt lat="44.45609" lon="5.10102">
        <ele>1327.24</ele>
        <time>2025-06-15T11:07:55Z</time>
      </trkpt>
      <trkpt lat="44.45627" lon="5.10095">
        <ele>1328.2</ele>
        <time>2025-06-15T11:08:11Z</time>
      </trkpt>
      <trkpt lat="44.45645" lon="5.10087">
        <ele>1328.2</ele>
        <time>2025-06-15T11:08:28Z</time>
      </trkpt>
      <trkpt lat="44.45658" lon="5.10079">
        <ele>1326.76</ele>
        <time>2025-06-15T11:08:38Z</time>
      </trkpt>
      <trkpt lat="44.45674" lon="5.1007">
        <ele>1325.8</ele>
        <time>2025-06-15T11:08:53Z</time>
      </trkpt>
      <trkpt lat="44.45695" lon="5.10063">
        <ele>1325.31</ele>
        <time>2025-06-15T11:09:11Z</time>
      </trkpt>
      <trkpt lat="44.45716" lon="5.10063">
        <ele>1324.83</ele>
        <time>2025-06-15T11:09:30Z</time>
      </trkpt>
      <trkpt lat="44.45736" lon="5.10067">
        <ele>1324.35</ele>
        <time>2025-06-15T11:09:45Z</time>
      </trkpt>
      <trkpt lat="44.45755" lon="5.10067">
        <ele>1323.87</ele>
        <time>2025-06-15T11:10:00Z</time>
      </trkpt>
      <trkpt lat="44.45762" lon="5.10066">
        <ele>1325.31</ele>
        <time>2025-06-15T11:10:07Z</time>
      </trkpt>
      <trkpt lat="44.45779" lon="5.10063">
        <ele>1326.76</ele>
        <time>2025-06-15T11:10:21Z</time>
      </trkpt>
      <trkpt lat="44.45798" lon="5.10058">
        <ele>1327.24</ele>
        <time>2025-06-15T11:10:37Z</time>
      </trkpt>
      <trkpt lat="44.45817" lon="5.10052">
        <ele>1328.2</ele>
        <time>2025-06-15T11:10:54Z</time>
      </trkpt>
      <trkpt lat="44.45833" lon="5.10042">
        <ele>1328.68</ele>
        <time>2025-06-15T11:11:09Z</time>
      </trkpt>
      <trkpt lat="44.45843" lon="5.10034">
        <ele>1327.24</ele>
        <time>2025-06-15T11:11:18Z</time>
      </trkpt>
      <trkpt lat="44.45858" lon="5.10025">
        <ele>1326.28</ele>
        <time>2025-06-15T11:11:32Z</time>
      </trkpt>
      <trkpt lat="44.4588" lon="5.10007">
        <ele>1324.35</ele>
        <time>2025-06-15T11:11:53Z</time>
      </trkpt>
      <trkpt lat="44.45891" lon="5.09993">
        <ele>1325.8</ele>
        <time>2025-06-15T11:12:06Z</time>
      </trkpt>
      <trkpt lat="44.45905" lon="5.09975">
        <ele>1326.28</ele>
        <time>2025-06-15T11:12:23Z</time>
      </trkpt>
      <trkpt lat="44.45912" lon="5.09967">
        <ele>1324.83</ele>
        <time>2025-06-15T11:12:31Z</time>
      </trkpt>
      <trkpt lat="44.45928" lon="5.09947">
        <ele>1322.43</ele>
        <time>2025-06-15T11:12:48Z</time>
      </trkpt>
      <trkpt lat="44.45943" lon="5.09924">
        <ele>1320.51</ele>
        <time>2025-06-15T11:13:06Z</time>
      </trkpt>
      <trkpt lat="44.45957" lon="5.09902">
        <ele>1318.59</ele>
        <time>2025-06-15T11:13:24Z</time>
      </trkpt>
      <trkpt lat="44.45959" lon="5.09899">
        <ele>1318.59</ele>
        <time>2025-06-15T11:13:26Z</time>
      </trkpt>
      <trkpt lat="44.45964" lon="5.0989">
        <ele>1318.59</ele>
        <time>2025-06-15T11:13:32Z</time>
      </trkpt>
      <trkpt lat="44.4598" lon="5.09863">
        <ele>1317.14</ele>
        <time>2025-06-15T11:13:52Z</time>
      </trkpt>
      <trkpt lat="44.45995" lon="5.09843">
        <ele>1318.59</ele>
        <time>2025-06-15T11:14:09Z</time>
      </trkpt>
      <trkpt lat="44.4601" lon="5.09821">
        <ele>1318.59</ele>
        <time>2025-06-15T11:14:27Z</time>
      </trkpt>
      <trkpt lat="44.46022" lon="5.09804">
        <ele>1318.59</ele>
        <time>2025-06-15T11:14:41Z</time>
      </trkpt>
      <trkpt lat="44.46036" lon="5.09782">
        <ele>1320.03</ele>
        <time>2025-06-15T11:14:59Z</time>
      </trkpt>
      <trkpt lat="44.46044" lon="5.09768">
        <ele>1320.51</ele>
        <time>2025-06-15T11:15:10Z</time>
      </trkpt>
      <trkpt lat="44.46051" lon="5.09759">
        <ele>1321.47</ele>
        <time>2025-06-15T11:15:18Z</time>
      </trkpt>
      <trkpt lat="44.46066" lon="5.09745">
        <ele>1322.43</ele>
        <time>2025-06-15T11:15:33Z</time>
      </trkpt>
      <trkpt lat="44.4607" lon="5.09744">
        <ele>1322.43</ele>
        <time>2025-06-15T11:15:48Z</time>
      </trkpt>
      <trkpt lat="44.46072" lon="5.09743">
        <ele>1322.43</ele>
        <time>2025-06-15T11:16:16Z</time>
      </trkpt>
      <trkpt lat="44.46073" lon="5.09743">
        <ele>1322.43</ele>
        <time>2025-06-15T11:16:19Z</time>
      </trkpt>
      <trkpt lat="44.46079" lon="5.09744">
        <ele>1320.99</ele>
        <time>2025-06-15T11:16:25Z</time>
      </trkpt>
      <trkpt lat="44.46083" lon="5.09747">
        <ele>1320.99</ele>
        <time>2025-06-15T11:16:30Z</time>
      </trkpt>
      <trkpt lat="44.46096" lon="5.09755">
        <ele>1319.55</ele>
        <time>2025-06-15T11:16:43Z</time>
      </trkpt>
      <trkpt lat="44.46099" lon="5.09757">
        <ele>1319.55</ele>
        <time>2025-06-15T11:16:47Z</time>
      </trkpt>
      <trkpt lat="44.46103" lon="5.09756">
        <ele>1319.55</ele>
        <time>2025-06-15T11:17:02Z</time>
      </trkpt>
      <trkpt lat="44.46108" lon="5.09747">
        <ele>1318.1</ele>
        <time>2025-06-15T11:17:15Z</time>
      </trkpt>
      <trkpt lat="44.46113" lon="5.09738">
        <ele>1316.18</ele>
        <time>2025-06-15T11:17:26Z</time>
      </trkpt>
      <trkpt lat="44.46119" lon="5.0973">
        <ele>1315.22</ele>
        <time>2025-06-15T11:17:37Z</time>
      </trkpt>
      <trkpt lat="44.46124" lon="5.09732">
        <ele>1310.9</ele>
        <time>2025-06-15T11:17:49Z</time>
      </trkpt>
      <trkpt lat="44.46125" lon="5.09733">
        <ele>1310.9</ele>
        <time>2025-06-15T11:17:51Z</time>
      </trkpt>
      <trkpt lat="44.46132" lon="5.09739">
        <ele>1308.01</ele>
        <time>2025-06-15T11:18:04Z</time>
      </trkpt>
      <trkpt lat="44.46137" lon="5.09741">
        <ele>1305.61</ele>
        <time>2025-06-15T11:18:14Z</time>
      </trkpt>
      <trkpt lat="44.46145" lon="5.09742">
        <ele>1303.69</ele>
        <time>2025-06-15T11:18:25Z</time>
      </trkpt>
      <trkpt lat="44.46163" lon="5.09748">
        <ele>1301.76</ele>
        <time>2025-06-15T11:18:41Z</time>
      </trkpt>
      <trkpt lat="44.46181" lon="5.09751">
        <ele>1301.28</ele>
        <time>2025-06-15T11:18:56Z</time>
      </trkpt>
      <trkpt lat="44.46186" lon="5.09755">
        <ele>1301.28</ele>
        <time>2025-06-15T11:19:01Z</time>
      </trkpt>
      <trkpt lat="44.46196" lon="5.09758">
        <ele>1302.72</ele>
        <time>2025-06-15T11:19:09Z</time>
      </trkpt>
      <trkpt lat="44.46197" lon="5.09759">
        <ele>1302.72</ele>
        <time>2025-06-15T11:19:10Z</time>
      </trkpt>
      <trkpt lat="44.46208" lon="5.09763">
        <ele>1303.69</ele>
        <time>2025-06-15T11:19:21Z</time>
      </trkpt>
      <trkpt lat="44.46217" lon="5.09769">
        <ele>1303.69</ele>
        <time>2025-06-15T11:19:32Z</time>
      </trkpt>
      <trkpt lat="44.4623" lon="5.09774">
        <ele>1303.69</ele>
        <time>2025-06-15T11:19:43Z</time>
      </trkpt>
      <trkpt lat="44.46239" lon="5.09779">
        <ele>1302.24</ele>
        <time>2025-06-15T11:19:52Z</time>
      </trkpt>
      <trkpt lat="44.46245" lon="5.09789">
        <ele>1301.76</ele>
        <time>2025-06-15T11:20:04Z</time>
      </trkpt>
      <trkpt lat="44.46251" lon="5.09796">
        <ele>1300.32</ele>
        <time>2025-06-15T11:20:12Z</time>
      </trkpt>
      <trkpt lat="44.46258" lon="5.09795">
        <ele>1299.36</ele>
        <time>2025-06-15T11:22:22Z</time>
      </trkpt>
      <trkpt lat="44.46264" lon="5.09797">
        <ele>1298.4</ele>
        <time>2025-06-15T11:22:36Z</time>
      </trkpt>
      <trkpt lat="44.46272" lon="5.09799">
        <ele>1295.03</ele>
        <time>2025-06-15T11:22:47Z</time>
      </trkpt>
      <trkpt lat="44.46278" lon="5.09802">
        <ele>1291.67</ele>
        <time>2025-06-15T11:22:57Z</time>
      </trkpt>
      <trkpt lat="44.46284" lon="5.09805">
        <ele>1288.78</ele>
        <time>2025-06-15T11:23:09Z</time>
      </trkpt>
      <trkpt lat="44.46288" lon="5.09807">
        <ele>1285.42</ele>
        <time>2025-06-15T11:23:20Z</time>
      </trkpt>
      <trkpt lat="44.46292" lon="5.0981">
        <ele>1283.5</ele>
        <time>2025-06-15T11:23:32Z</time>
      </trkpt>
      <trkpt lat="44.46293" lon="5.09815">
        <ele>1281.09</ele>
        <time>2025-06-15T11:23:46Z</time>
      </trkpt>
      <trkpt lat="44.46295" lon="5.09821">
        <ele>1279.17</ele>
        <time>2025-06-15T11:24:22Z</time>
      </trkpt>
      <trkpt lat="44.46299" lon="5.09823">
        <ele>1276.77</ele>
        <time>2025-06-15T11:24:35Z</time>
      </trkpt>
      <trkpt lat="44.46303" lon="5.09825">
        <ele>1273.4</ele>
        <time>2025-06-15T11:24:48Z</time>
      </trkpt>
      <trkpt lat="44.46309" lon="5.09829">
        <ele>1270.52</ele>
        <time>2025-06-15T11:25:01Z</time>
      </trkpt>
      <trkpt lat="44.46312" lon="5.09833">
        <ele>1268.12</ele>
        <time>2025-06-15T11:25:14Z</time>
      </trkpt>
      <trkpt lat="44.46318" lon="5.09837">
        <ele>1265.23</ele>
        <time>2025-06-15T11:25:26Z</time>
      </trkpt>
      <trkpt lat="44.46322" lon="5.09841">
        <ele>1262.83</ele>
        <time>2025-06-15T11:25:41Z</time>
      </trkpt>
      <trkpt lat="44.46332" lon="5.0985">
        <ele>1259.94</ele>
        <time>2025-06-15T11:25:57Z</time>
      </trkpt>
      <trkpt lat="44.46339" lon="5.09862">
        <ele>1256.58</ele>
        <time>2025-06-15T11:26:10Z</time>
      </trkpt>
      <trkpt lat="44.46341" lon="5.09869">
        <ele>1255.62</ele>
        <time>2025-06-15T11:26:23Z</time>
      </trkpt>
      <trkpt lat="44.4634" lon="5.09871">
        <ele>1255.62</ele>
        <time>2025-06-15T11:26:49Z</time>
      </trkpt>
      <trkpt lat="44.46341" lon="5.09879">
        <ele>1254.18</ele>
        <time>2025-06-15T11:27:06Z</time>
      </trkpt>
      <trkpt lat="44.46346" lon="5.09888">
        <ele>1252.74</ele>
        <time>2025-06-15T11:27:13Z</time>
      </trkpt>
      <trkpt lat="44.46351" lon="5.09896">
        <ele>1251.29</ele>
        <time>2025-06-15T11:27:20Z</time>
      </trkpt>
      <trkpt lat="44.46358" lon="5.09909">
        <ele>1249.37</ele>
        <time>2025-06-15T11:27:33Z</time>
      </trkpt>
      <trkpt lat="44.46369" lon="5.09918">
        <ele>1247.93</ele>
        <time>2025-06-15T11:27:43Z</time>
      </trkpt>
      <trkpt lat="44.46374" lon="5.09917">
        <ele>1247.45</ele>
        <time>2025-06-15T11:27:55Z</time>
      </trkpt>
      <trkpt lat="44.4638" lon="5.09912">
        <ele>1246.49</ele>
        <time>2025-06-15T11:28:11Z</time>
      </trkpt>
      <trkpt lat="44.46383" lon="5.0991">
        <ele>1246.01</ele>
        <time>2025-06-15T11:28:21Z</time>
      </trkpt>
      <trkpt lat="44.46393" lon="5.09903">
        <ele>1244.08</ele>
        <time>2025-06-15T11:28:36Z</time>
      </trkpt>
      <trkpt lat="44.46397" lon="5.09892">
        <ele>1243.6</ele>
        <time>2025-06-15T11:28:49Z</time>
      </trkpt>
      <trkpt lat="44.46399" lon="5.09887">
        <ele>1243.12</ele>
        <time>2025-06-15T11:28:55Z</time>
      </trkpt>
      <trkpt lat="44.46402" lon="5.09882">
        <ele>1243.12</ele>
        <time>2025-06-15T11:29:00Z</time>
      </trkpt>
      <trkpt lat="44.46404" lon="5.09881">
        <ele>1243.12</ele>
        <time>2025-06-15T11:29:02Z</time>
      </trkpt>
      <trkpt lat="44.4641" lon="5.09872">
        <ele>1242.16</ele>
        <time>2025-06-15T11:29:17Z</time>
      </trkpt>
      <trkpt lat="44.46414" lon="5.09871">
        <ele>1240.72</ele>
        <time>2025-06-15T11:29:31Z</time>
      </trkpt>
      <trkpt lat="44.4642" lon="5.09876">
        <ele>1237.83</ele>
        <time>2025-06-15T11:29:41Z</time>
      </trkpt>
      <trkpt lat="44.46428" lon="5.0988">
        <ele>1234.47</ele>
        <time>2025-06-15T11:29:52Z</time>
      </trkpt>
      <trkpt lat="44.46432" lon="5.09882">
        <ele>1232.07</ele>
        <time>2025-06-15T11:30:06Z</time>
      </trkpt>
      <trkpt lat="44.46434" lon="5.09883">
        <ele>1232.07</ele>
        <time>2025-06-15T11:30:29Z</time>
      </trkpt>
      <trkpt lat="44.46436" lon="5.09888">
        <ele>1231.11</ele>
        <time>2025-06-15T11:30:56Z</time>
      </trkpt>
      <trkpt lat="44.46443" lon="5.09892">
        <ele>1228.7</ele>
        <time>2025-06-15T11:31:13Z</time>
      </trkpt>
      <trkpt lat="44.46449" lon="5.09899">
        <ele>1226.3</ele>
        <time>2025-06-15T11:31:28Z</time>
      </trkpt>
      <trkpt lat="44.46451" lon="5.09902">
        <ele>1224.38</ele>
        <time>2025-06-15T11:31:35Z</time>
      </trkpt>
      <trkpt lat="44.46457" lon="5.09904">
        <ele>1221.97</ele>
        <time>2025-06-15T11:31:43Z</time>
      </trkpt>
      <trkpt lat="44.46465" lon="5.09904">
        <ele>1218.61</ele>
        <time>2025-06-15T11:31:54Z</time>
      </trkpt>
      <trkpt lat="44.46468" lon="5.09905">
        <ele>1215.24</ele>
        <time>2025-06-15T11:32:01Z</time>
      </trkpt>
      <trkpt lat="44.46473" lon="5.09908">
        <ele>1212.36</ele>
        <time>2025-06-15T11:32:11Z</time>
      </trkpt>
      <trkpt lat="44.46482" lon="5.09912">
        <ele>1209</ele>
        <time>2025-06-15T11:32:24Z</time>
      </trkpt>
      <trkpt lat="44.46487" lon="5.09915">
        <ele>1206.11</ele>
        <time>2025-06-15T11:32:34Z</time>
      </trkpt>
      <trkpt lat="44.46496" lon="5.09914">
        <ele>1202.27</ele>
        <time>2025-06-15T11:32:45Z</time>
      </trkpt>
      <trkpt lat="44.46504" lon="5.09919">
        <ele>1198.9</ele>
        <time>2025-06-15T11:32:57Z</time>
      </trkpt>
      <trkpt lat="44.4651" lon="5.09921">
        <ele>1195.54</ele>
        <time>2025-06-15T11:33:10Z</time>
      </trkpt>
      <trkpt lat="44.46517" lon="5.09924">
        <ele>1192.17</ele>
        <time>2025-06-15T11:33:22Z</time>
      </trkpt>
      <trkpt lat="44.46523" lon="5.09925">
        <ele>1188.81</ele>
        <time>2025-06-15T11:33:33Z</time>
      </trkpt>
      <trkpt lat="44.46528" lon="5.09927">
        <ele>1186.4</ele>
        <time>2025-06-15T11:33:42Z</time>
      </trkpt>
      <trkpt lat="44.46535" lon="5.09933">
        <ele>1183.04</ele>
        <time>2025-06-15T11:33:53Z</time>
      </trkpt>
      <trkpt lat="44.46542" lon="5.09938">
        <ele>1180.16</ele>
        <time>2025-06-15T11:34:04Z</time>
      </trkpt>
      <trkpt lat="44.46551" lon="5.09946">
        <ele>1176.79</ele>
        <time>2025-06-15T11:34:18Z</time>
      </trkpt>
      <trkpt lat="44.46554" lon="5.09954">
        <ele>1173.91</ele>
        <time>2025-06-15T11:34:30Z</time>
      </trkpt>
      <trkpt lat="44.46558" lon="5.09959">
        <ele>1170.54</ele>
        <time>2025-06-15T11:34:39Z</time>
      </trkpt>
      <trkpt lat="44.46563" lon="5.09967">
        <ele>1167.18</ele>
        <time>2025-06-15T11:34:52Z</time>
      </trkpt>
      <trkpt lat="44.46568" lon="5.09975">
        <ele>1163.81</ele>
        <time>2025-06-15T11:35:03Z</time>
      </trkpt>
      <trkpt lat="44.46569" lon="5.09981">
        <ele>1160.93</ele>
        <time>2025-06-15T11:35:13Z</time>
      </trkpt>
      <trkpt lat="44.46574" lon="5.09988">
        <ele>1158.05</ele>
        <time>2025-06-15T11:35:23Z</time>
      </trkpt>
      <trkpt lat="44.46578" lon="5.09996">
        <ele>1154.68</ele>
        <time>2025-06-15T11:35:31Z</time>
      </trkpt>
      <trkpt lat="44.46583" lon="5.10001">
        <ele>1153.24</ele>
        <time>2025-06-15T11:35:36Z</time>
      </trkpt>
      <trkpt lat="44.46589" lon="5.10016">
        <ele>1148.91</ele>
        <time>2025-06-15T11:39:49Z</time>
      </trkpt>
      <trkpt lat="44.46589" lon="5.10016">
        <ele>1150.35</ele>
        <time>2025-06-15T11:40:07Z</time>
      </trkpt>
      <trkpt lat="44.4659" lon="5.10019">
        <ele>1148.91</ele>
        <time>2025-06-15T11:40:12Z</time>
      </trkpt>
      <trkpt lat="44.46597" lon="5.10021">
        <ele>1145.55</ele>
        <time>2025-06-15T11:40:25Z</time>
      </trkpt>
      <trkpt lat="44.46603" lon="5.10025">
        <ele>1142.66</ele>
        <time>2025-06-15T11:40:36Z</time>
      </trkpt>
      <trkpt lat="44.4661" lon="5.10029">
        <ele>1139.3</ele>
        <time>2025-06-15T11:40:49Z</time>
      </trkpt>
      <trkpt lat="44.46615" lon="5.10033">
        <ele>1135.94</ele>
        <time>2025-06-15T11:40:59Z</time>
      </trkpt>
      <trkpt lat="44.46619" lon="5.10039">
        <ele>1132.57</ele>
        <time>2025-06-15T11:41:09Z</time>
      </trkpt>
      <trkpt lat="44.46621" lon="5.10049">
        <ele>1129.69</ele>
        <time>2025-06-15T11:41:19Z</time>
      </trkpt>
      <trkpt lat="44.46621" lon="5.10058">
        <ele>1127.76</ele>
        <time>2025-06-15T11:41:27Z</time>
      </trkpt>
      <trkpt lat="44.46618" lon="5.10072">
        <ele>1124.88</ele>
        <time>2025-06-15T11:41:40Z</time>
      </trkpt>
      <trkpt lat="44.46616" lon="5.10081">
        <ele>1121.52</ele>
        <time>2025-06-15T11:41:52Z</time>
      </trkpt>
      <trkpt lat="44.46616" lon="5.10089">
        <ele>1119.59</ele>
        <time>2025-06-15T11:42:02Z</time>
      </trkpt>
      <trkpt lat="44.46613" lon="5.10102">
        <ele>1116.23</ele>
        <time>2025-06-15T11:42:14Z</time>
      </trkpt>
      <trkpt lat="44.46611" lon="5.10114">
        <ele>1113.34</ele>
        <time>2025-06-15T11:42:25Z</time>
      </trkpt>
      <trkpt lat="44.46612" lon="5.10127">
        <ele>1109.5</ele>
        <time>2025-06-15T11:42:38Z</time>
      </trkpt>
      <trkpt lat="44.46611" lon="5.10141">
        <ele>1106.61</ele>
        <time>2025-06-15T11:42:53Z</time>
      </trkpt>
      <trkpt lat="44.46612" lon="5.10153">
        <ele>1103.25</ele>
        <time>2025-06-15T11:43:06Z</time>
      </trkpt>
      <trkpt lat="44.46614" lon="5.10164">
        <ele>1099.89</ele>
        <time>2025-06-15T11:43:17Z</time>
      </trkpt>
      <trkpt lat="44.46618" lon="5.10172">
        <ele>1096.52</ele>
        <time>2025-06-15T11:43:29Z</time>
      </trkpt>
      <trkpt lat="44.46622" lon="5.10179">
        <ele>1093.64</ele>
        <time>2025-06-15T11:43:38Z</time>
      </trkpt>
      <trkpt lat="44.46628" lon="5.10196">
        <ele>1090.27</ele>
        <time>2025-06-15T11:43:49Z</time>
      </trkpt>
      <trkpt lat="44.46632" lon="5.10209">
        <ele>1086.43</ele>
        <time>2025-06-15T11:44:00Z</time>
      </trkpt>
      <trkpt lat="44.46638" lon="5.10214">
        <ele>1084.5</ele>
        <time>2025-06-15T11:44:13Z</time>
      </trkpt>
      <trkpt lat="44.46645" lon="5.10219">
        <ele>1081.62</ele>
        <time>2025-06-15T11:44:23Z</time>
      </trkpt>
      <trkpt lat="44.46652" lon="5.10221">
        <ele>1078.74</ele>
        <time>2025-06-15T11:44:37Z</time>
      </trkpt>
      <trkpt lat="44.46662" lon="5.10228">
        <ele>1076.33</ele>
        <time>2025-06-15T11:44:51Z</time>
      </trkpt>
      <trkpt lat="44.46667" lon="5.10242">
        <ele>1073.45</ele>
        <time>2025-06-15T11:45:02Z</time>
      </trkpt>
      <trkpt lat="44.46666" lon="5.10254">
        <ele>1070.08</ele>
        <time>2025-06-15T11:45:15Z</time>
      </trkpt>
      <trkpt lat="44.46669" lon="5.10271">
        <ele>1066.72</ele>
        <time>2025-06-15T11:45:28Z</time>
      </trkpt>
      <trkpt lat="44.46668" lon="5.10285">
        <ele>1063.84</ele>
        <time>2025-06-15T11:45:40Z</time>
      </trkpt>
      <trkpt lat="44.46666" lon="5.10296">
        <ele>1060.95</ele>
        <time>2025-06-15T11:45:51Z</time>
      </trkpt>
      <trkpt lat="44.46666" lon="5.10305">
        <ele>1057.59</ele>
        <time>2025-06-15T11:46:02Z</time>
      </trkpt>
      <trkpt lat="44.46665" lon="5.10311">
        <ele>1056.15</ele>
        <time>2025-06-15T11:46:07Z</time>
      </trkpt>
      <trkpt lat="44.46663" lon="5.10322">
        <ele>1052.78</ele>
        <time>2025-06-15T11:46:16Z</time>
      </trkpt>
      <trkpt lat="44.46661" lon="5.10331">
        <ele>1051.34</ele>
        <time>2025-06-15T11:46:28Z</time>
      </trkpt>
      <trkpt lat="44.46661" lon="5.10335">
        <ele>1048.45</ele>
        <time>2025-06-15T11:46:42Z</time>
      </trkpt>
      <trkpt lat="44.46663" lon="5.10345">
        <ele>1045.09</ele>
        <time>2025-06-15T11:46:55Z</time>
      </trkpt>
      <trkpt lat="44.46662" lon="5.10356">
        <ele>1042.21</ele>
        <time>2025-06-15T11:47:08Z</time>
      </trkpt>
      <trkpt lat="44.46663" lon="5.10367">
        <ele>1039.32</ele>
        <time>2025-06-15T11:47:23Z</time>
      </trkpt>
      <trkpt lat="44.46664" lon="5.10378">
        <ele>1036.92</ele>
        <time>2025-06-15T11:47:35Z</time>
      </trkpt>
      <trkpt lat="44.46664" lon="5.1039">
        <ele>1034.04</ele>
        <time>2025-06-15T11:47:45Z</time>
      </trkpt>
      <trkpt lat="44.46662" lon="5.10402">
        <ele>1030.67</ele>
        <time>2025-06-15T11:47:58Z</time>
      </trkpt>
      <trkpt lat="44.46661" lon="5.10409">
        <ele>1027.79</ele>
        <time>2025-06-15T11:48:09Z</time>
      </trkpt>
      <trkpt lat="44.46662" lon="5.10416">
        <ele>1025.86</ele>
        <time>2025-06-15T11:48:19Z</time>
      </trkpt>
      <trkpt lat="44.46662" lon="5.10425">
        <ele>1022.98</ele>
        <time>2025-06-15T11:48:31Z</time>
      </trkpt>
      <trkpt lat="44.46663" lon="5.1044">
        <ele>1020.1</ele>
        <time>2025-06-15T11:48:45Z</time>
      </trkpt>
      <trkpt lat="44.46659" lon="5.10449">
        <ele>1018.65</ele>
        <time>2025-06-15T11:48:59Z</time>
      </trkpt>
      <trkpt lat="44.46656" lon="5.10458">
        <ele>1016.25</ele>
        <time>2025-06-15T11:49:14Z</time>
      </trkpt>
      <trkpt lat="44.46651" lon="5.1046">
        <ele>1016.25</ele>
        <time>2025-06-15T11:49:26Z</time>
      </trkpt>
      <trkpt lat="44.4665" lon="5.10463">
        <ele>1015.29</ele>
        <time>2025-06-15T11:49:31Z</time>
      </trkpt>
      <trkpt lat="44.46655" lon="5.10473">
        <ele>1014.33</ele>
        <time>2025-06-15T11:49:46Z</time>
      </trkpt>
      <trkpt lat="44.46657" lon="5.10478">
        <ele>1013.85</ele>
        <time>2025-06-15T11:49:59Z</time>
      </trkpt>
      <trkpt lat="44.46656" lon="5.10479">
        <ele>1012.89</ele>
        <time>2025-06-15T11:54:00Z</time>
      </trkpt>
      <trkpt lat="44.46654" lon="5.10483">
        <ele>1011.44</ele>
        <time>2025-06-15T11:54:13Z</time>
      </trkpt>
      <trkpt lat="44.46646" lon="5.10486">
        <ele>1008.56</ele>
        <time>2025-06-15T11:54:28Z</time>
      </trkpt>
      <trkpt lat="44.46642" lon="5.10492">
        <ele>1005.2</ele>
        <time>2025-06-15T11:54:43Z</time>
      </trkpt>
      <trkpt lat="44.46638" lon="5.10499">
        <ele>1002.79</ele>
        <time>2025-06-15T11:54:59Z</time>
      </trkpt>
      <trkpt lat="44.46634" lon="5.10503">
        <ele>1001.35</ele>
        <time>2025-06-15T11:55:18Z</time>
      </trkpt>
      <trkpt lat="44.46628" lon="5.10508">
        <ele>997.99</ele>
        <time>2025-06-15T11:55:29Z</time>
      </trkpt>
      <trkpt lat="44.46622" lon="5.1051">
        <ele>995.58</ele>
        <time>2025-06-15T11:55:42Z</time>
      </trkpt>
      <trkpt lat="44.46616" lon="5.10512">
        <ele>992.22</ele>
        <time>2025-06-15T11:55:53Z</time>
      </trkpt>
      <trkpt lat="44.4661" lon="5.10521">
        <ele>988.85</ele>
        <time>2025-06-15T11:56:04Z</time>
      </trkpt>
      <trkpt lat="44.46606" lon="5.10527">
        <ele>986.45</ele>
        <time>2025-06-15T11:56:15Z</time>
      </trkpt>
      <trkpt lat="44.46599" lon="5.10534">
        <ele>983.09</ele>
        <time>2025-06-15T11:56:27Z</time>
      </trkpt>
      <trkpt lat="44.46591" lon="5.10541">
        <ele>979.72</ele>
        <time>2025-06-15T11:56:40Z</time>
      </trkpt>
      <trkpt lat="44.46587" lon="5.10551">
        <ele>976.36</ele>
        <time>2025-06-15T11:56:52Z</time>
      </trkpt>
      <trkpt lat="44.46582" lon="5.10559">
        <ele>972.99</ele>
        <time>2025-06-15T11:57:03Z</time>
      </trkpt>
      <trkpt lat="44.46576" lon="5.10565">
        <ele>971.55</ele>
        <time>2025-06-15T11:57:17Z</time>
      </trkpt>
      <trkpt lat="44.46575" lon="5.10561">
        <ele>972.51</ele>
        <time>2025-06-15T11:57:36Z</time>
      </trkpt>
      <trkpt lat="44.46573" lon="5.10557">
        <ele>973.47</ele>
        <time>2025-06-15T11:57:53Z</time>
      </trkpt>
      <trkpt lat="44.46572" lon="5.1056">
        <ele>972.03</ele>
        <time>2025-06-15T11:58:03Z</time>
      </trkpt>
      <trkpt lat="44.46569" lon="5.10564">
        <ele>971.07</ele>
        <time>2025-06-15T11:58:16Z</time>
      </trkpt>
      <trkpt lat="44.46564" lon="5.10568">
        <ele>969.15</ele>
        <time>2025-06-15T11:58:34Z</time>
      </trkpt>
      <trkpt lat="44.46557" lon="5.10579">
        <ele>965.78</ele>
        <time>2025-06-15T11:58:49Z</time>
      </trkpt>
      <trkpt lat="44.4655" lon="5.10585">
        <ele>963.38</ele>
        <time>2025-06-15T11:59:06Z</time>
      </trkpt>
      <trkpt lat="44.46548" lon="5.10594">
        <ele>960.49</ele>
        <time>2025-06-15T11:59:22Z</time>
      </trkpt>
      <trkpt lat="44.46545" lon="5.10599">
        <ele>957.13</ele>
        <time>2025-06-15T11:59:34Z</time>
      </trkpt>
      <trkpt lat="44.46546" lon="5.10612">
        <ele>954.25</ele>
        <time>2025-06-15T11:59:48Z</time>
      </trkpt>
      <trkpt lat="44.46547" lon="5.10623">
        <ele>951.36</ele>
        <time>2025-06-15T11:59:58Z</time>
      </trkpt>
      <trkpt lat="44.46545" lon="5.10637">
        <ele>948.48</ele>
        <time>2025-06-15T12:00:11Z</time>
      </trkpt>
      <trkpt lat="44.46546" lon="5.10652">
        <ele>945.11</ele>
        <time>2025-06-15T12:00:25Z</time>
      </trkpt>
      <trkpt lat="44.46546" lon="5.10669">
        <ele>941.75</ele>
        <time>2025-06-15T12:00:40Z</time>
      </trkpt>
      <trkpt lat="44.46545" lon="5.10683">
        <ele>939.35</ele>
        <time>2025-06-15T12:00:54Z</time>
      </trkpt>
      <trkpt lat="44.46544" lon="5.10695">
        <ele>936.94</ele>
        <time>2025-06-15T12:01:08Z</time>
      </trkpt>
      <trkpt lat="44.4654" lon="5.10706">
        <ele>934.54</ele>
        <time>2025-06-15T12:01:21Z</time>
      </trkpt>
      <trkpt lat="44.46535" lon="5.10715">
        <ele>932.14</ele>
        <time>2025-06-15T12:01:35Z</time>
      </trkpt>
      <trkpt lat="44.46528" lon="5.10724">
        <ele>928.29</ele>
        <time>2025-06-15T12:01:48Z</time>
      </trkpt>
      <trkpt lat="44.46524" lon="5.10732">
        <ele>926.37</ele>
        <time>2025-06-15T12:02:01Z</time>
      </trkpt>
      <trkpt lat="44.46521" lon="5.10738">
        <ele>924.45</ele>
        <time>2025-06-15T12:02:15Z</time>
      </trkpt>
      <trkpt lat="44.46516" lon="5.10741">
        <ele>922.52</ele>
        <time>2025-06-15T12:02:29Z</time>
      </trkpt>
      <trkpt lat="44.46511" lon="5.10749">
        <ele>919.64</ele>
        <time>2025-06-15T12:02:41Z</time>
      </trkpt>
      <trkpt lat="44.4651" lon="5.10755">
        <ele>918.2</ele>
        <time>2025-06-15T12:02:54Z</time>
      </trkpt>
      <trkpt lat="44.46507" lon="5.10761">
        <ele>915.79</ele>
        <time>2025-06-15T12:03:08Z</time>
      </trkpt>
      <trkpt lat="44.46508" lon="5.10769">
        <ele>912.43</ele>
        <time>2025-06-15T12:03:21Z</time>
      </trkpt>
      <trkpt lat="44.46509" lon="5.10782">
        <ele>909.54</ele>
        <time>2025-06-15T12:03:34Z</time>
      </trkpt>
      <trkpt lat="44.46507" lon="5.10793">
        <ele>907.14</ele>
        <time>2025-06-15T12:03:47Z</time>
      </trkpt>
      <trkpt lat="44.46506" lon="5.10808">
        <ele>904.26</ele>
        <time>2025-06-15T12:04:01Z</time>
      </trkpt>
      <trkpt lat="44.46506" lon="5.1082">
        <ele>901.85</ele>
        <time>2025-06-15T12:04:15Z</time>
      </trkpt>
      <trkpt lat="44.46506" lon="5.10829">
        <ele>900.41</ele>
        <time>2025-06-15T12:04:31Z</time>
      </trkpt>
      <trkpt lat="44.46505" lon="5.10836">
        <ele>898.01</ele>
        <time>2025-06-15T12:04:44Z</time>
      </trkpt>
      <trkpt lat="44.46506" lon="5.10839">
        <ele>897.05</ele>
        <time>2025-06-15T12:04:56Z</time>
      </trkpt>
      <trkpt lat="44.46503" lon="5.10844">
        <ele>897.05</ele>
        <time>2025-06-15T12:05:15Z</time>
      </trkpt>
      <trkpt lat="44.46504" lon="5.10848">
        <ele>895.12</ele>
        <time>2025-06-15T12:05:29Z</time>
      </trkpt>
      <trkpt lat="44.46502" lon="5.10853">
        <ele>894.16</ele>
        <time>2025-06-15T12:05:45Z</time>
      </trkpt>
      <trkpt lat="44.46501" lon="5.10858">
        <ele>893.2</ele>
        <time>2025-06-15T12:06:03Z</time>
      </trkpt>
      <trkpt lat="44.46505" lon="5.10863">
        <ele>890.32</ele>
        <time>2025-06-15T12:06:34Z</time>
      </trkpt>
      <trkpt lat="44.4651" lon="5.10865">
        <ele>889.84</ele>
        <time>2025-06-15T12:06:49Z</time>
      </trkpt>
      <trkpt lat="44.46514" lon="5.10867">
        <ele>887.43</ele>
        <time>2025-06-15T12:07:06Z</time>
      </trkpt>
      <trkpt lat="44.4652" lon="5.10868">
        <ele>885.03</ele>
        <time>2025-06-15T12:07:14Z</time>
      </trkpt>
      <trkpt lat="44.46529" lon="5.10867">
        <ele>882.15</ele>
        <time>2025-06-15T12:07:30Z</time>
      </trkpt>
      <trkpt lat="44.4653" lon="5.10867">
        <ele>882.15</ele>
        <time>2025-06-15T12:07:54Z</time>
      </trkpt>
      <trkpt lat="44.4653" lon="5.10867">
        <ele>882.15</ele>
        <time>2025-06-15T12:08:27Z</time>
      </trkpt>
      <trkpt lat="44.46543" lon="5.10863">
        <ele>878.78</ele>
        <time>2025-06-15T12:09:04Z</time>
      </trkpt>
      <trkpt lat="44.46552" lon="5.10856">
        <ele>873.5</ele>
        <time>2025-06-15T12:10:18Z</time>
      </trkpt>
      <trkpt lat="44.46563" lon="5.10855">
        <ele>870.61</ele>
        <time>2025-06-15T12:10:30Z</time>
      </trkpt>
      <trkpt lat="44.46569" lon="5.10855">
        <ele>869.65</ele>
        <time>2025-06-15T12:10:46Z</time>
      </trkpt>
      <trkpt lat="44.46575" lon="5.10855">
        <ele>868.69</ele>
        <time>2025-06-15T12:11:01Z</time>
      </trkpt>
      <trkpt lat="44.46579" lon="5.10857">
        <ele>867.25</ele>
        <time>2025-06-15T12:11:30Z</time>
      </trkpt>
      <trkpt lat="44.46585" lon="5.10858">
        <ele>866.77</ele>
        <time>2025-06-15T12:11:45Z</time>
      </trkpt>
      <trkpt lat="44.46586" lon="5.10859">
        <ele>865.8</ele>
        <time>2025-06-15T12:12:01Z</time>
      </trkpt>
      <trkpt lat="44.46595" lon="5.10864">
        <ele>865.8</ele>
        <time>2025-06-15T12:12:17Z</time>
      </trkpt>
      <trkpt lat="44.46605" lon="5.10871">
        <ele>864.84</ele>
        <time>2025-06-15T12:12:34Z</time>
      </trkpt>
      <trkpt lat="44.4661" lon="5.10886">
        <ele>863.4</ele>
        <time>2025-06-15T12:12:48Z</time>
      </trkpt>
      <trkpt lat="44.46617" lon="5.10894">
        <ele>861.48</ele>
        <time>2025-06-15T12:13:01Z</time>
      </trkpt>
      <trkpt lat="44.4662" lon="5.10906">
        <ele>859.08</ele>
        <time>2025-06-15T12:13:12Z</time>
      </trkpt>
      <trkpt lat="44.4662" lon="5.10917">
        <ele>856.19</ele>
        <time>2025-06-15T12:13:28Z</time>
      </trkpt>
      <trkpt lat="44.46623" lon="5.1093">
        <ele>852.83</ele>
        <time>2025-06-15T12:13:42Z</time>
      </trkpt>
      <trkpt lat="44.46626" lon="5.10937">
        <ele>849.46</ele>
        <time>2025-06-15T12:13:52Z</time>
      </trkpt>
      <trkpt lat="44.46625" lon="5.10947">
        <ele>846.1</ele>
        <time>2025-06-15T12:14:08Z</time>
      </trkpt>
      <trkpt lat="44.46623" lon="5.10954">
        <ele>843.21</ele>
        <time>2025-06-15T12:14:19Z</time>
      </trkpt>
      <trkpt lat="44.46621" lon="5.10965">
        <ele>839.85</ele>
        <time>2025-06-15T12:14:30Z</time>
      </trkpt>
      <trkpt lat="44.46624" lon="5.10974">
        <ele>836.48</ele>
        <time>2025-06-15T12:14:41Z</time>
      </trkpt>
      <trkpt lat="44.46626" lon="5.10984">
        <ele>833.6</ele>
        <time>2025-06-15T12:14:50Z</time>
      </trkpt>
      <trkpt lat="44.4663" lon="5.10993">
        <ele>831.2</ele>
        <time>2025-06-15T12:15:04Z</time>
      </trkpt>
      <trkpt lat="44.46631" lon="5.11002">
        <ele>827.83</ele>
        <time>2025-06-15T12:15:17Z</time>
      </trkpt>
      <trkpt lat="44.46633" lon="5.11009">
        <ele>826.87</ele>
        <time>2025-06-15T12:15:23Z</time>
      </trkpt>
      <trkpt lat="44.46632" lon="5.11018">
        <ele>825.43</ele>
        <time>2025-06-15T12:15:36Z</time>
      </trkpt>
      <trkpt lat="44.46631" lon="5.11028">
        <ele>823.99</ele>
        <time>2025-06-15T12:15:50Z</time>
      </trkpt>
      <trkpt lat="44.46629" lon="5.11032">
        <ele>823.51</ele>
        <time>2025-06-15T12:16:05Z</time>
      </trkpt>
      <trkpt lat="44.46628" lon="5.11032">
        <ele>823.03</ele>
        <time>2025-06-15T12:16:22Z</time>
      </trkpt>
      <trkpt lat="44.46624" lon="5.11034">
        <ele>822.06</ele>
        <time>2025-06-15T12:16:36Z</time>
      </trkpt>
      <trkpt lat="44.46616" lon="5.11039">
        <ele>822.06</ele>
        <time>2025-06-15T12:16:52Z</time>
      </trkpt>
      <trkpt lat="44.46614" lon="5.1104">
        <ele>822.06</ele>
        <time>2025-06-15T12:17:12Z</time>
      </trkpt>
      <trkpt lat="44.46612" lon="5.11041">
        <ele>821.58</ele>
        <time>2025-06-15T12:17:54Z</time>
      </trkpt>
      <trkpt lat="44.46609" lon="5.11042">
        <ele>821.1</ele>
        <time>2025-06-15T12:18:07Z</time>
      </trkpt>
      <trkpt lat="44.46606" lon="5.11042">
        <ele>821.58</ele>
        <time>2025-06-15T12:18:10Z</time>
      </trkpt>
      <trkpt lat="44.46601" lon="5.11042">
        <ele>820.62</ele>
        <time>2025-06-15T12:18:14Z</time>
      </trkpt>
      <trkpt lat="44.46585" lon="5.11045">
        <ele>820.14</ele>
        <time>2025-06-15T12:18:30Z</time>
      </trkpt>
      <trkpt lat="44.46575" lon="5.11049">
        <ele>819.18</ele>
        <time>2025-06-15T12:18:44Z</time>
      </trkpt>
      <trkpt lat="44.46562" lon="5.11055">
        <ele>816.3</ele>
        <time>2025-06-15T12:19:00Z</time>
      </trkpt>
      <trkpt lat="44.46542" lon="5.11056">
        <ele>814.85</ele>
        <time>2025-06-15T12:19:21Z</time>
      </trkpt>
      <trkpt lat="44.46529" lon="5.1106">
        <ele>814.85</ele>
        <time>2025-06-15T12:19:34Z</time>
      </trkpt>
      <trkpt lat="44.46516" lon="5.11063">
        <ele>815.82</ele>
        <time>2025-06-15T12:19:47Z</time>
      </trkpt>
      <trkpt lat="44.46507" lon="5.11071">
        <ele>816.3</ele>
        <time>2025-06-15T12:20:00Z</time>
      </trkpt>
      <trkpt lat="44.46499" lon="5.11073">
        <ele>816.3</ele>
        <time>2025-06-15T12:20:13Z</time>
      </trkpt>
      <trkpt lat="44.46491" lon="5.11085">
        <ele>815.82</ele>
        <time>2025-06-15T12:20:26Z</time>
      </trkpt>
      <trkpt lat="44.46477" lon="5.11096">
        <ele>818.22</ele>
        <time>2025-06-15T12:20:39Z</time>
      </trkpt>
      <trkpt lat="44.46464" lon="5.11104">
        <ele>820.14</ele>
        <time>2025-06-15T12:20:55Z</time>
      </trkpt>
      <trkpt lat="44.46451" lon="5.11115">
        <ele>822.55</ele>
        <time>2025-06-15T12:21:10Z</time>
      </trkpt>
      <trkpt lat="44.46445" lon="5.11117">
        <ele>823.99</ele>
        <time>2025-06-15T12:21:17Z</time>
      </trkpt>
      <trkpt lat="44.46434" lon="5.11126">
        <ele>825.43</ele>
        <time>2025-06-15T12:21:30Z</time>
      </trkpt>
      <trkpt lat="44.4642" lon="5.11133">
        <ele>827.83</ele>
        <time>2025-06-15T12:21:44Z</time>
      </trkpt>
      <trkpt lat="44.46408" lon="5.11141">
        <ele>828.31</ele>
        <time>2025-06-15T12:21:58Z</time>
      </trkpt>
      <trkpt lat="44.46395" lon="5.11148">
        <ele>829.76</ele>
        <time>2025-06-15T12:22:11Z</time>
      </trkpt>
      <trkpt lat="44.46384" lon="5.11155">
        <ele>830.72</ele>
        <time>2025-06-15T12:22:24Z</time>
      </trkpt>
      <trkpt lat="44.46369" lon="5.11163">
        <ele>831.68</ele>
        <time>2025-06-15T12:22:36Z</time>
      </trkpt>
      <trkpt lat="44.46365" lon="5.11166">
        <ele>831.2</ele>
        <time>2025-06-15T12:22:50Z</time>
      </trkpt>
      <trkpt lat="44.46363" lon="5.11176">
        <ele>829.27</ele>
        <time>2025-06-15T12:23:07Z</time>
      </trkpt>
      <trkpt lat="44.46367" lon="5.11186">
        <ele>828.79</ele>
        <time>2025-06-15T12:28:45Z</time>
      </trkpt>
      <trkpt lat="44.4637" lon="5.11195">
        <ele>826.87</ele>
        <time>2025-06-15T12:28:52Z</time>
      </trkpt>
      <trkpt lat="44.46371" lon="5.11202">
        <ele>825.91</ele>
        <time>2025-06-15T12:28:57Z</time>
      </trkpt>
      <trkpt lat="44.46372" lon="5.11206">
        <ele>825.43</ele>
        <time>2025-06-15T12:29:00Z</time>
      </trkpt>
      <trkpt lat="44.46376" lon="5.11226">
        <ele>822.06</ele>
        <time>2025-06-15T12:29:13Z</time>
      </trkpt>
      <trkpt lat="44.46376" lon="5.11237">
        <ele>819.66</ele>
        <time>2025-06-15T12:29:21Z</time>
      </trkpt>
      <trkpt lat="44.46374" lon="5.11247">
        <ele>818.7</ele>
        <time>2025-06-15T12:29:27Z</time>
      </trkpt>
      <trkpt lat="44.46374" lon="5.11257">
        <ele>817.26</ele>
        <time>2025-06-15T12:29:31Z</time>
      </trkpt>
      <trkpt lat="44.46373" lon="5.11275">
        <ele>813.89</ele>
        <time>2025-06-15T12:29:42Z</time>
      </trkpt>
      <trkpt lat="44.46372" lon="5.11284">
        <ele>812.93</ele>
        <time>2025-06-15T12:29:47Z</time>
      </trkpt>
      <trkpt lat="44.46383" lon="5.11304">
        <ele>808.61</ele>
        <time>2025-06-15T12:30:02Z</time>
      </trkpt>
      <trkpt lat="44.46389" lon="5.11321">
        <ele>805.72</ele>
        <time>2025-06-15T12:30:12Z</time>
      </trkpt>
      <trkpt lat="44.46386" lon="5.11338">
        <ele>802.84</ele>
        <time>2025-06-15T12:30:23Z</time>
      </trkpt>
      <trkpt lat="44.46379" lon="5.11358">
        <ele>799.47</ele>
        <time>2025-06-15T12:30:36Z</time>
      </trkpt>
      <trkpt lat="44.46375" lon="5.11378">
        <ele>796.11</ele>
        <time>2025-06-15T12:30:48Z</time>
      </trkpt>
      <trkpt lat="44.46376" lon="5.11397">
        <ele>794.19</ele>
        <time>2025-06-15T12:30:58Z</time>
      </trkpt>
      <trkpt lat="44.46376" lon="5.11405">
        <ele>792.74</ele>
        <time>2025-06-15T12:31:04Z</time>
      </trkpt>
      <trkpt lat="44.46374" lon="5.11426">
        <ele>789.38</ele>
        <time>2025-06-15T12:31:17Z</time>
      </trkpt>
      <trkpt lat="44.46373" lon="5.11442">
        <ele>786.5</ele>
        <time>2025-06-15T12:31:29Z</time>
      </trkpt>
      <trkpt lat="44.46368" lon="5.11458">
        <ele>783.13</ele>
        <time>2025-06-15T12:31:42Z</time>
      </trkpt>
      <trkpt lat="44.46363" lon="5.11473">
        <ele>781.21</ele>
        <time>2025-06-15T12:31:52Z</time>
      </trkpt>
      <trkpt lat="44.46364" lon="5.11493">
        <ele>778.32</ele>
        <time>2025-06-15T12:32:04Z</time>
      </trkpt>
      <trkpt lat="44.46365" lon="5.11512">
        <ele>774.96</ele>
        <time>2025-06-15T12:32:16Z</time>
      </trkpt>
      <trkpt lat="44.46361" lon="5.11537">
        <ele>771.6</ele>
        <time>2025-06-15T12:32:31Z</time>
      </trkpt>
      <trkpt lat="44.46361" lon="5.1156">
        <ele>768.23</ele>
        <time>2025-06-15T12:32:45Z</time>
      </trkpt>
      <trkpt lat="44.46364" lon="5.11579">
        <ele>764.87</ele>
        <time>2025-06-15T12:32:57Z</time>
      </trkpt>
      <trkpt lat="44.46369" lon="5.11603">
        <ele>761.5</ele>
        <time>2025-06-15T12:33:13Z</time>
      </trkpt>
      <trkpt lat="44.46375" lon="5.11622">
        <ele>758.14</ele>
        <time>2025-06-15T12:33:26Z</time>
      </trkpt>
      <trkpt lat="44.4638" lon="5.11634">
        <ele>756.21</ele>
        <time>2025-06-15T12:33:34Z</time>
      </trkpt>
      <trkpt lat="44.46385" lon="5.11656">
        <ele>752.85</ele>
        <time>2025-06-15T12:33:48Z</time>
      </trkpt>
      <trkpt lat="44.4639" lon="5.1168">
        <ele>749.49</ele>
        <time>2025-06-15T12:34:04Z</time>
      </trkpt>
      <trkpt lat="44.46389" lon="5.11699">
        <ele>746.12</ele>
        <time>2025-06-15T12:34:18Z</time>
      </trkpt>
      <trkpt lat="44.46387" lon="5.11722">
        <ele>743.72</ele>
        <time>2025-06-15T12:34:35Z</time>
      </trkpt>
      <trkpt lat="44.46386" lon="5.11729">
        <ele>742.76</ele>
        <time>2025-06-15T12:35:52Z</time>
      </trkpt>
      <trkpt lat="44.46374" lon="5.11754">
        <ele>742.76</ele>
        <time>2025-06-15T12:36:09Z</time>
      </trkpt>
      <trkpt lat="44.46369" lon="5.11758">
        <ele>743.72</ele>
        <time>2025-06-15T12:36:14Z</time>
      </trkpt>
      <trkpt lat="44.4636" lon="5.11782">
        <ele>744.68</ele>
        <time>2025-06-15T12:36:30Z</time>
      </trkpt>
      <trkpt lat="44.4636" lon="5.11783">
        <ele>744.68</ele>
        <time>2025-06-15T12:36:31Z</time>
      </trkpt>
      <trkpt lat="44.46362" lon="5.11816">
        <ele>744.68</ele>
        <time>2025-06-15T12:36:48Z</time>
      </trkpt>
      <trkpt lat="44.46362" lon="5.11831">
        <ele>745.16</ele>
        <time>2025-06-15T12:36:58Z</time>
      </trkpt>
      <trkpt lat="44.46363" lon="5.11849">
        <ele>746.12</ele>
        <time>2025-06-15T12:37:09Z</time>
      </trkpt>
      <trkpt lat="44.46363" lon="5.11876">
        <ele>747.56</ele>
        <time>2025-06-15T12:37:25Z</time>
      </trkpt>
      <trkpt lat="44.46361" lon="5.11901">
        <ele>747.08</ele>
        <time>2025-06-15T12:37:41Z</time>
      </trkpt>
      <trkpt lat="44.4636" lon="5.11904">
        <ele>746.12</ele>
        <time>2025-06-15T12:37:43Z</time>
      </trkpt>
      <trkpt lat="44.46352" lon="5.11929">
        <ele>744.2</ele>
        <time>2025-06-15T12:37:59Z</time>
      </trkpt>
      <trkpt lat="44.46345" lon="5.11952">
        <ele>742.28</ele>
        <time>2025-06-15T12:38:14Z</time>
      </trkpt>
      <trkpt lat="44.46339" lon="5.11985">
        <ele>739.87</ele>
        <time>2025-06-15T12:38:31Z</time>
      </trkpt>
      <trkpt lat="44.46335" lon="5.12021">
        <ele>737.47</ele>
        <time>2025-06-15T12:38:49Z</time>
      </trkpt>
      <trkpt lat="44.46333" lon="5.12028">
        <ele>736.99</ele>
        <time>2025-06-15T12:38:54Z</time>
      </trkpt>
      <trkpt lat="44.46332" lon="5.1203">
        <ele>736.99</ele>
        <time>2025-06-15T12:38:55Z</time>
      </trkpt>
      <trkpt lat="44.46331" lon="5.12031">
        <ele>736.51</ele>
        <time>2025-06-15T12:38:56Z</time>
      </trkpt>
      <trkpt lat="44.4633" lon="5.12032">
        <ele>736.51</ele>
        <time>2025-06-15T12:38:57Z</time>
      </trkpt>
      <trkpt lat="44.46329" lon="5.12033">
        <ele>736.51</ele>
        <time>2025-06-15T12:38:58Z</time>
      </trkpt>
      <trkpt lat="44.46328" lon="5.12034">
        <ele>736.03</ele>
        <time>2025-06-15T12:38:59Z</time>
      </trkpt>
      <trkpt lat="44.46327" lon="5.12035">
        <ele>736.03</ele>
        <time>2025-06-15T12:39:00Z</time>
      </trkpt>
      <trkpt lat="44.46325" lon="5.12036">
        <ele>736.03</ele>
        <time>2025-06-15T12:39:01Z</time>
      </trkpt>
      <trkpt lat="44.46324" lon="5.12036">
        <ele>736.03</ele>
        <time>2025-06-15T12:39:02Z</time>
      </trkpt>
      <trkpt lat="44.46303" lon="5.12039">
        <ele>733.62</ele>
        <time>2025-06-15T12:39:18Z</time>
      </trkpt>
      <trkpt lat="44.46288" lon="5.12039">
        <ele>733.14</ele>
        <time>2025-06-15T12:39:29Z</time>
      </trkpt>
      <trkpt lat="44.46287" lon="5.12038">
        <ele>733.14</ele>
        <time>2025-06-15T12:39:30Z</time>
      </trkpt>
      <trkpt lat="44.46286" lon="5.12038">
        <ele>733.14</ele>
        <time>2025-06-15T12:39:31Z</time>
      </trkpt>
      <trkpt lat="44.46285" lon="5.12037">
        <ele>732.66</ele>
        <time>2025-06-15T12:39:32Z</time>
      </trkpt>
      <trkpt lat="44.46283" lon="5.12037">
        <ele>732.66</ele>
        <time>2025-06-15T12:39:33Z</time>
      </trkpt>
      <trkpt lat="44.46282" lon="5.12036">
        <ele>732.66</ele>
        <time>2025-06-15T12:39:34Z</time>
      </trkpt>
      <trkpt lat="44.46281" lon="5.12036">
        <ele>732.66</ele>
        <time>2025-06-15T12:39:35Z</time>
      </trkpt>
      <trkpt lat="44.46263" lon="5.12026">
        <ele>732.66</ele>
        <time>2025-06-15T12:39:52Z</time>
      </trkpt>
      <trkpt lat="44.46244" lon="5.12017">
        <ele>732.18</ele>
        <time>2025-06-15T12:40:07Z</time>
      </trkpt>
      <trkpt lat="44.4623" lon="5.12016">
        <ele>731.22</ele>
        <time>2025-06-15T12:40:17Z</time>
      </trkpt>
      <trkpt lat="44.46228" lon="5.12015">
        <ele>731.22</ele>
        <time>2025-06-15T12:40:18Z</time>
      </trkpt>
      <trkpt lat="44.46219" lon="5.12015">
        <ele>731.22</ele>
        <time>2025-06-15T12:40:25Z</time>
      </trkpt>
      <trkpt lat="44.46218" lon="5.12016">
        <ele>731.22</ele>
        <time>2025-06-15T12:40:26Z</time>
      </trkpt>
      <trkpt lat="44.46217" lon="5.12016">
        <ele>731.22</ele>
        <time>2025-06-15T12:40:27Z</time>
      </trkpt>
      <trkpt lat="44.46215" lon="5.12016">
        <ele>731.22</ele>
        <time>2025-06-15T12:40:28Z</time>
      </trkpt>
      <trkpt lat="44.46214" lon="5.12016">
        <ele>731.22</ele>
        <time>2025-06-15T12:40:29Z</time>
      </trkpt>
      <trkpt lat="44.46212" lon="5.12016">
        <ele>731.22</ele>
        <time>2025-06-15T12:40:30Z</time>
      </trkpt>
      <trkpt lat="44.4619" lon="5.12021">
        <ele>730.74</ele>
        <time>2025-06-15T12:40:45Z</time>
      </trkpt>
      <trkpt lat="44.46167" lon="5.1203">
        <ele>729.78</ele>
        <time>2025-06-15T12:41:03Z</time>
      </trkpt>
      <trkpt lat="44.46159" lon="5.12039">
        <ele>729.3</ele>
        <time>2025-06-15T12:41:10Z</time>
      </trkpt>
      <trkpt lat="44.46152" lon="5.12042">
        <ele>729.3</ele>
        <time>2025-06-15T12:41:21Z</time>
      </trkpt>
      <trkpt lat="44.46145" lon="5.12044">
        <ele>731.22</ele>
        <time>2025-06-15T12:41:35Z</time>
      </trkpt>
      <trkpt lat="44.46143" lon="5.12047">
        <ele>731.22</ele>
        <time>2025-06-15T12:41:59Z</time>
      </trkpt>
      <trkpt lat="44.46143" lon="5.12047">
        <ele>731.22</ele>
        <time>2025-06-15T12:42:15Z</time>
      </trkpt>
      <trkpt lat="44.46138" lon="5.12053">
        <ele>731.22</ele>
        <time>2025-06-15T12:42:31Z</time>
      </trkpt>
      <trkpt lat="44.46132" lon="5.12059">
        <ele>732.18</ele>
        <time>2025-06-15T12:42:43Z</time>
      </trkpt>
      <trkpt lat="44.46119" lon="5.12074">
        <ele>734.58</ele>
        <time>2025-06-15T12:42:58Z</time>
      </trkpt>
      <trkpt lat="44.46117" lon="5.12078">
        <ele>734.58</ele>
        <time>2025-06-15T12:43:01Z</time>
      </trkpt>
      <trkpt lat="44.46112" lon="5.12087">
        <ele>733.14</ele>
        <time>2025-06-15T12:43:08Z</time>
      </trkpt>
      <trkpt lat="44.46109" lon="5.12096">
        <ele>733.14</ele>
        <time>2025-06-15T12:43:14Z</time>
      </trkpt>
      <trkpt lat="44.46108" lon="5.12098">
        <ele>733.14</ele>
        <time>2025-06-15T12:43:16Z</time>
      </trkpt>
      <trkpt lat="44.46105" lon="5.12103">
        <ele>733.14</ele>
        <time>2025-06-15T12:43:20Z</time>
      </trkpt>
      <trkpt lat="44.46105" lon="5.12105">
        <ele>733.14</ele>
        <time>2025-06-15T12:43:21Z</time>
      </trkpt>
      <trkpt lat="44.46104" lon="5.12106">
        <ele>733.14</ele>
        <time>2025-06-15T12:43:22Z</time>
      </trkpt>
      <trkpt lat="44.46103" lon="5.12107">
        <ele>734.1</ele>
        <time>2025-06-15T12:43:23Z</time>
      </trkpt>
      <trkpt lat="44.46094" lon="5.12127">
        <ele>734.1</ele>
        <time>2025-06-15T12:43:36Z</time>
      </trkpt>
      <trkpt lat="44.46084" lon="5.1214">
        <ele>734.1</ele>
        <time>2025-06-15T12:43:49Z</time>
      </trkpt>
      <trkpt lat="44.46077" lon="5.12144">
        <ele>734.1</ele>
        <time>2025-06-15T12:43:58Z</time>
      </trkpt>
      <trkpt lat="44.46072" lon="5.12144">
        <ele>735.07</ele>
        <time>2025-06-15T12:44:03Z</time>
      </trkpt>
      <trkpt lat="44.46061" lon="5.1214">
        <ele>737.47</ele>
        <time>2025-06-15T12:44:16Z</time>
      </trkpt>
      <trkpt lat="44.46059" lon="5.12139">
        <ele>737.47</ele>
        <time>2025-06-15T12:44:18Z</time>
      </trkpt>
      <trkpt lat="44.46042" lon="5.12137">
        <ele>739.39</ele>
        <time>2025-06-15T12:44:34Z</time>
      </trkpt>
      <trkpt lat="44.46028" lon="5.1213">
        <ele>741.79</ele>
        <time>2025-06-15T12:44:48Z</time>
      </trkpt>
      <trkpt lat="44.46014" lon="5.1212">
        <ele>742.28</ele>
        <time>2025-06-15T12:45:01Z</time>
      </trkpt>
      <trkpt lat="44.4601" lon="5.12124">
        <ele>742.76</ele>
        <time>2025-06-15T12:45:06Z</time>
      </trkpt>
      <trkpt lat="44.46009" lon="5.12125">
        <ele>742.76</ele>
        <time>2025-06-15T12:45:07Z</time>
      </trkpt>
      <trkpt lat="44.46009" lon="5.12127">
        <ele>742.76</ele>
        <time>2025-06-15T12:45:08Z</time>
      </trkpt>
      <trkpt lat="44.46009" lon="5.12148">
        <ele>744.2</ele>
        <time>2025-06-15T12:45:22Z</time>
      </trkpt>
      <trkpt lat="44.46008" lon="5.12173">
        <ele>746.6</ele>
        <time>2025-06-15T12:45:39Z</time>
      </trkpt>
      <trkpt lat="44.46007" lon="5.12178">
        <ele>747.56</ele>
        <time>2025-06-15T12:45:43Z</time>
      </trkpt>
      <trkpt lat="44.46008" lon="5.1218">
        <ele>747.56</ele>
        <time>2025-06-15T12:45:44Z</time>
      </trkpt>
      <trkpt lat="44.46011" lon="5.12203">
        <ele>749.49</ele>
        <time>2025-06-15T12:45:58Z</time>
      </trkpt>
      <trkpt lat="44.46013" lon="5.12225">
        <ele>751.41</ele>
        <time>2025-06-15T12:46:13Z</time>
      </trkpt>
      <trkpt lat="44.46014" lon="5.12247">
        <ele>753.33</ele>
        <time>2025-06-15T12:46:27Z</time>
      </trkpt>
      <trkpt lat="44.46015" lon="5.12258">
        <ele>753.33</ele>
        <time>2025-06-15T12:46:33Z</time>
      </trkpt>
      <trkpt lat="44.46016" lon="5.12272">
        <ele>755.25</ele>
        <time>2025-06-15T12:46:43Z</time>
      </trkpt>
      <trkpt lat="44.46019" lon="5.12288">
        <ele>756.69</ele>
        <time>2025-06-15T12:46:55Z</time>
      </trkpt>
      <trkpt lat="44.46025" lon="5.12302">
        <ele>758.14</ele>
        <time>2025-06-15T12:47:06Z</time>
      </trkpt>
      <trkpt lat="44.46034" lon="5.12318">
        <ele>760.54</ele>
        <time>2025-06-15T12:47:22Z</time>
      </trkpt>
      <trkpt lat="44.46039" lon="5.12332">
        <ele>761.98</ele>
        <time>2025-06-15T12:47:34Z</time>
      </trkpt>
      <trkpt lat="44.4604" lon="5.12347">
        <ele>762.94</ele>
        <time>2025-06-15T12:47:47Z</time>
      </trkpt>
      <trkpt lat="44.46035" lon="5.12362">
        <ele>765.35</ele>
        <time>2025-06-15T12:47:59Z</time>
      </trkpt>
      <trkpt lat="44.46029" lon="5.12377">
        <ele>768.23</ele>
        <time>2025-06-15T12:48:12Z</time>
      </trkpt>
      <trkpt lat="44.46023" lon="5.12395">
        <ele>770.63</ele>
        <time>2025-06-15T12:48:26Z</time>
      </trkpt>
      <trkpt lat="44.46022" lon="5.12396">
        <ele>770.63</ele>
        <time>2025-06-15T12:48:27Z</time>
      </trkpt>
      <trkpt lat="44.46016" lon="5.12412">
        <ele>770.63</ele>
        <time>2025-06-15T12:48:40Z</time>
      </trkpt>
      <trkpt lat="44.46006" lon="5.12434">
        <ele>771.11</ele>
        <time>2025-06-15T12:48:56Z</time>
      </trkpt>
      <trkpt lat="44.46004" lon="5.12439">
        <ele>769.67</ele>
        <time>2025-06-15T12:48:59Z</time>
      </trkpt>
      <trkpt lat="44.45997" lon="5.12448">
        <ele>768.71</ele>
        <time>2025-06-15T12:49:06Z</time>
      </trkpt>
      <trkpt lat="44.45996" lon="5.1245">
        <ele>768.71</ele>
        <time>2025-06-15T12:49:07Z</time>
      </trkpt>
      <trkpt lat="44.45995" lon="5.12451">
        <ele>768.23</ele>
        <time>2025-06-15T12:49:08Z</time>
      </trkpt>
      <trkpt lat="44.45994" lon="5.12452">
        <ele>768.23</ele>
        <time>2025-06-15T12:49:09Z</time>
      </trkpt>
      <trkpt lat="44.45993" lon="5.12454">
        <ele>768.23</ele>
        <time>2025-06-15T12:49:10Z</time>
      </trkpt>
      <trkpt lat="44.45992" lon="5.12454">
        <ele>768.23</ele>
        <time>2025-06-15T12:49:11Z</time>
      </trkpt>
      <trkpt lat="44.4598" lon="5.12468">
        <ele>767.75</ele>
        <time>2025-06-15T12:49:24Z</time>
      </trkpt>
      <trkpt lat="44.45969" lon="5.12484">
        <ele>767.75</ele>
        <time>2025-06-15T12:49:36Z</time>
      </trkpt>
      <trkpt lat="44.45969" lon="5.12486">
        <ele>767.75</ele>
        <time>2025-06-15T12:49:37Z</time>
      </trkpt>
      <trkpt lat="44.45968" lon="5.12488">
        <ele>767.75</ele>
        <time>2025-06-15T12:49:38Z</time>
      </trkpt>
      <trkpt lat="44.4596" lon="5.125">
        <ele>769.19</ele>
        <time>2025-06-15T12:49:47Z</time>
      </trkpt>
      <trkpt lat="44.45959" lon="5.12502">
        <ele>769.19</ele>
        <time>2025-06-15T12:49:48Z</time>
      </trkpt>
      <trkpt lat="44.45959" lon="5.12503">
        <ele>769.19</ele>
        <time>2025-06-15T12:49:49Z</time>
      </trkpt>
      <trkpt lat="44.45958" lon="5.12504">
        <ele>769.19</ele>
        <time>2025-06-15T12:49:50Z</time>
      </trkpt>
      <trkpt lat="44.45945" lon="5.12516">
        <ele>770.63</ele>
        <time>2025-06-15T12:50:03Z</time>
      </trkpt>
      <trkpt lat="44.45934" lon="5.12527">
        <ele>771.6</ele>
        <time>2025-06-15T12:50:15Z</time>
      </trkpt>
      <trkpt lat="44.45924" lon="5.12543">
        <ele>773.04</ele>
        <time>2025-06-15T12:50:28Z</time>
      </trkpt>
      <trkpt lat="44.45921" lon="5.12555">
        <ele>774.48</ele>
        <time>2025-06-15T12:50:36Z</time>
      </trkpt>
      <trkpt lat="44.45918" lon="5.12573">
        <ele>776.88</ele>
        <time>2025-06-15T12:50:50Z</time>
      </trkpt>
      <trkpt lat="44.45913" lon="5.1259">
        <ele>779.77</ele>
        <time>2025-06-15T12:51:05Z</time>
      </trkpt>
      <trkpt lat="44.45904" lon="5.12601">
        <ele>782.17</ele>
        <time>2025-06-15T12:51:20Z</time>
      </trkpt>
      <trkpt lat="44.45898" lon="5.12614">
        <ele>784.09</ele>
        <time>2025-06-15T12:51:34Z</time>
      </trkpt>
      <trkpt lat="44.45898" lon="5.12631">
        <ele>786.5</ele>
        <time>2025-06-15T12:51:48Z</time>
      </trkpt>
      <trkpt lat="44.45898" lon="5.12637">
        <ele>786.98</ele>
        <time>2025-06-15T12:51:53Z</time>
      </trkpt>
      <trkpt lat="44.45895" lon="5.12651">
        <ele>789.38</ele>
        <time>2025-06-15T12:52:05Z</time>
      </trkpt>
      <trkpt lat="44.45889" lon="5.12664">
        <ele>791.3</ele>
        <time>2025-06-15T12:52:18Z</time>
      </trkpt>
      <trkpt lat="44.45883" lon="5.1268">
        <ele>794.67</ele>
        <time>2025-06-15T12:52:33Z</time>
      </trkpt>
      <trkpt lat="44.45879" lon="5.12697">
        <ele>797.55</ele>
        <time>2025-06-15T12:52:48Z</time>
      </trkpt>
      <trkpt lat="44.45877" lon="5.12706">
        <ele>798.03</ele>
        <time>2025-06-15T12:52:55Z</time>
      </trkpt>
      <trkpt lat="44.45873" lon="5.12725">
        <ele>800.44</ele>
        <time>2025-06-15T12:53:10Z</time>
      </trkpt>
      <trkpt lat="44.45868" lon="5.12744">
        <ele>802.36</ele>
        <time>2025-06-15T12:53:24Z</time>
      </trkpt>
      <trkpt lat="44.45862" lon="5.12761">
        <ele>805.24</ele>
        <time>2025-06-15T12:53:39Z</time>
      </trkpt>
      <trkpt lat="44.45856" lon="5.12776">
        <ele>807.64</ele>
        <time>2025-06-15T12:53:53Z</time>
      </trkpt>
      <trkpt lat="44.45848" lon="5.1279">
        <ele>809.57</ele>
        <time>2025-06-15T12:54:06Z</time>
      </trkpt>
      <trkpt lat="44.4584" lon="5.12811">
        <ele>810.53</ele>
        <time>2025-06-15T12:54:20Z</time>
      </trkpt>
      <trkpt lat="44.45832" lon="5.1283">
        <ele>811.97</ele>
        <time>2025-06-15T12:54:34Z</time>
      </trkpt>
      <trkpt lat="44.45824" lon="5.1285">
        <ele>814.37</ele>
        <time>2025-06-15T12:54:50Z</time>
      </trkpt>
      <trkpt lat="44.45816" lon="5.12861">
        <ele>815.34</ele>
        <time>2025-06-15T12:55:04Z</time>
      </trkpt>
      <trkpt lat="44.45805" lon="5.12871">
        <ele>815.82</ele>
        <time>2025-06-15T12:55:21Z</time>
      </trkpt>
      <trkpt lat="44.45803" lon="5.12877">
        <ele>815.82</ele>
        <time>2025-06-15T12:55:40Z</time>
      </trkpt>
      <trkpt lat="44.45802" lon="5.12879">
        <ele>815.82</ele>
        <time>2025-06-15T12:56:32Z</time>
      </trkpt>
      <trkpt lat="44.45801" lon="5.12882">
        <ele>815.82</ele>
        <time>2025-06-15T12:56:58Z</time>
      </trkpt>
      <trkpt lat="44.458" lon="5.12886">
        <ele>815.34</ele>
        <time>2025-06-15T13:01:26Z</time>
      </trkpt>
      <trkpt lat="44.4579" lon="5.12894">
        <ele>814.37</ele>
        <time>2025-06-15T13:01:41Z</time>
      </trkpt>
      <trkpt lat="44.45782" lon="5.12903">
        <ele>812.45</ele>
        <time>2025-06-15T13:01:53Z</time>
      </trkpt>
      <trkpt lat="44.45764" lon="5.12903">
        <ele>810.53</ele>
        <time>2025-06-15T13:02:07Z</time>
      </trkpt>
      <trkpt lat="44.45749" lon="5.12912">
        <ele>809.09</ele>
        <time>2025-06-15T13:02:23Z</time>
      </trkpt>
      <trkpt lat="44.45735" lon="5.12917">
        <ele>807.64</ele>
        <time>2025-06-15T13:02:34Z</time>
      </trkpt>
      <trkpt lat="44.45717" lon="5.12928">
        <ele>806.68</ele>
        <time>2025-06-15T13:02:50Z</time>
      </trkpt>
      <trkpt lat="44.45697" lon="5.12947">
        <ele>805.72</ele>
        <time>2025-06-15T13:03:05Z</time>
      </trkpt>
      <trkpt lat="44.45681" lon="5.12955">
        <ele>804.76</ele>
        <time>2025-06-15T13:03:19Z</time>
      </trkpt>
      <trkpt lat="44.45664" lon="5.12966">
        <ele>803.32</ele>
        <time>2025-06-15T13:03:35Z</time>
      </trkpt>
      <trkpt lat="44.45651" lon="5.12979">
        <ele>799.47</ele>
        <time>2025-06-15T13:03:49Z</time>
      </trkpt>
      <trkpt lat="44.45643" lon="5.13">
        <ele>796.11</ele>
        <time>2025-06-15T13:04:04Z</time>
      </trkpt>
      <trkpt lat="44.4564" lon="5.13004">
        <ele>795.15</ele>
        <time>2025-06-15T13:04:08Z</time>
      </trkpt>
      <trkpt lat="44.45636" lon="5.13007">
        <ele>794.19</ele>
        <time>2025-06-15T13:04:12Z</time>
      </trkpt>
      <trkpt lat="44.45628" lon="5.13025">
        <ele>790.82</ele>
        <time>2025-06-15T13:04:26Z</time>
      </trkpt>
      <trkpt lat="44.4562" lon="5.1304">
        <ele>787.94</ele>
        <time>2025-06-15T13:04:37Z</time>
      </trkpt>
      <trkpt lat="44.45619" lon="5.13041">
        <ele>787.94</ele>
        <time>2025-06-15T13:04:38Z</time>
      </trkpt>
      <trkpt lat="44.45613" lon="5.1305">
        <ele>786.5</ele>
        <time>2025-06-15T13:04:45Z</time>
      </trkpt>
      <trkpt lat="44.45601" lon="5.1307">
        <ele>783.61</ele>
        <time>2025-06-15T13:04:59Z</time>
      </trkpt>
      <trkpt lat="44.456" lon="5.1307">
        <ele>783.61</ele>
        <time>2025-06-15T13:05:00Z</time>
      </trkpt>
      <trkpt lat="44.45595" lon="5.13077">
        <ele>782.65</ele>
        <time>2025-06-15T13:05:06Z</time>
      </trkpt>
      <trkpt lat="44.45594" lon="5.13078">
        <ele>782.17</ele>
        <time>2025-06-15T13:05:07Z</time>
      </trkpt>
      <trkpt lat="44.45579" lon="5.1309">
        <ele>779.29</ele>
        <time>2025-06-15T13:05:21Z</time>
      </trkpt>
      <trkpt lat="44.45577" lon="5.13091">
        <ele>778.81</ele>
        <time>2025-06-15T13:05:23Z</time>
      </trkpt>
      <trkpt lat="44.45561" lon="5.1311">
        <ele>775.44</ele>
        <time>2025-06-15T13:05:40Z</time>
      </trkpt>
      <trkpt lat="44.45548" lon="5.13127">
        <ele>773.04</ele>
        <time>2025-06-15T13:05:54Z</time>
      </trkpt>
      <trkpt lat="44.45547" lon="5.13129">
        <ele>773.04</ele>
        <time>2025-06-15T13:05:55Z</time>
      </trkpt>
      <trkpt lat="44.45547" lon="5.1313">
        <ele>772.08</ele>
        <time>2025-06-15T13:05:56Z</time>
      </trkpt>
      <trkpt lat="44.45546" lon="5.13132">
        <ele>772.08</ele>
        <time>2025-06-15T13:05:57Z</time>
      </trkpt>
      <trkpt lat="44.45535" lon="5.13152">
        <ele>768.71</ele>
        <time>2025-06-15T13:06:13Z</time>
      </trkpt>
      <trkpt lat="44.45521" lon="5.1317">
        <ele>765.35</ele>
        <time>2025-06-15T13:06:30Z</time>
      </trkpt>
      <trkpt lat="44.45521" lon="5.13171">
        <ele>765.35</ele>
        <time>2025-06-15T13:06:31Z</time>
      </trkpt>
      <trkpt lat="44.45507" lon="5.13188">
        <ele>762.46</ele>
        <time>2025-06-15T13:06:46Z</time>
      </trkpt>
      <trkpt lat="44.45497" lon="5.13205">
        <ele>759.1</ele>
        <time>2025-06-15T13:07:00Z</time>
      </trkpt>
      <trkpt lat="44.45486" lon="5.13225">
        <ele>756.69</ele>
        <time>2025-06-15T13:07:15Z</time>
      </trkpt>
      <trkpt lat="44.45476" lon="5.13247">
        <ele>753.33</ele>
        <time>2025-06-15T13:07:30Z</time>
      </trkpt>
      <trkpt lat="44.45472" lon="5.13261">
        <ele>751.41</ele>
        <time>2025-06-15T13:07:40Z</time>
      </trkpt>
      <trkpt lat="44.45472" lon="5.13263">
        <ele>750.45</ele>
        <time>2025-06-15T13:07:41Z</time>
      </trkpt>
      <trkpt lat="44.4547" lon="5.13274">
        <ele>749</ele>
        <time>2025-06-15T13:07:48Z</time>
      </trkpt>
      <trkpt lat="44.45469" lon="5.13276">
        <ele>749</ele>
        <time>2025-06-15T13:07:49Z</time>
      </trkpt>
      <trkpt lat="44.45461" lon="5.13301">
        <ele>746.12</ele>
        <time>2025-06-15T13:08:05Z</time>
      </trkpt>
      <trkpt lat="44.4546" lon="5.13303">
        <ele>746.12</ele>
        <time>2025-06-15T13:08:06Z</time>
      </trkpt>
      <trkpt lat="44.45452" lon="5.13329">
        <ele>742.28</ele>
        <time>2025-06-15T13:08:23Z</time>
      </trkpt>
      <trkpt lat="44.45445" lon="5.13357">
        <ele>738.91</ele>
        <time>2025-06-15T13:08:41Z</time>
      </trkpt>
      <trkpt lat="44.45435" lon="5.13383">
        <ele>735.55</ele>
        <time>2025-06-15T13:08:58Z</time>
      </trkpt>
      <trkpt lat="44.45428" lon="5.13403">
        <ele>733.62</ele>
        <time>2025-06-15T13:09:12Z</time>
      </trkpt>
      <trkpt lat="44.45422" lon="5.13408">
        <ele>732.66</ele>
        <time>2025-06-15T13:09:29Z</time>
      </trkpt>
      <trkpt lat="44.45421" lon="5.13412">
        <ele>731.22</ele>
        <time>2025-06-15T13:09:47Z</time>
      </trkpt>
      <trkpt lat="44.4541" lon="5.13426">
        <ele>728.82</ele>
        <time>2025-06-15T13:10:04Z</time>
      </trkpt>
      <trkpt lat="44.45395" lon="5.13431">
        <ele>725.45</ele>
        <time>2025-06-15T13:10:19Z</time>
      </trkpt>
      <trkpt lat="44.45386" lon="5.13427">
        <ele>722.09</ele>
        <time>2025-06-15T13:10:31Z</time>
      </trkpt>
      <trkpt lat="44.45381" lon="5.1342">
        <ele>719.68</ele>
        <time>2025-06-15T13:10:40Z</time>
      </trkpt>
      <trkpt lat="44.45373" lon="5.134">
        <ele>717.28</ele>
        <time>2025-06-15T13:10:55Z</time>
      </trkpt>
      <trkpt lat="44.45363" lon="5.13386">
        <ele>713.92</ele>
        <time>2025-06-15T13:11:09Z</time>
      </trkpt>
      <trkpt lat="44.45349" lon="5.13364">
        <ele>711.03</ele>
        <time>2025-06-15T13:11:25Z</time>
      </trkpt>
      <trkpt lat="44.45347" lon="5.13361">
        <ele>710.55</ele>
        <time>2025-06-15T13:11:27Z</time>
      </trkpt>
      <trkpt lat="44.45345" lon="5.13358">
        <ele>710.07</ele>
        <time>2025-06-15T13:11:29Z</time>
      </trkpt>
      <trkpt lat="44.45344" lon="5.13356">
        <ele>710.07</ele>
        <time>2025-06-15T13:11:30Z</time>
      </trkpt>
      <trkpt lat="44.45343" lon="5.13355">
        <ele>709.59</ele>
        <time>2025-06-15T13:11:31Z</time>
      </trkpt>
      <trkpt lat="44.45332" lon="5.13324">
        <ele>706.71</ele>
        <time>2025-06-15T13:11:50Z</time>
      </trkpt>
      <trkpt lat="44.45325" lon="5.13304">
        <ele>703.34</ele>
        <time>2025-06-15T13:12:02Z</time>
      </trkpt>
      <trkpt lat="44.45321" lon="5.13285">
        <ele>700.46</ele>
        <time>2025-06-15T13:12:13Z</time>
      </trkpt>
      <trkpt lat="44.45319" lon="5.13264">
        <ele>697.09</ele>
        <time>2025-06-15T13:12:26Z</time>
      </trkpt>
      <trkpt lat="44.45319" lon="5.13258">
        <ele>696.13</ele>
        <time>2025-06-15T13:12:30Z</time>
      </trkpt>
      <trkpt lat="44.45319" lon="5.13256">
        <ele>695.17</ele>
        <time>2025-06-15T13:12:31Z</time>
      </trkpt>
      <trkpt lat="44.45318" lon="5.13253">
        <ele>694.69</ele>
        <time>2025-06-15T13:12:33Z</time>
      </trkpt>
      <trkpt lat="44.45318" lon="5.13251">
        <ele>694.21</ele>
        <time>2025-06-15T13:12:34Z</time>
      </trkpt>
      <trkpt lat="44.45316" lon="5.13244">
        <ele>692.77</ele>
        <time>2025-06-15T13:12:40Z</time>
      </trkpt>
      <trkpt lat="44.45315" lon="5.13243">
        <ele>692.29</ele>
        <time>2025-06-15T13:12:41Z</time>
      </trkpt>
      <trkpt lat="44.45314" lon="5.13241">
        <ele>691.81</ele>
        <time>2025-06-15T13:12:42Z</time>
      </trkpt>
      <trkpt lat="44.45307" lon="5.13234">
        <ele>690.36</ele>
        <time>2025-06-15T13:12:48Z</time>
      </trkpt>
      <trkpt lat="44.45294" lon="5.13233">
        <ele>687</ele>
        <time>2025-06-15T13:12:58Z</time>
      </trkpt>
      <trkpt lat="44.45285" lon="5.13222">
        <ele>683.63</ele>
        <time>2025-06-15T13:13:09Z</time>
      </trkpt>
      <trkpt lat="44.45283" lon="5.13212">
        <ele>681.71</ele>
        <time>2025-06-15T13:13:16Z</time>
      </trkpt>
      <trkpt lat="44.45283" lon="5.13211">
        <ele>681.71</ele>
        <time>2025-06-15T13:13:17Z</time>
      </trkpt>
      <trkpt lat="44.45279" lon="5.13206">
        <ele>680.75</ele>
        <time>2025-06-15T13:13:21Z</time>
      </trkpt>
      <trkpt lat="44.45278" lon="5.13205">
        <ele>680.27</ele>
        <time>2025-06-15T13:13:22Z</time>
      </trkpt>
      <trkpt lat="44.45275" lon="5.13202">
        <ele>679.79</ele>
        <time>2025-06-15T13:13:25Z</time>
      </trkpt>
      <trkpt lat="44.45273" lon="5.13204">
        <ele>678.35</ele>
        <time>2025-06-15T13:13:28Z</time>
      </trkpt>
      <trkpt lat="44.45272" lon="5.13204">
        <ele>678.35</ele>
        <time>2025-06-15T13:13:29Z</time>
      </trkpt>
      <trkpt lat="44.45263" lon="5.13214">
        <ele>674.98</ele>
        <time>2025-06-15T13:13:38Z</time>
      </trkpt>
      <trkpt lat="44.45255" lon="5.1323">
        <ele>671.62</ele>
        <time>2025-06-15T13:13:49Z</time>
      </trkpt>
      <trkpt lat="44.45243" lon="5.13244">
        <ele>668.25</ele>
        <time>2025-06-15T13:14:01Z</time>
      </trkpt>
      <trkpt lat="44.45231" lon="5.13249">
        <ele>666.81</ele>
        <time>2025-06-15T13:14:14Z</time>
      </trkpt>
      <trkpt lat="44.45218" lon="5.13234">
        <ele>664.89</ele>
        <time>2025-06-15T13:14:29Z</time>
      </trkpt>
      <trkpt lat="44.45191" lon="5.13215">
        <ele>663.45</ele>
        <time>2025-06-15T13:14:52Z</time>
      </trkpt>
      <trkpt lat="44.4519" lon="5.13214">
        <ele>663.45</ele>
        <time>2025-06-15T13:14:53Z</time>
      </trkpt>
      <trkpt lat="44.45189" lon="5.13213">
        <ele>663.45</ele>
        <time>2025-06-15T13:14:54Z</time>
      </trkpt>
      <trkpt lat="44.45188" lon="5.13212">
        <ele>663.45</ele>
        <time>2025-06-15T13:14:55Z</time>
      </trkpt>
      <trkpt lat="44.45187" lon="5.13211">
        <ele>663.45</ele>
        <time>2025-06-15T13:14:56Z</time>
      </trkpt>
      <trkpt lat="44.45164" lon="5.13199">
        <ele>661.52</ele>
        <time>2025-06-15T13:15:15Z</time>
      </trkpt>
      <trkpt lat="44.45145" lon="5.13183">
        <ele>660.08</ele>
        <time>2025-06-15T13:15:33Z</time>
      </trkpt>
      <trkpt lat="44.45129" lon="5.13163">
        <ele>657.68</ele>
        <time>2025-06-15T13:15:49Z</time>
      </trkpt>
      <trkpt lat="44.45122" lon="5.13164">
        <ele>656.72</ele>
        <time>2025-06-15T13:15:55Z</time>
      </trkpt>
      <trkpt lat="44.45122" lon="5.13165">
        <ele>656.72</ele>
        <time>2025-06-15T13:15:56Z</time>
      </trkpt>
      <trkpt lat="44.45121" lon="5.13166">
        <ele>656.24</ele>
        <time>2025-06-15T13:15:57Z</time>
      </trkpt>
      <trkpt lat="44.45121" lon="5.13168">
        <ele>656.24</ele>
        <time>2025-06-15T13:15:58Z</time>
      </trkpt>
      <trkpt lat="44.45121" lon="5.1317">
        <ele>656.24</ele>
        <time>2025-06-15T13:15:59Z</time>
      </trkpt>
      <trkpt lat="44.45121" lon="5.13194">
        <ele>654.8</ele>
        <time>2025-06-15T13:16:15Z</time>
      </trkpt>
      <trkpt lat="44.45119" lon="5.13194">
        <ele>654.8</ele>
        <time>2025-06-15T13:16:16Z</time>
      </trkpt>
      <trkpt lat="44.45118" lon="5.13195">
        <ele>654.8</ele>
        <time>2025-06-15T13:16:17Z</time>
      </trkpt>
      <trkpt lat="44.45117" lon="5.13194">
        <ele>654.31</ele>
        <time>2025-06-15T13:16:18Z</time>
      </trkpt>
      <trkpt lat="44.45115" lon="5.13195">
        <ele>654.31</ele>
        <time>2025-06-15T13:16:19Z</time>
      </trkpt>
      <trkpt lat="44.45114" lon="5.13194">
        <ele>654.31</ele>
        <time>2025-06-15T13:16:20Z</time>
      </trkpt>
      <trkpt lat="44.451" lon="5.13191">
        <ele>654.31</ele>
        <time>2025-06-15T13:16:32Z</time>
      </trkpt>
      <trkpt lat="44.45098" lon="5.13192">
        <ele>653.83</ele>
        <time>2025-06-15T13:16:41Z</time>
      </trkpt>
      <trkpt lat="44.45096" lon="5.13191">
        <ele>653.83</ele>
        <time>2025-06-15T13:16:44Z</time>
      </trkpt>
      <trkpt lat="44.45094" lon="5.13191">
        <ele>653.83</ele>
        <time>2025-06-15T13:16:46Z</time>
      </trkpt>
      <trkpt lat="44.45093" lon="5.1319">
        <ele>653.83</ele>
        <time>2025-06-15T13:16:47Z</time>
      </trkpt>
      <trkpt lat="44.45091" lon="5.13189">
        <ele>653.83</ele>
        <time>2025-06-15T13:16:49Z</time>
      </trkpt>
      <trkpt lat="44.4509" lon="5.13188">
        <ele>653.83</ele>
        <time>2025-06-15T13:16:50Z</time>
      </trkpt>
      <trkpt lat="44.45089" lon="5.13187">
        <ele>653.83</ele>
        <time>2025-06-15T13:16:51Z</time>
      </trkpt>
      <trkpt lat="44.45088" lon="5.13187">
        <ele>653.83</ele>
        <time>2025-06-15T13:16:52Z</time>
      </trkpt>
      <trkpt lat="44.45087" lon="5.13186">
        <ele>653.83</ele>
        <time>2025-06-15T13:16:53Z</time>
      </trkpt>
      <trkpt lat="44.45072" lon="5.13175">
        <ele>655.76</ele>
        <time>2025-06-15T13:17:07Z</time>
      </trkpt>
      <trkpt lat="44.45055" lon="5.1317">
        <ele>657.2</ele>
        <time>2025-06-15T13:17:21Z</time>
      </trkpt>
      <trkpt lat="44.45038" lon="5.13177">
        <ele>658.16</ele>
        <time>2025-06-15T13:17:37Z</time>
      </trkpt>
      <trkpt lat="44.45024" lon="5.1318">
        <ele>659.12</ele>
        <time>2025-06-15T13:17:49Z</time>
      </trkpt>
      <trkpt lat="44.45023" lon="5.1318">
        <ele>659.12</ele>
        <time>2025-06-15T13:17:50Z</time>
      </trkpt>
      <trkpt lat="44.45021" lon="5.1318">
        <ele>659.12</ele>
        <time>2025-06-15T13:17:51Z</time>
      </trkpt>
      <trkpt lat="44.45008" lon="5.13178">
        <ele>660.08</ele>
        <time>2025-06-15T13:18:04Z</time>
      </trkpt>
    </trkseg>
  </trk>
</gpx>